Darstellungsparameter: Aktuell verwendete Einstellungen:
Skalierung der Graphiken ... ?
xyx+y,   Skalierungsfaktor:      Skalierung: Modus: x, Faktor: 1
Darstellungszeitraum ... ?
Vom - - bis: - -   Zeitraum: 17.07.2016 - 16.08.2016
Min/Max/Avg-Anzeige ... ?
Zeige MMA aktuell
Zeige MMA Monat
Zeige MMA alles
Zeige --A aktuell
Zeige --A Monat
Zeige --A alles
Keine MMA-Anzeige
MMA:
Average (ber die Originaldaten)
MMA-Basis: 17.07.2016 - 16.08.2016
Quicknavigation für Darstellung... ?
Tage:      1T, 2T, 3T, 5T -1T -2T -3T -5T +1T +2T +3T +5T
Wochen: 1W, 2W, 3W -1W -2W -3W +1W +2W +3W
Monate: 1M, 3M, 6M -1M -3M -6M +1M +3M +6M
Jahre:    1J, 3J, 5J, 10J -1J -3J -5J -10J +1J +3J +5J +10J
Nutze für die Darstellung ... ?
Originaldaten oder Mittelwerte auf ...
Stundenbasis Tagesbasis Wochenbasis
Monatsbasis Jahresbasis      Datenbasis: Original-Daten
Darstellen als:
Statistik (Auto) Statistik J:M      Darstellung:
Zur Graphik,    zurück zur Übersicht aller Sensoren.
 
Tabellarische Datenbersicht: ?
 
Sensor: Nr:Datum:Temp:Feuchte:Taupunkt:
Aussen-T/F 1 17-07-2016 00:00:00 16.9 C 91 % 15.42 C
2 17-07-2016 00:05:00 16.8 C 92 % 15.49 C
3 17-07-2016 00:10:00 16.8 C 92 % 15.49 C
4 17-07-2016 00:15:00 16.7 C 92 % 15.39 C
5 17-07-2016 00:20:00 16.6 C 92 % 15.3 C
6 17-07-2016 00:25:00 16.5 C 92 % 15.2 C
7 17-07-2016 00:30:00 16.4 C 92 % 15.1 C
8 17-07-2016 00:35:00 16.3 C 92 % 15 C
9 17-07-2016 00:40:00 16.2 C 92 % 14.9 C
10 17-07-2016 00:45:00 16.2 C 93 % 15.07 C
11 17-07-2016 00:50:00 16.2 C 93 % 15.07 C
12 17-07-2016 00:55:00 16.2 C 93 % 15.07 C
13 17-07-2016 01:00:00 16.3 C 94 % 15.33 C
14 17-07-2016 01:05:00 16.3 C 94 % 15.33 C
15 17-07-2016 01:10:00 16.4 C 94 % 15.43 C
16 17-07-2016 01:15:00 16.5 C 94 % 15.53 C
17 17-07-2016 01:20:00 16.5 C 94 % 15.53 C
18 17-07-2016 01:25:00 16.6 C 94 % 15.63 C
19 17-07-2016 01:30:00 16.6 C 94 % 15.63 C
20 17-07-2016 01:35:00 16.7 C 94 % 15.73 C
21 17-07-2016 01:40:00 16.7 C 94 % 15.73 C
22 17-07-2016 01:45:00 16.7 C 94 % 15.73 C
23 17-07-2016 01:50:00 16.7 C 94 % 15.73 C
24 17-07-2016 01:55:00 16.8 C 94 % 15.83 C
25 17-07-2016 02:00:00 16.8 C 94 % 15.83 C
Sensor: Nr:Datum:Temp:Feuchte:Taupunkt:
Aussen-T/F 26 17-07-2016 02:05:00 16.9 C 94 % 15.93 C
27 17-07-2016 02:10:00 16.9 C 94 % 15.93 C
28 17-07-2016 02:15:00 16.9 C 94 % 15.93 C
29 17-07-2016 02:20:00 17 C 94 % 16.03 C
30 17-07-2016 02:25:00 17.1 C 94 % 16.13 C
31 17-07-2016 02:30:00 17.1 C 94 % 16.13 C
32 17-07-2016 02:35:00 17.1 C 94 % 16.13 C
33 17-07-2016 02:40:00 17.1 C 94 % 16.13 C
34 17-07-2016 02:45:00 17.2 C 94 % 16.23 C
35 17-07-2016 02:50:00 17.2 C 93 % 16.06 C
36 17-07-2016 02:55:00 17.2 C 93 % 16.06 C
37 17-07-2016 03:00:00 17.2 C 93 % 16.06 C
38 17-07-2016 03:05:00 17.3 C 93 % 16.16 C
39 17-07-2016 03:10:00 17.3 C 93 % 16.16 C
40 17-07-2016 03:15:00 17.3 C 93 % 16.16 C
41 17-07-2016 03:20:00 17.2 C 93 % 16.06 C
42 17-07-2016 03:25:00 17.2 C 93 % 16.06 C
43 17-07-2016 03:30:00 17.2 C 93 % 16.06 C
44 17-07-2016 03:35:00 17.2 C 93 % 16.06 C
45 17-07-2016 03:40:00 17.2 C 93 % 16.06 C
46 17-07-2016 03:45:00 17.2 C 93 % 16.06 C
47 17-07-2016 03:50:00 17.2 C 93 % 16.06 C
48 17-07-2016 03:55:00 17.1 C 93 % 15.96 C
49 17-07-2016 04:00:00 17.1 C 93 % 15.96 C
50 17-07-2016 04:05:00 17.1 C 94 % 16.13 C
Sensor: Nr:Datum:Temp:Feuchte:Taupunkt:
Aussen-T/F 51 17-07-2016 04:10:00 17.1 C 94 % 16.13 C
52 17-07-2016 04:15:00 17.2 C 94 % 16.23 C
53 17-07-2016 04:20:00 17.2 C 94 % 16.23 C
54 17-07-2016 04:25:00 17.2 C 94 % 16.23 C
55 17-07-2016 04:30:00 17.2 C 94 % 16.23 C
56 17-07-2016 04:35:00 17.1 C 94 % 16.13 C
57 17-07-2016 04:40:00 17.1 C 94 % 16.13 C
58 17-07-2016 04:45:00 17 C 93 % 15.86 C
59 17-07-2016 04:50:00 16.9 C 93 % 15.76 C
60 17-07-2016 04:55:00 16.7 C 93 % 15.56 C
61 17-07-2016 05:00:00 16.6 C 93 % 15.46 C
62 17-07-2016 05:05:00 16.5 C 93 % 15.36 C
63 17-07-2016 05:10:00 16.5 C 93 % 15.36 C
64 17-07-2016 05:15:00 16.5 C 94 % 15.53 C
65 17-07-2016 05:20:00 16.5 C 94 % 15.53 C
66 17-07-2016 05:25:00 16.5 C 94 % 15.53 C
67 17-07-2016 05:30:00 16.5 C 94 % 15.53 C
68 17-07-2016 05:35:00 16.5 C 94 % 15.53 C
69 17-07-2016 05:40:00 16.4 C 94 % 15.43 C
70 17-07-2016 05:45:00 16.4 C 94 % 15.43 C
71 17-07-2016 05:50:00 16.4 C 94 % 15.43 C
72 17-07-2016 05:55:00 16.5 C 95 % 15.7 C
73 17-07-2016 06:00:00 16.6 C 95 % 15.8 C
74 17-07-2016 06:05:00 16.6 C 95 % 15.8 C
75 17-07-2016 06:10:00 16.6 C 95 % 15.8 C
Sensor: Nr:Datum:Temp:Feuchte:Taupunkt:
Aussen-T/F 76 17-07-2016 06:15:00 16.7 C 95 % 15.9 C
77 17-07-2016 06:20:00 16.7 C 95 % 15.9 C
78 17-07-2016 06:25:00 16.8 C 95 % 15.99 C
79 17-07-2016 06:30:00 16.8 C 95 % 15.99 C
80 17-07-2016 06:35:00 16.9 C 95 % 16.09 C
81 17-07-2016 06:40:00 17 C 95 % 16.19 C
82 17-07-2016 06:45:00 17.1 C 95 % 16.29 C
83 17-07-2016 06:50:00 17.1 C 95 % 16.29 C
84 17-07-2016 06:55:00 17.1 C 95 % 16.29 C
85 17-07-2016 07:00:00 17.2 C 95 % 16.39 C
86 17-07-2016 07:05:00 17.2 C 95 % 16.39 C
87 17-07-2016 07:10:00 17.3 C 95 % 16.49 C
88 17-07-2016 07:15:00 17.4 C 95 % 16.59 C
89 17-07-2016 07:20:00 17.4 C 95 % 16.59 C
90 17-07-2016 07:25:00 17.5 C 95 % 16.69 C
91 17-07-2016 07:30:00 17.6 C 95 % 16.79 C
92 17-07-2016 07:35:00 17.7 C 95 % 16.89 C
93 17-07-2016 07:40:00 17.7 C 94 % 16.72 C
94 17-07-2016 07:45:00 17.8 C 94 % 16.82 C
95 17-07-2016 07:50:00 17.9 C 94 % 16.92 C
96 17-07-2016 07:55:00 18.1 C 93 % 16.95 C
97 17-07-2016 08:00:00 18.2 C 93 % 17.05 C
98 17-07-2016 08:05:00 18.3 C 92 % 16.98 C
99 17-07-2016 08:10:00 18.4 C 92 % 17.08 C
100 17-07-2016 08:15:00 18.5 C 92 % 17.18 C
Sensor: Nr:Datum:Temp:Feuchte:Taupunkt:
Aussen-T/F 101 17-07-2016 08:20:00 18.6 C 92 % 17.27 C
102 17-07-2016 08:25:00 18.8 C 92 % 17.47 C
103 17-07-2016 08:30:00 18.8 C 92 % 17.47 C
104 17-07-2016 08:35:00 18.9 C 91 % 17.4 C
105 17-07-2016 08:40:00 19.1 C 90 % 17.42 C
106 17-07-2016 08:45:00 19.1 C 90 % 17.42 C
107 17-07-2016 08:50:00 19.3 C 90 % 17.62 C
108 17-07-2016 08:55:00 19.4 C 89 % 17.54 C
109 17-07-2016 09:00:00 19.5 C 88 % 17.46 C
110 17-07-2016 09:05:00 19.6 C 88 % 17.56 C
111 17-07-2016 09:10:00 19.7 C 88 % 17.66 C
112 17-07-2016 09:15:00 19.8 C 88 % 17.75 C
113 17-07-2016 09:20:00 20 C 88 % 17.95 C
114 17-07-2016 09:25:00 20.2 C 87 % 17.97 C
115 17-07-2016 09:30:00 20.3 C 87 % 18.06 C
116 17-07-2016 09:35:00 20.4 C 86 % 17.98 C
117 17-07-2016 09:40:00 20.6 C 87 % 18.36 C
118 17-07-2016 09:45:00 20.8 C 85 % 18.18 C
119 17-07-2016 09:50:00 20.9 C 84 % 18.09 C
120 17-07-2016 09:55:00 21.2 C 84 % 18.39 C
121 17-07-2016 10:00:00 21.4 C 83 % 18.39 C
122 17-07-2016 10:05:00 21.7 C 82 % 18.49 C
123 17-07-2016 10:10:00 21.9 C 81 % 18.49 C
124 17-07-2016 10:15:00 22.1 C 80 % 18.49 C
125 17-07-2016 10:20:00 22.2 C 80 % 18.58 C
Sensor: Nr:Datum:Temp:Feuchte:Taupunkt:
Aussen-T/F 126 17-07-2016 10:25:00 22.3 C 80 % 18.68 C
127 17-07-2016 10:30:00 22.5 C 79 % 18.67 C
128 17-07-2016 10:35:00 22.7 C 77 % 18.46 C
129 17-07-2016 10:40:00 22.8 C 74 % 17.92 C
130 17-07-2016 10:45:00 22.9 C 74 % 18.02 C
131 17-07-2016 10:50:00 23.1 C 75 % 18.43 C
132 17-07-2016 10:55:00 23.3 C 73 % 18.19 C
133 17-07-2016 11:00:00 23.4 C 73 % 18.28 C
134 17-07-2016 11:05:00 23.5 C 72 % 18.16 C
135 17-07-2016 11:10:00 23.6 C 73 % 18.48 C
136 17-07-2016 11:15:00 23.7 C 72 % 18.35 C
137 17-07-2016 11:20:00 23.8 C 69 % 17.77 C
138 17-07-2016 11:25:00 23.8 C 74 % 18.89 C
139 17-07-2016 11:30:00 23.7 C 70 % 17.9 C
140 17-07-2016 11:35:00 23.7 C 70 % 17.9 C
141 17-07-2016 11:40:00 23.7 C 73 % 18.57 C
142 17-07-2016 11:45:00 23.7 C 73 % 18.57 C
143 17-07-2016 11:50:00 23.8 C 73 % 18.67 C
144 17-07-2016 11:55:00 24 C 71 % 18.42 C
145 17-07-2016 12:00:00 24.2 C 73 % 19.05 C
146 17-07-2016 12:05:00 24.3 C 72 % 18.93 C
147 17-07-2016 12:10:00 24.4 C 72 % 19.02 C
148 17-07-2016 12:15:00 24.6 C 76 % 20.09 C
149 17-07-2016 12:20:00 24.5 C 74 % 19.56 C
150 17-07-2016 12:25:00 24.6 C 69 % 18.53 C
Sensor: Nr:Datum:Temp:Feuchte:Taupunkt:
Aussen-T/F 151 17-07-2016 12:30:00 24.7 C 74 % 19.75 C
152 17-07-2016 12:35:00 24.7 C 74 % 19.75 C
153 17-07-2016 12:40:00 24.4 C 75 % 19.68 C
154 17-07-2016 12:45:00 24.2 C 76 % 19.7 C
155 17-07-2016 12:50:00 23.9 C 78 % 19.83 C
156 17-07-2016 12:55:00 23.7 C 79 % 19.84 C
157 17-07-2016 13:00:00 23.5 C 79 % 19.65 C
158 17-07-2016 13:05:00 23.4 C 81 % 19.95 C
159 17-07-2016 13:10:00 23.4 C 82 % 20.15 C
160 17-07-2016 13:15:00 23.7 C 75 % 19 C
161 17-07-2016 13:20:00 24.2 C 76 % 19.7 C
162 17-07-2016 13:25:00 24.4 C 70 % 18.57 C
163 17-07-2016 13:30:00 24.7 C 70 % 18.86 C
164 17-07-2016 13:35:00 24.9 C 69 % 18.82 C
165 17-07-2016 13:40:00 24.9 C 71 % 19.28 C
166 17-07-2016 13:45:00 25 C 70 % 19.15 C
167 17-07-2016 13:50:00 25.2 C 71 % 19.56 C
168 17-07-2016 13:55:00 25.3 C 69 % 19.2 C
169 17-07-2016 14:00:00 25.4 C 71 % 19.76 C
170 17-07-2016 14:05:00 25.4 C 72 % 19.98 C
171 17-07-2016 14:10:00 25.6 C 75 % 20.84 C
172 17-07-2016 14:15:00 25.5 C 75 % 20.74 C
173 17-07-2016 14:20:00 25.3 C 75 % 20.55 C
174 17-07-2016 14:25:00 25.2 C 76 % 20.67 C
175 17-07-2016 14:30:00 25.2 C 77 % 20.88 C
Sensor: Nr:Datum:Temp:Feuchte:Taupunkt:
Aussen-T/F 176 17-07-2016 14:35:00 25.2 C 77 % 20.88 C
177 17-07-2016 14:40:00 25.3 C 75 % 20.55 C
178 17-07-2016 14:45:00 25.4 C 75 % 20.64 C
179 17-07-2016 14:50:00 25.5 C 73 % 20.3 C
180 17-07-2016 14:55:00 25.6 C 75 % 20.84 C
181 17-07-2016 15:00:00 25.7 C 75 % 20.93 C
182 17-07-2016 15:05:00 25.7 C 75 % 20.93 C
183 17-07-2016 15:10:00 25.7 C 77 % 21.36 C
184 17-07-2016 15:15:00 25.7 C 78 % 21.57 C
185 17-07-2016 15:20:00 25.7 C 69 % 19.58 C
186 17-07-2016 15:25:00 25.8 C 73 % 20.59 C
187 17-07-2016 15:30:00 25.7 C 71 % 20.04 C
188 17-07-2016 15:35:00 25.3 C 64 % 18 C
189 17-07-2016 15:40:00 25.1 C 65 % 18.06 C
190 17-07-2016 15:45:00 25.1 C 66 % 18.3 C
191 17-07-2016 15:50:00 25.2 C 66 % 18.39 C
192 17-07-2016 15:55:00 25.7 C 66 % 18.87 C
193 17-07-2016 16:00:00 26.3 C 62 % 18.44 C
194 17-07-2016 16:05:00 26.7 C 60 % 18.29 C
195 17-07-2016 16:10:00 26.7 C 61 % 18.55 C
196 17-07-2016 16:15:00 26.4 C 62 % 18.53 C
197 17-07-2016 16:20:00 26.1 C 62 % 18.25 C
198 17-07-2016 16:25:00 26.1 C 62 % 18.25 C
199 17-07-2016 16:30:00 26.2 C 63 % 18.6 C
200 17-07-2016 16:35:00 26.6 C 62 % 18.72 C
Sensor: Nr:Datum:Temp:Feuchte:Taupunkt:
Aussen-T/F 201 17-07-2016 16:40:00 27.1 C 60 % 18.66 C
202 17-07-2016 16:45:00 27.1 C 58 % 18.12 C
203 17-07-2016 16:50:00 26.8 C 60 % 18.38 C
204 17-07-2016 16:55:00 26.8 C 61 % 18.65 C
205 17-07-2016 17:00:00 26.7 C 60 % 18.29 C
206 17-07-2016 17:05:00 26.4 C 61 % 18.27 C
207 17-07-2016 17:10:00 26.2 C 61 % 18.08 C
208 17-07-2016 17:15:00 26.2 C 61 % 18.08 C
209 17-07-2016 17:20:00 26.3 C 60 % 17.91 C
210 17-07-2016 17:25:00 26.2 C 60 % 17.82 C
211 17-07-2016 17:30:00 26.4 C 59 % 17.74 C
212 17-07-2016 17:35:00 26.5 C 59 % 17.83 C
213 17-07-2016 17:40:00 26.4 C 58 % 17.47 C
214 17-07-2016 17:45:00 26.2 C 59 % 17.55 C
215 17-07-2016 17:50:00 26.2 C 58 % 17.28 C
216 17-07-2016 17:55:00 26.4 C 57 % 17.19 C
217 17-07-2016 18:00:00 26.4 C 56 % 16.92 C
218 17-07-2016 18:05:00 26.1 C 56 % 16.64 C
219 17-07-2016 18:10:00 25.9 C 59 % 17.27 C
220 17-07-2016 18:15:00 25.9 C 58 % 17 C
221 17-07-2016 18:20:00 26.1 C 58 % 17.19 C
222 17-07-2016 18:25:00 26.1 C 58 % 17.19 C
223 17-07-2016 18:30:00 25.8 C 59 % 17.18 C
224 17-07-2016 18:35:00 25.7 C 60 % 17.35 C
225 17-07-2016 18:40:00 25.6 C 60 % 17.26 C
Sensor: Nr:Datum:Temp:Feuchte:Taupunkt:
Aussen-T/F 226 17-07-2016 18:45:00 25.7 C 61 % 17.61 C
227 17-07-2016 18:50:00 25.7 C 65 % 18.62 C
228 17-07-2016 18:55:00 25.7 C 60 % 17.35 C
229 17-07-2016 19:00:00 25.6 C 59 % 16.99 C
230 17-07-2016 19:05:00 25.6 C 62 % 17.78 C
231 17-07-2016 19:10:00 25.4 C 61 % 17.33 C
232 17-07-2016 19:15:00 25.3 C 60 % 16.98 C
233 17-07-2016 19:20:00 25.1 C 60 % 16.79 C
234 17-07-2016 19:25:00 25 C 61 % 16.96 C
235 17-07-2016 19:30:00 25 C 70 % 19.15 C
236 17-07-2016 19:35:00 24.8 C 68 % 18.49 C
237 17-07-2016 19:40:00 24.7 C 69 % 18.63 C
238 17-07-2016 19:45:00 24.8 C 63 % 17.28 C
239 17-07-2016 19:50:00 25.1 C 65 % 18.06 C
240 17-07-2016 19:55:00 25.4 C 62 % 17.59 C
241 17-07-2016 20:00:00 25.6 C 61 % 17.52 C
242 17-07-2016 20:05:00 25.6 C 61 % 17.52 C
243 17-07-2016 20:10:00 25.6 C 60 % 17.26 C
244 17-07-2016 20:15:00 25.4 C 62 % 17.59 C
245 17-07-2016 20:20:00 25.2 C 62 % 17.4 C
246 17-07-2016 20:25:00 25 C 64 % 17.72 C
247 17-07-2016 20:30:00 24.8 C 69 % 18.72 C
248 17-07-2016 20:35:00 24.5 C 70 % 18.67 C
249 17-07-2016 20:40:00 24.3 C 71 % 18.7 C
250 17-07-2016 20:45:00 24.1 C 72 % 18.73 C
Sensor: Nr:Datum:Temp:Feuchte:Taupunkt:
Aussen-T/F 251 17-07-2016 20:50:00 23.8 C 71 % 18.22 C
252 17-07-2016 20:55:00 23.7 C 70 % 17.9 C
253 17-07-2016 21:00:00 23.6 C 72 % 18.26 C
254 17-07-2016 21:05:00 23.5 C 75 % 18.81 C
255 17-07-2016 21:10:00 23.3 C 75 % 18.62 C
256 17-07-2016 21:15:00 23 C 76 % 18.54 C
257 17-07-2016 21:20:00 22.7 C 76 % 18.25 C
258 17-07-2016 21:25:00 22.5 C 77 % 18.27 C
259 17-07-2016 21:30:00 22.3 C 78 % 18.28 C
260 17-07-2016 21:35:00 22.2 C 79 % 18.38 C
261 17-07-2016 21:40:00 21.9 C 80 % 18.29 C
262 17-07-2016 21:45:00 21.7 C 81 % 18.3 C
263 17-07-2016 21:50:00 21.6 C 82 % 18.39 C
264 17-07-2016 21:55:00 21.4 C 82 % 18.2 C
265 17-07-2016 22:00:00 21.3 C 83 % 18.29 C
266 17-07-2016 22:05:00 21.2 C 83 % 18.2 C
267 17-07-2016 22:10:00 21.1 C 84 % 18.29 C
268 17-07-2016 22:15:00 21 C 84 % 18.19 C
269 17-07-2016 22:20:00 20.9 C 84 % 18.09 C
270 17-07-2016 22:25:00 20.8 C 85 % 18.18 C
271 17-07-2016 22:30:00 20.8 C 85 % 18.18 C
272 17-07-2016 22:35:00 20.7 C 85 % 18.09 C
273 17-07-2016 22:40:00 20.7 C 86 % 18.27 C
274 17-07-2016 22:45:00 20.6 C 86 % 18.18 C
275 17-07-2016 22:50:00 20.6 C 86 % 18.18 C
Sensor: Nr:Datum:Temp:Feuchte:Taupunkt:
Aussen-T/F 276 17-07-2016 22:55:00 20.6 C 86 % 18.18 C
277 17-07-2016 23:00:00 20.5 C 86 % 18.08 C
278 17-07-2016 23:05:00 20.4 C 87 % 18.16 C
279 17-07-2016 23:10:00 20.4 C 87 % 18.16 C
280 17-07-2016 23:15:00 20.3 C 87 % 18.06 C
281 17-07-2016 23:20:00 20.3 C 87 % 18.06 C
282 17-07-2016 23:25:00 20.3 C 87 % 18.06 C
283 17-07-2016 23:30:00 20.2 C 87 % 17.97 C
284 17-07-2016 23:35:00 20.2 C 87 % 17.97 C
285 17-07-2016 23:40:00 20.1 C 88 % 18.05 C
286 17-07-2016 23:45:00 19.9 C 88 % 17.85 C
287 17-07-2016 23:50:00 19.9 C 88 % 17.85 C
288 17-07-2016 23:55:00 19.8 C 88 % 17.75 C
289 18-07-2016 00:00:00 19.8 C 88 % 17.75 C
290 18-07-2016 00:05:00 19.8 C 88 % 17.75 C
291 18-07-2016 00:10:00 19.7 C 89 % 17.84 C
292 18-07-2016 00:15:00 19.6 C 89 % 17.74 C
293 18-07-2016 00:20:00 19.5 C 89 % 17.64 C
294 18-07-2016 00:25:00 19.4 C 89 % 17.54 C
295 18-07-2016 00:30:00 19.4 C 89 % 17.54 C
296 18-07-2016 00:35:00 19.3 C 89 % 17.44 C
297 18-07-2016 00:40:00 19.3 C 89 % 17.44 C
298 18-07-2016 00:45:00 19.2 C 90 % 17.52 C
299 18-07-2016 00:50:00 19.1 C 90 % 17.42 C
300 18-07-2016 00:55:00 19.1 C 90 % 17.42 C
Sensor: Nr:Datum:Temp:Feuchte:Taupunkt:
Aussen-T/F 301 18-07-2016 01:00:00 19 C 90 % 17.32 C
302 18-07-2016 01:05:00 18.9 C 90 % 17.22 C
303 18-07-2016 01:10:00 18.9 C 91 % 17.4 C
304 18-07-2016 01:15:00 18.8 C 91 % 17.3 C
305 18-07-2016 01:20:00 18.8 C 91 % 17.3 C
306 18-07-2016 01:25:00 18.7 C 91 % 17.2 C
307 18-07-2016 01:30:00 18.7 C 92 % 17.37 C
308 18-07-2016 01:35:00 18.7 C 92 % 17.37 C
309 18-07-2016 01:40:00 18.7 C 92 % 17.37 C
310 18-07-2016 01:45:00 18.7 C 92 % 17.37 C
311 18-07-2016 01:50:00 18.6 C 92 % 17.27 C
312 18-07-2016 01:55:00 18.6 C 92 % 17.27 C
313 18-07-2016 02:00:00 18.4 C 92 % 17.08 C
314 18-07-2016 02:05:00 18.4 C 92 % 17.08 C
315 18-07-2016 02:10:00 18.3 C 92 % 16.98 C
316 18-07-2016 02:15:00 18.3 C 92 % 16.98 C
317 18-07-2016 02:20:00 18.2 C 92 % 16.88 C
318 18-07-2016 02:25:00 18.2 C 92 % 16.88 C
319 18-07-2016 02:30:00 18.1 C 92 % 16.78 C
320 18-07-2016 02:35:00 18 C 93 % 16.85 C
321 18-07-2016 02:40:00 17.9 C 93 % 16.75 C
322 18-07-2016 02:45:00 17.9 C 93 % 16.75 C
323 18-07-2016 02:50:00 17.9 C 93 % 16.75 C
324 18-07-2016 02:55:00 17.8 C 93 % 16.65 C
325 18-07-2016 03:00:00 17.8 C 93 % 16.65 C
Sensor: Nr:Datum:Temp:Feuchte:Taupunkt:
Aussen-T/F 326 18-07-2016 03:05:00 17.7 C 93 % 16.55 C
327 18-07-2016 03:10:00 17.7 C 93 % 16.55 C
328 18-07-2016 03:15:00 17.6 C 93 % 16.45 C
329 18-07-2016 03:20:00 17.6 C 93 % 16.45 C
330 18-07-2016 03:25:00 17.6 C 93 % 16.45 C
331 18-07-2016 03:30:00 17.6 C 93 % 16.45 C
332 18-07-2016 03:35:00 17.6 C 93 % 16.45 C
333 18-07-2016 03:40:00 17.6 C 94 % 16.62 C
334 18-07-2016 03:45:00 17.6 C 94 % 16.62 C
335 18-07-2016 03:50:00 17.6 C 94 % 16.62 C
336 18-07-2016 03:55:00 17.6 C 94 % 16.62 C
337 18-07-2016 04:00:00 17.5 C 94 % 16.52 C
338 18-07-2016 04:05:00 17.5 C 94 % 16.52 C
339 18-07-2016 04:10:00 17.4 C 94 % 16.42 C
340 18-07-2016 04:15:00 17.4 C 94 % 16.42 C
341 18-07-2016 04:20:00 17.4 C 94 % 16.42 C
342 18-07-2016 04:25:00 17.3 C 94 % 16.33 C
343 18-07-2016 04:30:00 17.3 C 93 % 16.16 C
344 18-07-2016 04:35:00 17.3 C 94 % 16.33 C
345 18-07-2016 04:40:00 17.3 C 94 % 16.33 C
346 18-07-2016 04:45:00 17.3 C 94 % 16.33 C
347 18-07-2016 04:50:00 17.2 C 94 % 16.23 C
348 18-07-2016 04:55:00 17.2 C 94 % 16.23 C
349 18-07-2016 05:00:00 17.1 C 94 % 16.13 C
350 18-07-2016 05:05:00 16.9 C 93 % 15.76 C
Sensor: Nr:Datum:Temp:Feuchte:Taupunkt:
Aussen-T/F 351 18-07-2016 05:10:00 16.8 C 93 % 15.66 C
352 18-07-2016 05:15:00 16.8 C 94 % 15.83 C
353 18-07-2016 05:20:00 16.7 C 94 % 15.73 C
354 18-07-2016 05:25:00 16.6 C 94 % 15.63 C
355 18-07-2016 05:30:00 16.5 C 94 % 15.53 C
356 18-07-2016 05:35:00 16.4 C 94 % 15.43 C
357 18-07-2016 05:40:00 16.4 C 94 % 15.43 C
358 18-07-2016 05:45:00 16.3 C 94 % 15.33 C
359 18-07-2016 05:50:00 16.3 C 94 % 15.33 C
360 18-07-2016 05:55:00 16.2 C 94 % 15.23 C
361 18-07-2016 06:00:00 16.2 C 94 % 15.23 C
362 18-07-2016 06:05:00 16.2 C 94 % 15.23 C
363 18-07-2016 06:10:00 16.1 C 94 % 15.13 C
364 18-07-2016 06:15:00 16.2 C 95 % 15.4 C
365 18-07-2016 06:20:00 16.2 C 95 % 15.4 C
366 18-07-2016 06:25:00 16.3 C 95 % 15.5 C
367 18-07-2016 06:30:00 16.3 C 95 % 15.5 C
368 18-07-2016 06:35:00 16.3 C 95 % 15.5 C
369 18-07-2016 06:40:00 16.3 C 95 % 15.5 C
370 18-07-2016 06:45:00 16.3 C 95 % 15.5 C
371 18-07-2016 06:50:00 16.4 C 95 % 15.6 C
372 18-07-2016 06:55:00 16.4 C 95 % 15.6 C
373 18-07-2016 07:00:00 16.4 C 95 % 15.6 C
374 18-07-2016 07:05:00 16.3 C 95 % 15.5 C
375 18-07-2016 07:10:00 16.3 C 95 % 15.5 C
Sensor: Nr:Datum:Temp:Feuchte:Taupunkt:
Aussen-T/F 376 18-07-2016 07:15:00 16.3 C 95 % 15.5 C
377 18-07-2016 07:20:00 16.3 C 95 % 15.5 C
378 18-07-2016 07:25:00 16.3 C 95 % 15.5 C
379 18-07-2016 07:30:00 16.3 C 95 % 15.5 C
380 18-07-2016 07:35:00 16.3 C 95 % 15.5 C
381 18-07-2016 07:40:00 16.4 C 95 % 15.6 C
382 18-07-2016 07:45:00 16.4 C 95 % 15.6 C
383 18-07-2016 07:50:00 16.4 C 95 % 15.6 C
384 18-07-2016 07:55:00 16.5 C 95 % 15.7 C
385 18-07-2016 08:00:00 16.6 C 95 % 15.8 C
386 18-07-2016 08:05:00 16.6 C 95 % 15.8 C
387 18-07-2016 08:10:00 16.7 C 95 % 15.9 C
388 18-07-2016 08:15:00 16.7 C 95 % 15.9 C
389 18-07-2016 08:20:00 16.8 C 95 % 15.99 C
390 18-07-2016 08:25:00 16.9 C 96 % 16.26 C
391 18-07-2016 08:30:00 17 C 96 % 16.36 C
392 18-07-2016 08:35:00 17.1 C 95 % 16.29 C
393 18-07-2016 08:40:00 17.2 C 95 % 16.39 C
394 18-07-2016 08:45:00 17.2 C 96 % 16.56 C
395 18-07-2016 08:50:00 17.3 C 96 % 16.66 C
396 18-07-2016 08:55:00 17.4 C 96 % 16.76 C
397 18-07-2016 09:00:00 17.5 C 96 % 16.85 C
398 18-07-2016 09:05:00 17.6 C 96 % 16.95 C
399 18-07-2016 09:10:00 17.7 C 96 % 17.05 C
400 18-07-2016 09:15:00 17.8 C 95 % 16.99 C
Sensor: Nr:Datum:Temp:Feuchte:Taupunkt:
Aussen-T/F 401 18-07-2016 09:20:00 17.8 C 95 % 16.99 C
402 18-07-2016 09:25:00 18 C 96 % 17.35 C
403 18-07-2016 09:30:00 18.2 C 95 % 17.39 C
404 18-07-2016 09:35:00 18.3 C 96 % 17.65 C
405 18-07-2016 09:40:00 18.5 C 95 % 17.68 C
406 18-07-2016 09:45:00 18.6 C 95 % 17.78 C
407 18-07-2016 09:50:00 18.7 C 95 % 17.88 C
408 18-07-2016 09:55:00 18.7 C 95 % 17.88 C
409 18-07-2016 10:00:00 18.9 C 94 % 17.91 C
410 18-07-2016 10:05:00 19 C 94 % 18.01 C
411 18-07-2016 10:10:00 19.2 C 94 % 18.21 C
412 18-07-2016 10:15:00 19.3 C 93 % 18.14 C
413 18-07-2016 10:20:00 19.7 C 92 % 18.36 C
414 18-07-2016 10:25:00 20.1 C 91 % 18.58 C
415 18-07-2016 10:30:00 20.6 C 88 % 18.54 C
416 18-07-2016 10:35:00 21.2 C 86 % 18.76 C
417 18-07-2016 10:40:00 21.8 C 84 % 18.97 C
418 18-07-2016 10:45:00 22.4 C 80 % 18.78 C
419 18-07-2016 10:50:00 22.8 C 77 % 18.56 C
420 18-07-2016 10:55:00 23.1 C 76 % 18.64 C
421 18-07-2016 11:00:00 23.2 C 78 % 19.15 C
422 18-07-2016 11:05:00 23 C 77 % 18.75 C
423 18-07-2016 11:10:00 22.8 C 78 % 18.76 C
424 18-07-2016 11:15:00 22.7 C 76 % 18.25 C
425 18-07-2016 11:20:00 22.6 C 77 % 18.36 C
Sensor: Nr:Datum:Temp:Feuchte:Taupunkt:
Aussen-T/F 426 18-07-2016 11:25:00 22.7 C 73 % 17.61 C
427 18-07-2016 11:30:00 22.9 C 73 % 17.8 C
428 18-07-2016 11:35:00 23.1 C 72 % 17.78 C
429 18-07-2016 11:40:00 23.2 C 72 % 17.87 C
430 18-07-2016 11:45:00 23.3 C 72 % 17.97 C
431 18-07-2016 11:50:00 23.4 C 71 % 17.84 C
432 18-07-2016 11:55:00 23.5 C 67 % 17.02 C
433 18-07-2016 12:00:00 23.6 C 69 % 17.58 C
434 18-07-2016 12:05:00 23.7 C 68 % 17.44 C
435 18-07-2016 12:10:00 23.7 C 68 % 17.44 C
436 18-07-2016 12:15:00 23.7 C 68 % 17.44 C
437 18-07-2016 12:20:00 23.7 C 69 % 17.67 C
438 18-07-2016 12:25:00 23.7 C 67 % 17.21 C
439 18-07-2016 12:30:00 23.8 C 66 % 17.07 C
440 18-07-2016 12:35:00 23.9 C 65 % 16.92 C
441 18-07-2016 12:40:00 24 C 66 % 17.26 C
442 18-07-2016 12:45:00 24 C 67 % 17.49 C
443 18-07-2016 12:50:00 24.1 C 65 % 17.11 C
444 18-07-2016 12:55:00 24.2 C 63 % 16.71 C
445 18-07-2016 13:00:00 24.3 C 66 % 17.54 C
446 18-07-2016 13:05:00 24.3 C 71 % 18.7 C
447 18-07-2016 13:10:00 24.2 C 64 % 16.96 C
448 18-07-2016 13:15:00 24.3 C 65 % 17.3 C
449 18-07-2016 13:20:00 24.4 C 64 % 17.15 C
450 18-07-2016 13:25:00 24.5 C 68 % 18.2 C
Sensor: Nr:Datum:Temp:Feuchte:Taupunkt:
Aussen-T/F 451 18-07-2016 13:30:00 24.4 C 65 % 17.39 C
452 18-07-2016 13:35:00 24.3 C 61 % 16.3 C
453 18-07-2016 13:40:00 24.3 C 61 % 16.3 C
454 18-07-2016 13:45:00 24.5 C 63 % 16.99 C
455 18-07-2016 13:50:00 24.5 C 58 % 15.7 C
456 18-07-2016 13:55:00 24.7 C 59 % 16.15 C
457 18-07-2016 14:00:00 24.9 C 56 % 15.52 C
458 18-07-2016 14:05:00 24.9 C 54 % 14.95 C
459 18-07-2016 14:10:00 24.9 C 57 % 15.8 C
460 18-07-2016 14:15:00 24.9 C 53 % 14.66 C
461 18-07-2016 14:20:00 25 C 56 % 15.61 C
462 18-07-2016 14:25:00 25.2 C 56 % 15.8 C
463 18-07-2016 14:30:00 25.3 C 53 % 15.03 C
464 18-07-2016 14:35:00 25.6 C 53 % 15.31 C
465 18-07-2016 14:40:00 25.7 C 48 % 13.87 C
466 18-07-2016 14:45:00 25.8 C 52 % 15.2 C
467 18-07-2016 14:50:00 25.8 C 52 % 15.2 C
468 18-07-2016 14:55:00 25.9 C 52 % 15.29 C
469 18-07-2016 15:00:00 26 C 55 % 16.26 C
470 18-07-2016 15:05:00 26 C 52 % 15.38 C
471 18-07-2016 15:10:00 26.1 C 54 % 16.07 C
472 18-07-2016 15:15:00 26.4 C 51 % 15.45 C
473 18-07-2016 15:20:00 26.8 C 51 % 15.82 C
474 18-07-2016 15:25:00 26.9 C 49 % 15.28 C
475 18-07-2016 15:30:00 26.9 C 49 % 15.28 C
Sensor: Nr:Datum:Temp:Feuchte:Taupunkt:
Aussen-T/F 476 18-07-2016 15:35:00 27.3 C 46 % 14.67 C
477 18-07-2016 15:40:00 27.8 C 45 % 14.78 C
478 18-07-2016 15:45:00 28.1 C 46 % 15.39 C
479 18-07-2016 15:50:00 28.2 C 53 % 17.71 C
480 18-07-2016 15:55:00 28.3 C 55 % 18.39 C
481 18-07-2016 16:00:00 28.5 C 43 % 14.71 C
482 18-07-2016 16:05:00 28.7 C 45 % 15.59 C
483 18-07-2016 16:10:00 29.1 C 44 % 15.6 C
484 18-07-2016 16:15:00 29.3 C 49 % 17.48 C
485 18-07-2016 16:20:00 29.5 C 44 % 15.96 C
486 18-07-2016 16:25:00 29.4 C 43 % 15.51 C
487 18-07-2016 16:30:00 29.2 C 43 % 15.33 C
488 18-07-2016 16:35:00 29.1 C 44 % 15.6 C
489 18-07-2016 16:40:00 28.9 C 43 % 15.06 C
490 18-07-2016 16:45:00 28.7 C 46 % 15.94 C
491 18-07-2016 16:50:00 28.7 C 46 % 15.94 C
492 18-07-2016 16:55:00 28.9 C 47 % 16.45 C
493 18-07-2016 17:00:00 29.1 C 42 % 14.88 C
494 18-07-2016 17:05:00 29.4 C 48 % 17.24 C
495 18-07-2016 17:10:00 29.5 C 44 % 15.96 C
496 18-07-2016 17:15:00 29.7 C 46 % 16.84 C
497 18-07-2016 17:20:00 29.7 C 44 % 16.14 C
498 18-07-2016 17:25:00 29.8 C 47 % 17.27 C
499 18-07-2016 17:30:00 29.9 C 47 % 17.36 C
500 18-07-2016 17:35:00 30 C 45 % 16.77 C
Sensor: Nr:Datum:Temp:Feuchte:Taupunkt:
Aussen-T/F 501 18-07-2016 17:40:00 30.2 C 44 % 16.59 C
502 18-07-2016 17:45:00 30.2 C 43 % 16.23 C
503 18-07-2016 17:50:00 30.2 C 43 % 16.23 C
504 18-07-2016 17:55:00 30.1 C 44 % 16.5 C
505 18-07-2016 18:00:00 30 C 43 % 16.05 C
506 18-07-2016 18:05:00 29.9 C 41 % 15.22 C
507 18-07-2016 18:10:00 29.8 C 42 % 15.51 C
508 18-07-2016 18:15:00 29.8 C 41 % 15.13 C
509 18-07-2016 18:20:00 29.9 C 42 % 15.6 C
510 18-07-2016 18:25:00 29.9 C 44 % 16.32 C
511 18-07-2016 18:30:00 30 C 50 % 18.44 C
512 18-07-2016 18:35:00 30.3 C 53 % 19.65 C
513 18-07-2016 18:40:00 30.6 C 42 % 16.22 C
514 18-07-2016 18:45:00 30.7 C 40 % 15.55 C
515 18-07-2016 18:50:00 30.3 C 42 % 15.95 C
516 18-07-2016 18:55:00 30.1 C 40 % 15.01 C
517 18-07-2016 19:00:00 30.1 C 43 % 16.14 C
518 18-07-2016 19:05:00 30.2 C 46 % 17.3 C
519 18-07-2016 19:10:00 30.3 C 42 % 15.95 C
520 18-07-2016 19:15:00 30.2 C 42 % 15.86 C
521 18-07-2016 19:20:00 30.1 C 49 % 18.21 C
522 18-07-2016 19:25:00 29.8 C 52 % 18.88 C
523 18-07-2016 19:30:00 29.4 C 54 % 19.12 C
524 18-07-2016 19:35:00 29 C 55 % 19.04 C
525 18-07-2016 19:40:00 28.6 C 56 % 18.96 C
Sensor: Nr:Datum:Temp:Feuchte:Taupunkt:
Aussen-T/F 526 18-07-2016 19:45:00 28.2 C 57 % 18.87 C
527 18-07-2016 19:50:00 27.7 C 58 % 18.68 C
528 18-07-2016 19:55:00 27.2 C 60 % 18.76 C
529 18-07-2016 20:00:00 26.7 C 61 % 18.55 C
530 18-07-2016 20:05:00 26.4 C 62 % 18.53 C
531 18-07-2016 20:10:00 26.2 C 63 % 18.6 C
532 18-07-2016 20:15:00 25.9 C 63 % 18.31 C
533 18-07-2016 20:20:00 25.7 C 64 % 18.38 C
534 18-07-2016 20:25:00 25.5 C 64 % 18.19 C
535 18-07-2016 20:30:00 25.3 C 65 % 18.25 C
536 18-07-2016 20:35:00 25.1 C 64 % 17.81 C
537 18-07-2016 20:40:00 24.9 C 65 % 17.87 C
538 18-07-2016 20:45:00 24.6 C 65 % 17.58 C
539 18-07-2016 20:50:00 24.3 C 66 % 17.54 C
540 18-07-2016 20:55:00 24.1 C 67 % 17.59 C
541 18-07-2016 21:00:00 23.7 C 67 % 17.21 C
542 18-07-2016 21:05:00 23.4 C 68 % 17.16 C
543 18-07-2016 21:10:00 23.2 C 69 % 17.2 C
544 18-07-2016 21:15:00 22.8 C 70 % 17.04 C
545 18-07-2016 21:20:00 22.6 C 71 % 17.07 C
546 18-07-2016 21:25:00 22.2 C 71 % 16.69 C
547 18-07-2016 21:30:00 22.1 C 71 % 16.6 C
548 18-07-2016 21:35:00 21.8 C 72 % 16.53 C
549 18-07-2016 21:40:00 21.7 C 72 % 16.43 C
550 18-07-2016 21:45:00 21.6 C 73 % 16.55 C
Sensor: Nr:Datum:Temp:Feuchte:Taupunkt:
Aussen-T/F 551 18-07-2016 21:50:00 21.4 C 74 % 16.57 C
552 18-07-2016 21:55:00 21.2 C 74 % 16.38 C
553 18-07-2016 22:00:00 20.9 C 75 % 16.3 C
554 18-07-2016 22:05:00 20.8 C 75 % 16.21 C
555 18-07-2016 22:10:00 20.7 C 76 % 16.32 C
556 18-07-2016 22:15:00 20.6 C 77 % 16.43 C
557 18-07-2016 22:20:00 20.4 C 77 % 16.23 C
558 18-07-2016 22:25:00 20.2 C 78 % 16.24 C
559 18-07-2016 22:30:00 20 C 78 % 16.05 C
560 18-07-2016 22:35:00 19.8 C 79 % 16.05 C
561 18-07-2016 22:40:00 19.7 C 80 % 16.15 C
562 18-07-2016 22:45:00 19.5 C 79 % 15.76 C
563 18-07-2016 22:50:00 19.4 C 80 % 15.86 C
564 18-07-2016 22:55:00 19.3 C 80 % 15.76 C
565 18-07-2016 23:00:00 19.2 C 80 % 15.67 C
566 18-07-2016 23:05:00 19 C 81 % 15.67 C
567 18-07-2016 23:10:00 18.9 C 81 % 15.57 C
568 18-07-2016 23:15:00 18.8 C 81 % 15.47 C
569 18-07-2016 23:20:00 18.7 C 82 % 15.57 C
570 18-07-2016 23:25:00 18.6 C 83 % 15.66 C
571 18-07-2016 23:30:00 18.4 C 83 % 15.46 C
572 18-07-2016 23:35:00 18.3 C 83 % 15.36 C
573 18-07-2016 23:40:00 18.3 C 83 % 15.36 C
574 18-07-2016 23:45:00 18.2 C 83 % 15.27 C
575 18-07-2016 23:50:00 18.2 C 83 % 15.27 C
Sensor: Nr:Datum:Temp:Feuchte:Taupunkt:
Aussen-T/F 576 18-07-2016 23:55:00 18.1 C 84 % 15.35 C
577 19-07-2016 00:00:00 18 C 84 % 15.26 C
578 19-07-2016 00:05:00 17.8 C 85 % 15.25 C
579 19-07-2016 00:10:00 17.8 C 85 % 15.25 C
580 19-07-2016 00:15:00 17.7 C 85 % 15.15 C
581 19-07-2016 00:20:00 17.6 C 86 % 15.23 C
582 19-07-2016 00:25:00 17.4 C 86 % 15.03 C
583 19-07-2016 00:30:00 17.4 C 86 % 15.03 C
584 19-07-2016 00:35:00 17.3 C 86 % 14.94 C
585 19-07-2016 00:40:00 17.3 C 86 % 14.94 C
586 19-07-2016 00:45:00 17.3 C 86 % 14.94 C
587 19-07-2016 00:50:00 17.2 C 87 % 15.02 C
588 19-07-2016 00:55:00 17.1 C 87 % 14.92 C
589 19-07-2016 01:00:00 17 C 87 % 14.82 C
590 19-07-2016 01:05:00 16.9 C 87 % 14.72 C
591 19-07-2016 01:10:00 16.8 C 88 % 14.8 C
592 19-07-2016 01:15:00 16.8 C 88 % 14.8 C
593 19-07-2016 01:20:00 16.7 C 88 % 14.7 C
594 19-07-2016 01:25:00 16.7 C 88 % 14.7 C
595 19-07-2016 01:30:00 16.7 C 89 % 14.88 C
596 19-07-2016 01:35:00 16.6 C 89 % 14.78 C
597 19-07-2016 01:40:00 16.6 C 89 % 14.78 C
598 19-07-2016 01:45:00 16.5 C 89 % 14.68 C
599 19-07-2016 01:50:00 16.4 C 89 % 14.58 C
600 19-07-2016 01:55:00 16.4 C 90 % 14.76 C
Sensor: Nr:Datum:Temp:Feuchte:Taupunkt:
Aussen-T/F 601 19-07-2016 02:00:00 16.4 C 90 % 14.76 C
602 19-07-2016 02:05:00 16.3 C 90 % 14.66 C
603 19-07-2016 02:10:00 16.3 C 90 % 14.66 C
604 19-07-2016 02:15:00 16.3 C 90 % 14.66 C
605 19-07-2016 02:20:00 16.2 C 90 % 14.56 C
606 19-07-2016 02:25:00 16.2 C 90 % 14.56 C
607 19-07-2016 02:30:00 16.1 C 90 % 14.46 C
608 19-07-2016 02:35:00 16 C 90 % 14.36 C
609 19-07-2016 02:40:00 15.9 C 91 % 14.43 C
610 19-07-2016 02:45:00 15.9 C 91 % 14.43 C
611 19-07-2016 02:50:00 15.8 C 91 % 14.33 C
612 19-07-2016 02:55:00 15.8 C 91 % 14.33 C
613 19-07-2016 03:00:00 15.8 C 92 % 14.5 C
614 19-07-2016 03:05:00 15.7 C 92 % 14.4 C
615 19-07-2016 03:10:00 15.6 C 92 % 14.31 C
616 19-07-2016 03:15:00 15.6 C 92 % 14.31 C
617 19-07-2016 03:20:00 15.5 C 92 % 14.21 C
618 19-07-2016 03:25:00 15.4 C 92 % 14.11 C
619 19-07-2016 03:30:00 15.4 C 92 % 14.11 C
620 19-07-2016 03:35:00 15.4 C 93 % 14.27 C
621 19-07-2016 03:40:00 15.4 C 93 % 14.27 C
622 19-07-2016 03:45:00 15.3 C 93 % 14.18 C
623 19-07-2016 03:50:00 15.3 C 93 % 14.18 C
624 19-07-2016 03:55:00 15.3 C 93 % 14.18 C
625 19-07-2016 04:00:00 15.2 C 93 % 14.08 C
Sensor: Nr:Datum:Temp:Feuchte:Taupunkt:
Aussen-T/F 626 19-07-2016 04:05:00 15.2 C 93 % 14.08 C
627 19-07-2016 04:10:00 15.2 C 93 % 14.08 C
628 19-07-2016 04:15:00 15.2 C 93 % 14.08 C
629 19-07-2016 04:20:00 15.1 C 93 % 13.98 C
630 19-07-2016 04:25:00 15.1 C 93 % 13.98 C
631 19-07-2016 04:30:00 14.9 C 93 % 13.78 C
632 19-07-2016 04:35:00 15 C 93 % 13.88 C
633 19-07-2016 04:40:00 14.9 C 93 % 13.78 C
634 19-07-2016 04:45:00 14.9 C 94 % 13.94 C
635 19-07-2016 04:50:00 14.9 C 94 % 13.94 C
636 19-07-2016 04:55:00 14.9 C 94 % 13.94 C
637 19-07-2016 05:00:00 14.8 C 94 % 13.84 C
638 19-07-2016 05:05:00 14.8 C 94 % 13.84 C
639 19-07-2016 05:10:00 14.7 C 94 % 13.74 C
640 19-07-2016 05:15:00 14.7 C 94 % 13.74 C
641 19-07-2016 05:20:00 14.7 C 94 % 13.74 C
642 19-07-2016 05:25:00 14.7 C 94 % 13.74 C
643 19-07-2016 05:30:00 14.7 C 94 % 13.74 C
644 19-07-2016 05:35:00 14.6 C 94 % 13.65 C
645 19-07-2016 05:40:00 14.5 C 94 % 13.55 C
646 19-07-2016 05:45:00 14.4 C 94 % 13.45 C
647 19-07-2016 05:50:00 14.4 C 94 % 13.45 C
648 19-07-2016 05:55:00 14.4 C 94 % 13.45 C
649 19-07-2016 06:00:00 14.5 C 94 % 13.55 C
650 19-07-2016 06:05:00 14.5 C 94 % 13.55 C
Sensor: Nr:Datum:Temp:Feuchte:Taupunkt:
Aussen-T/F 651 19-07-2016 06:10:00 14.6 C 95 % 13.81 C
652 19-07-2016 06:15:00 14.6 C 95 % 13.81 C
653 19-07-2016 06:20:00 14.6 C 95 % 13.81 C
654 19-07-2016 06:25:00 14.6 C 95 % 13.81 C
655 19-07-2016 06:30:00 14.6 C 95 % 13.81 C
656 19-07-2016 06:35:00 14.6 C 95 % 13.81 C
657 19-07-2016 06:40:00 14.7 C 95 % 13.91 C
658 19-07-2016 06:45:00 14.7 C 95 % 13.91 C
659 19-07-2016 06:50:00 14.7 C 95 % 13.91 C
660 19-07-2016 06:55:00 14.7 C 95 % 13.91 C
661 19-07-2016 07:00:00 14.7 C 95 % 13.91 C
662 19-07-2016 07:05:00 14.7 C 95 % 13.91 C
663 19-07-2016 07:10:00 14.8 C 95 % 14.01 C
664 19-07-2016 07:15:00 14.8 C 95 % 14.01 C
665 19-07-2016 07:20:00 14.9 C 95 % 14.11 C
666 19-07-2016 07:25:00 14.9 C 95 % 14.11 C
667 19-07-2016 07:30:00 15 C 95 % 14.21 C
668 19-07-2016 07:35:00 15.1 C 95 % 14.31 C
669 19-07-2016 07:40:00 15.1 C 95 % 14.31 C
670 19-07-2016 07:45:00 15.2 C 95 % 14.4 C
671 19-07-2016 07:50:00 15.3 C 95 % 14.5 C
672 19-07-2016 07:55:00 15.3 C 95 % 14.5 C
673 19-07-2016 08:00:00 15.4 C 95 % 14.6 C
674 19-07-2016 08:05:00 15.5 C 95 % 14.7 C
675 19-07-2016 08:10:00 15.6 C 95 % 14.8 C
Sensor: Nr:Datum:Temp:Feuchte:Taupunkt:
Aussen-T/F 676 19-07-2016 08:15:00 15.7 C 95 % 14.9 C
677 19-07-2016 08:20:00 15.8 C 95 % 15 C
678 19-07-2016 08:25:00 15.8 C 95 % 15 C
679 19-07-2016 08:30:00 15.9 C 95 % 15.1 C
680 19-07-2016 08:35:00 16 C 95 % 15.2 C
681 19-07-2016 08:40:00 16.1 C 95 % 15.3 C
682 19-07-2016 08:45:00 16.2 C 95 % 15.4 C
683 19-07-2016 08:50:00 16.3 C 95 % 15.5 C
684 19-07-2016 08:55:00 16.4 C 95 % 15.6 C
685 19-07-2016 09:00:00 16.6 C 95 % 15.8 C
686 19-07-2016 09:05:00 16.7 C 95 % 15.9 C
687 19-07-2016 09:10:00 16.8 C 95 % 15.99 C
688 19-07-2016 09:15:00 16.9 C 95 % 16.09 C
689 19-07-2016 09:20:00 17 C 95 % 16.19 C
690 19-07-2016 09:25:00 17.2 C 95 % 16.39 C
691 19-07-2016 09:30:00 17.3 C 95 % 16.49 C
692 19-07-2016 09:35:00 17.4 C 95 % 16.59 C
693 19-07-2016 09:40:00 17.6 C 95 % 16.79 C
694 19-07-2016 09:45:00 17.7 C 94 % 16.72 C
695 19-07-2016 09:50:00 17.9 C 94 % 16.92 C
696 19-07-2016 09:55:00 18 C 94 % 17.02 C
697 19-07-2016 10:00:00 18.2 C 94 % 17.22 C
698 19-07-2016 10:05:00 18.3 C 94 % 17.32 C
699 19-07-2016 10:10:00 18.6 C 94 % 17.62 C
700 19-07-2016 10:15:00 18.8 C 94 % 17.81 C
Sensor: Nr:Datum:Temp:Feuchte:Taupunkt:
Aussen-T/F 701 19-07-2016 10:20:00 19 C 93 % 17.84 C
702 19-07-2016 10:25:00 19.3 C 93 % 18.14 C
703 19-07-2016 10:30:00 19.7 C 92 % 18.36 C
704 19-07-2016 10:35:00 20.1 C 91 % 18.58 C
705 19-07-2016 10:40:00 20.5 C 90 % 18.8 C
706 19-07-2016 10:45:00 20.8 C 89 % 18.92 C
707 19-07-2016 10:50:00 21.2 C 88 % 19.13 C
708 19-07-2016 10:55:00 21.3 C 87 % 19.05 C
709 19-07-2016 11:00:00 21.4 C 87 % 19.15 C
710 19-07-2016 11:05:00 21.5 C 87 % 19.24 C
711 19-07-2016 11:10:00 21.6 C 87 % 19.34 C
712 19-07-2016 11:15:00 21.6 C 87 % 19.34 C
713 19-07-2016 11:20:00 21.7 C 87 % 19.44 C
714 19-07-2016 11:25:00 21.9 C 87 % 19.64 C
715 19-07-2016 11:30:00 22.1 C 87 % 19.83 C
716 19-07-2016 11:35:00 22.4 C 85 % 19.75 C
717 19-07-2016 11:40:00 22.7 C 84 % 19.86 C
718 19-07-2016 11:45:00 22.9 C 83 % 19.86 C
719 19-07-2016 11:50:00 23.2 C 80 % 19.56 C
720 19-07-2016 11:55:00 23.4 C 80 % 19.75 C
721 19-07-2016 12:00:00 23.6 C 77 % 19.33 C
722 19-07-2016 12:05:00 23.9 C 76 % 19.41 C
723 19-07-2016 12:10:00 24.2 C 71 % 18.61 C
724 19-07-2016 12:15:00 24.6 C 69 % 18.53 C
725 19-07-2016 12:20:00 24.9 C 69 % 18.82 C
Sensor: Nr:Datum:Temp:Feuchte:Taupunkt:
Aussen-T/F 726 19-07-2016 12:25:00 25 C 67 % 18.44 C
727 19-07-2016 12:30:00 25.2 C 71 % 19.56 C
728 19-07-2016 12:35:00 25.3 C 70 % 19.43 C
729 19-07-2016 12:40:00 25.4 C 65 % 18.34 C
730 19-07-2016 12:45:00 25.7 C 62 % 17.87 C
731 19-07-2016 12:50:00 25.9 C 64 % 18.57 C
732 19-07-2016 12:55:00 26.1 C 60 % 17.73 C
733 19-07-2016 13:00:00 26.3 C 60 % 17.91 C
734 19-07-2016 13:05:00 26.3 C 63 % 18.69 C
735 19-07-2016 13:10:00 26.3 C 60 % 17.91 C
736 19-07-2016 13:15:00 26.4 C 58 % 17.47 C
737 19-07-2016 13:20:00 26.4 C 58 % 17.47 C
738 19-07-2016 13:25:00 26.6 C 58 % 17.66 C
739 19-07-2016 13:30:00 26.7 C 58 % 17.75 C
740 19-07-2016 13:35:00 26.8 C 57 % 17.57 C
741 19-07-2016 13:40:00 26.9 C 56 % 17.38 C
742 19-07-2016 13:45:00 27.2 C 55 % 17.37 C
743 19-07-2016 13:50:00 27.2 C 56 % 17.66 C
744 19-07-2016 13:55:00 27.2 C 56 % 17.66 C
745 19-07-2016 14:00:00 27.2 C 63 % 19.54 C
746 19-07-2016 14:05:00 26.9 C 67 % 20.25 C
747 19-07-2016 14:10:00 26.4 C 60 % 18.01 C
748 19-07-2016 14:15:00 26.2 C 61 % 18.08 C
749 19-07-2016 14:20:00 26.3 C 64 % 18.94 C
750 19-07-2016 14:25:00 26.3 C 60 % 17.91 C
Sensor: Nr:Datum:Temp:Feuchte:Taupunkt:
Aussen-T/F 751 19-07-2016 14:30:00 26.4 C 71 % 20.71 C
752 19-07-2016 14:35:00 26.4 C 72 % 20.94 C
753 19-07-2016 14:40:00 26.2 C 72 % 20.75 C
754 19-07-2016 14:45:00 25.9 C 73 % 20.69 C
755 19-07-2016 14:50:00 25.8 C 75 % 21.03 C
756 19-07-2016 14:55:00 25.5 C 74 % 20.52 C
757 19-07-2016 15:00:00 25.4 C 77 % 21.07 C
758 19-07-2016 15:05:00 25.3 C 66 % 18.49 C
759 19-07-2016 15:10:00 25.6 C 65 % 18.53 C
760 19-07-2016 15:15:00 26 C 74 % 21 C
761 19-07-2016 15:20:00 26.2 C 76 % 21.63 C
762 19-07-2016 15:25:00 26.2 C 73 % 20.97 C
763 19-07-2016 15:30:00 26.2 C 73 % 20.97 C
764 19-07-2016 15:35:00 26.2 C 73 % 20.97 C
765 19-07-2016 15:40:00 26.4 C 65 % 19.29 C
766 19-07-2016 15:45:00 27.3 C 59 % 18.58 C
767 19-07-2016 15:50:00 28.2 C 64 % 20.74 C
768 19-07-2016 15:55:00 28.6 C 66 % 21.62 C
769 19-07-2016 16:00:00 28.6 C 67 % 21.87 C
770 19-07-2016 16:05:00 28.8 C 66 % 21.81 C
771 19-07-2016 16:10:00 28.8 C 66 % 21.81 C
772 19-07-2016 16:15:00 28.8 C 68 % 22.3 C
773 19-07-2016 16:20:00 28.9 C 67 % 22.15 C
774 19-07-2016 16:25:00 29.2 C 66 % 22.19 C
775 19-07-2016 16:30:00 29.7 C 65 % 22.41 C
Sensor: Nr:Datum:Temp:Feuchte:Taupunkt:
Aussen-T/F 776 19-07-2016 16:35:00 30.3 C 63 % 22.46 C
777 19-07-2016 16:40:00 30.6 C 56 % 20.82 C
778 19-07-2016 16:45:00 31.1 C 50 % 19.44 C
779 19-07-2016 16:50:00 31.2 C 62 % 23.05 C
780 19-07-2016 16:55:00 31.2 C 58 % 21.95 C
781 19-07-2016 17:00:00 31.2 C 53 % 20.48 C
782 19-07-2016 17:05:00 31.2 C 58 % 21.95 C
783 19-07-2016 17:10:00 31.2 C 56 % 21.37 C
784 19-07-2016 17:15:00 31.3 C 58 % 22.04 C
785 19-07-2016 17:20:00 31 C 60 % 22.32 C
786 19-07-2016 17:25:00 31.1 C 56 % 21.28 C
787 19-07-2016 17:30:00 31.3 C 57 % 21.76 C
788 19-07-2016 17:35:00 31.8 C 58 % 22.51 C
789 19-07-2016 17:40:00 32.2 C 56 % 22.3 C
790 19-07-2016 17:45:00 32.3 C 55 % 22.1 C
791 19-07-2016 17:50:00 32.4 C 52 % 21.27 C
792 19-07-2016 17:55:00 32.4 C 53 % 21.58 C
793 19-07-2016 18:00:00 32.4 C 53 % 21.58 C
794 19-07-2016 18:05:00 32.4 C 52 % 21.27 C
795 19-07-2016 18:10:00 32.4 C 52 % 21.27 C
796 19-07-2016 18:15:00 32.4 C 54 % 21.89 C
797 19-07-2016 18:20:00 32.3 C 44 % 18.48 C
798 19-07-2016 18:25:00 32.3 C 53 % 21.49 C
799 19-07-2016 18:30:00 32.2 C 53 % 21.4 C
800 19-07-2016 18:35:00 32 C 55 % 21.82 C
Sensor: Nr:Datum:Temp:Feuchte:Taupunkt:
Aussen-T/F 801 19-07-2016 18:40:00 31.8 C 54 % 21.34 C
802 19-07-2016 18:45:00 31.7 C 57 % 22.13 C
803 19-07-2016 18:50:00 31.6 C 55 % 21.45 C
804 19-07-2016 18:55:00 31.4 C 56 % 21.56 C
805 19-07-2016 19:00:00 31.3 C 56 % 21.47 C
806 19-07-2016 19:05:00 31.1 C 57 % 21.57 C
807 19-07-2016 19:10:00 30.9 C 56 % 21.09 C
808 19-07-2016 19:15:00 30.7 C 57 % 21.2 C
809 19-07-2016 19:20:00 30.6 C 57 % 21.1 C
810 19-07-2016 19:25:00 30.3 C 59 % 21.39 C
811 19-07-2016 19:30:00 29.9 C 59 % 21.01 C
812 19-07-2016 19:35:00 29.6 C 59 % 20.73 C
813 19-07-2016 19:40:00 29.2 C 59 % 20.36 C
814 19-07-2016 19:45:00 28.9 C 60 % 20.35 C
815 19-07-2016 19:50:00 28.6 C 60 % 20.07 C
816 19-07-2016 19:55:00 28.3 C 60 % 19.79 C
817 19-07-2016 20:00:00 28 C 60 % 19.51 C
818 19-07-2016 20:05:00 27.7 C 60 % 19.23 C
819 19-07-2016 20:10:00 27.4 C 61 % 19.21 C
820 19-07-2016 20:15:00 27.2 C 61 % 19.02 C
821 19-07-2016 20:20:00 27.1 C 63 % 19.45 C
822 19-07-2016 20:25:00 26.8 C 63 % 19.16 C
823 19-07-2016 20:30:00 26.7 C 63 % 19.07 C
824 19-07-2016 20:35:00 26.4 C 63 % 18.79 C
825 19-07-2016 20:40:00 26.2 C 63 % 18.6 C
Sensor: Nr:Datum:Temp:Feuchte:Taupunkt:
Aussen-T/F 826 19-07-2016 20:45:00 26 C 64 % 18.66 C
827 19-07-2016 20:50:00 25.7 C 64 % 18.38 C
828 19-07-2016 20:55:00 25.4 C 63 % 17.84 C
829 19-07-2016 21:00:00 25.2 C 64 % 17.9 C
830 19-07-2016 21:05:00 24.9 C 64 % 17.62 C
831 19-07-2016 21:10:00 24.7 C 65 % 17.68 C
832 19-07-2016 21:15:00 24.4 C 66 % 17.64 C
833 19-07-2016 21:20:00 24.1 C 66 % 17.35 C
834 19-07-2016 21:25:00 23.8 C 68 % 17.54 C
835 19-07-2016 21:30:00 23.5 C 67 % 17.02 C
836 19-07-2016 21:35:00 23.2 C 68 % 16.97 C
837 19-07-2016 21:40:00 22.9 C 69 % 16.91 C
838 19-07-2016 21:45:00 22.7 C 71 % 17.17 C
839 19-07-2016 21:50:00 22.3 C 72 % 17.01 C
840 19-07-2016 21:55:00 22.1 C 72 % 16.82 C
841 19-07-2016 22:00:00 21.8 C 71 % 16.31 C
842 19-07-2016 22:05:00 21.6 C 71 % 16.12 C
843 19-07-2016 22:10:00 21.5 C 72 % 16.24 C
844 19-07-2016 22:15:00 21.4 C 73 % 16.36 C
845 19-07-2016 22:20:00 21.3 C 72 % 16.05 C
846 19-07-2016 22:25:00 21.1 C 73 % 16.07 C
847 19-07-2016 22:30:00 21 C 75 % 16.4 C
848 19-07-2016 22:35:00 20.8 C 73 % 15.78 C
849 19-07-2016 22:40:00 20.7 C 74 % 15.9 C
850 19-07-2016 22:45:00 20.6 C 75 % 16.01 C
Sensor: Nr:Datum:Temp:Feuchte:Taupunkt:
Aussen-T/F 851 19-07-2016 22:50:00 20.4 C 76 % 16.03 C
852 19-07-2016 22:55:00 20.3 C 77 % 16.14 C
853 19-07-2016 23:00:00 20.1 C 76 % 15.74 C
854 19-07-2016 23:05:00 20 C 77 % 15.85 C
855 19-07-2016 23:10:00 19.8 C 78 % 15.85 C
856 19-07-2016 23:15:00 19.7 C 78 % 15.76 C
857 19-07-2016 23:20:00 19.6 C 77 % 15.46 C
858 19-07-2016 23:25:00 19.5 C 78 % 15.56 C
859 19-07-2016 23:30:00 19.5 C 79 % 15.76 C
860 19-07-2016 23:35:00 19.4 C 79 % 15.66 C
861 19-07-2016 23:40:00 19.4 C 79 % 15.66 C
862 19-07-2016 23:45:00 19.3 C 79 % 15.57 C
863 19-07-2016 23:50:00 19.2 C 80 % 15.67 C
864 19-07-2016 23:55:00 19.1 C 81 % 15.76 C
865 20-07-2016 00:00:00 18.9 C 81 % 15.57 C
866 20-07-2016 00:05:00 18.8 C 82 % 15.66 C
867 20-07-2016 00:10:00 18.6 C 82 % 15.47 C
868 20-07-2016 00:15:00 18.4 C 83 % 15.46 C
869 20-07-2016 00:20:00 18.3 C 83 % 15.36 C
870 20-07-2016 00:25:00 18.2 C 84 % 15.45 C
871 20-07-2016 00:30:00 18.2 C 84 % 15.45 C
872 20-07-2016 00:35:00 18.1 C 84 % 15.35 C
873 20-07-2016 00:40:00 18 C 85 % 15.44 C
874 20-07-2016 00:45:00 17.9 C 85 % 15.34 C
875 20-07-2016 00:50:00 17.8 C 86 % 15.43 C
Sensor: Nr:Datum:Temp:Feuchte:Taupunkt:
Aussen-T/F 876 20-07-2016 00:55:00 17.8 C 86 % 15.43 C
877 20-07-2016 01:00:00 17.7 C 86 % 15.33 C
878 20-07-2016 01:05:00 17.6 C 87 % 15.41 C
879 20-07-2016 01:10:00 17.5 C 87 % 15.31 C
880 20-07-2016 01:15:00 17.4 C 87 % 15.21 C
881 20-07-2016 01:20:00 17.3 C 87 % 15.12 C
882 20-07-2016 01:25:00 17.3 C 87 % 15.12 C
883 20-07-2016 01:30:00 17.3 C 88 % 15.29 C
884 20-07-2016 01:35:00 17.3 C 88 % 15.29 C
885 20-07-2016 01:40:00 17.2 C 88 % 15.2 C
886 20-07-2016 01:45:00 17.1 C 88 % 15.1 C
887 20-07-2016 01:50:00 17.1 C 88 % 15.1 C
888 20-07-2016 01:55:00 17.1 C 88 % 15.1 C
889 20-07-2016 02:00:00 17 C 88 % 15 C
890 20-07-2016 02:05:00 17 C 89 % 15.17 C
891 20-07-2016 02:10:00 16.9 C 89 % 15.08 C
892 20-07-2016 02:15:00 16.9 C 89 % 15.08 C
893 20-07-2016 02:20:00 16.8 C 89 % 14.98 C
894 20-07-2016 02:25:00 16.7 C 89 % 14.88 C
895 20-07-2016 02:30:00 16.7 C 89 % 14.88 C
896 20-07-2016 02:35:00 16.6 C 90 % 14.95 C
897 20-07-2016 02:40:00 16.6 C 90 % 14.95 C
898 20-07-2016 02:45:00 16.5 C 90 % 14.85 C
899 20-07-2016 02:50:00 16.5 C 90 % 14.85 C
900 20-07-2016 02:55:00 16.4 C 90 % 14.76 C
Sensor: Nr:Datum:Temp:Feuchte:Taupunkt:
Aussen-T/F 901 20-07-2016 03:00:00 16.4 C 90 % 14.76 C
902 20-07-2016 03:05:00 16.3 C 91 % 14.83 C
903 20-07-2016 03:10:00 16.3 C 91 % 14.83 C
904 20-07-2016 03:15:00 16.2 C 91 % 14.73 C
905 20-07-2016 03:20:00 16.2 C 91 % 14.73 C
906 20-07-2016 03:25:00 16.1 C 91 % 14.63 C
907 20-07-2016 03:30:00 16.1 C 91 % 14.63 C
908 20-07-2016 03:35:00 15.9 C 91 % 14.43 C
909 20-07-2016 03:40:00 15.9 C 91 % 14.43 C
910 20-07-2016 03:45:00 15.9 C 92 % 14.6 C
911 20-07-2016 03:50:00 15.8 C 92 % 14.5 C
912 20-07-2016 03:55:00 15.8 C 92 % 14.5 C
913 20-07-2016 04:00:00 15.7 C 92 % 14.4 C
914 20-07-2016 04:05:00 15.8 C 93 % 14.67 C
915 20-07-2016 04:10:00 15.7 C 92 % 14.4 C
916 20-07-2016 04:15:00 15.6 C 92 % 14.31 C
917 20-07-2016 04:20:00 15.6 C 92 % 14.31 C
918 20-07-2016 04:25:00 15.6 C 92 % 14.31 C
919 20-07-2016 04:30:00 15.5 C 92 % 14.21 C
920 20-07-2016 04:35:00 15.4 C 93 % 14.27 C
921 20-07-2016 04:40:00 15.3 C 93 % 14.18 C
922 20-07-2016 04:45:00 15.3 C 93 % 14.18 C
923 20-07-2016 04:50:00 15.3 C 93 % 14.18 C
924 20-07-2016 04:55:00 15.3 C 93 % 14.18 C
925 20-07-2016 05:00:00 15.3 C 93 % 14.18 C
Sensor: Nr:Datum:Temp:Feuchte:Taupunkt:
Aussen-T/F 926 20-07-2016 05:05:00 15.2 C 93 % 14.08 C
927 20-07-2016 05:10:00 15.2 C 93 % 14.08 C
928 20-07-2016 05:15:00 15.1 C 93 % 13.98 C
929 20-07-2016 05:20:00 15.1 C 93 % 13.98 C
930 20-07-2016 05:25:00 15 C 93 % 13.88 C
931 20-07-2016 05:30:00 15 C 94 % 14.04 C
932 20-07-2016 05:35:00 14.9 C 93 % 13.78 C
933 20-07-2016 05:40:00 14.9 C 94 % 13.94 C
934 20-07-2016 05:45:00 14.9 C 94 % 13.94 C
935 20-07-2016 05:50:00 14.8 C 94 % 13.84 C
936 20-07-2016 05:55:00 14.8 C 94 % 13.84 C
937 20-07-2016 06:00:00 14.8 C 94 % 13.84 C
938 20-07-2016 06:05:00 14.9 C 94 % 13.94 C
939 20-07-2016 06:10:00 14.8 C 94 % 13.84 C
940 20-07-2016 06:15:00 14.8 C 94 % 13.84 C
941 20-07-2016 06:20:00 14.7 C 94 % 13.74 C
942 20-07-2016 06:25:00 14.7 C 94 % 13.74 C
943 20-07-2016 06:30:00 14.7 C 94 % 13.74 C
944 20-07-2016 06:35:00 14.7 C 94 % 13.74 C
945 20-07-2016 06:40:00 14.8 C 94 % 13.84 C
946 20-07-2016 06:45:00 14.8 C 94 % 13.84 C
947 20-07-2016 06:50:00 14.8 C 94 % 13.84 C
948 20-07-2016 06:55:00 14.8 C 95 % 14.01 C
949 20-07-2016 07:00:00 14.9 C 95 % 14.11 C
950 20-07-2016 07:05:00 14.9 C 95 % 14.11 C
Sensor: Nr:Datum:Temp:Feuchte:Taupunkt:
Aussen-T/F 951 20-07-2016 07:10:00 15 C 95 % 14.21 C
952 20-07-2016 07:15:00 15.1 C 95 % 14.31 C
953 20-07-2016 07:20:00 15.2 C 95 % 14.4 C
954 20-07-2016 07:25:00 15.2 C 95 % 14.4 C
955 20-07-2016 07:30:00 15.2 C 95 % 14.4 C
956 20-07-2016 07:35:00 15.3 C 95 % 14.5 C
957 20-07-2016 07:40:00 15.3 C 95 % 14.5 C
958 20-07-2016 07:45:00 15.4 C 95 % 14.6 C
959 20-07-2016 07:50:00 15.4 C 95 % 14.6 C
960 20-07-2016 07:55:00 15.5 C 95 % 14.7 C
961 20-07-2016 08:00:00 15.6 C 95 % 14.8 C
962 20-07-2016 08:05:00 15.7 C 95 % 14.9 C
963 20-07-2016 08:10:00 15.8 C 95 % 15 C
964 20-07-2016 08:15:00 15.8 C 95 % 15 C
965 20-07-2016 08:20:00 15.9 C 95 % 15.1 C
966 20-07-2016 08:25:00 16 C 95 % 15.2 C
967 20-07-2016 08:30:00 16.1 C 95 % 15.3 C
968 20-07-2016 08:35:00 16.2 C 96 % 15.56 C
969 20-07-2016 08:40:00 16.4 C 95 % 15.6 C
970 20-07-2016 08:45:00 16.6 C 96 % 15.96 C
971 20-07-2016 08:50:00 16.7 C 96 % 16.06 C
972 20-07-2016 08:55:00 16.9 C 96 % 16.26 C
973 20-07-2016 09:00:00 17.1 C 96 % 16.46 C
974 20-07-2016 09:05:00 17.2 C 96 % 16.56 C
975 20-07-2016 09:10:00 17.3 C 96 % 16.66 C
Sensor: Nr:Datum:Temp:Feuchte:Taupunkt:
Aussen-T/F 976 20-07-2016 09:15:00 17.5 C 95 % 16.69 C
977 20-07-2016 09:20:00 17.6 C 95 % 16.79 C
978 20-07-2016 09:25:00 17.8 C 95 % 16.99 C
979 20-07-2016 09:30:00 17.9 C 95 % 17.09 C
980 20-07-2016 09:35:00 18.1 C 95 % 17.29 C
981 20-07-2016 09:40:00 18.2 C 95 % 17.39 C
982 20-07-2016 09:45:00 18.4 C 94 % 17.42 C
983 20-07-2016 09:50:00 18.5 C 94 % 17.52 C
984 20-07-2016 09:55:00 18.7 C 94 % 17.71 C
985 20-07-2016 10:00:00 18.9 C 94 % 17.91 C
986 20-07-2016 10:05:00 19.1 C 93 % 17.94 C
987 20-07-2016 10:10:00 19.3 C 93 % 18.14 C
988 20-07-2016 10:15:00 19.5 C 93 % 18.34 C
989 20-07-2016 10:20:00 19.7 C 92 % 18.36 C
990 20-07-2016 10:25:00 20.1 C 92 % 18.76 C
991 20-07-2016 10:30:00 20.6 C 91 % 19.08 C
992 20-07-2016 10:35:00 21.1 C 88 % 19.03 C
993 20-07-2016 10:40:00 21.7 C 88 % 19.62 C
994 20-07-2016 10:45:00 22.2 C 86 % 19.75 C
995 20-07-2016 10:50:00 22.4 C 85 % 19.75 C
996 20-07-2016 10:55:00 22.4 C 85 % 19.75 C
997 20-07-2016 11:00:00 22.6 C 85 % 19.95 C
998 20-07-2016 11:05:00 22.7 C 85 % 20.05 C
999 20-07-2016 11:10:00 22.8 C 83 % 19.76 C
1000 20-07-2016 11:15:00 23 C 81 % 19.56 C
Sensor: Nr:Datum:Temp:Feuchte:Taupunkt:
Aussen-T/F 1001 20-07-2016 11:20:00 23.2 C 80 % 19.56 C
1002 20-07-2016 11:25:00 23.7 C 75 % 19 C
1003 20-07-2016 11:30:00 24.3 C 81 % 20.83 C
1004 20-07-2016 11:35:00 24.7 C 75 % 19.97 C
1005 20-07-2016 11:40:00 24.9 C 76 % 20.38 C
1006 20-07-2016 11:45:00 25.1 C 78 % 20.99 C
1007 20-07-2016 11:50:00 25.2 C 72 % 19.79 C
1008 20-07-2016 11:55:00 25.7 C 71 % 20.04 C
1009 20-07-2016 12:00:00 26 C 70 % 20.1 C
1010 20-07-2016 12:05:00 26.2 C 72 % 20.75 C
1011 20-07-2016 12:10:00 26.3 C 72 % 20.85 C
1012 20-07-2016 12:15:00 26.5 C 65 % 19.38 C
1013 20-07-2016 12:20:00 26.8 C 66 % 19.91 C
1014 20-07-2016 12:25:00 27 C 66 % 20.1 C
1015 20-07-2016 12:30:00 27.1 C 67 % 20.44 C
1016 20-07-2016 12:35:00 27.2 C 64 % 19.79 C
1017 20-07-2016 12:40:00 27.5 C 64 % 20.08 C
1018 20-07-2016 12:45:00 27.8 C 62 % 19.85 C
1019 20-07-2016 12:50:00 27.9 C 63 % 20.2 C
1020 20-07-2016 12:55:00 28.1 C 59 % 19.33 C
1021 20-07-2016 13:00:00 28.3 C 58 % 19.24 C
1022 20-07-2016 13:05:00 28.6 C 60 % 20.07 C
1023 20-07-2016 13:10:00 28.6 C 59 % 19.8 C
1024 20-07-2016 13:15:00 28.7 C 58 % 19.62 C
1025 20-07-2016 13:20:00 28.8 C 61 % 20.52 C
Sensor: Nr:Datum:Temp:Feuchte:Taupunkt:
Aussen-T/F 1026 20-07-2016 13:25:00 28.9 C 60 % 20.35 C
1027 20-07-2016 13:30:00 29 C 58 % 19.9 C
1028 20-07-2016 13:35:00 29.2 C 57 % 19.8 C
1029 20-07-2016 13:40:00 29.6 C 54 % 19.3 C
1030 20-07-2016 13:45:00 29.7 C 58 % 20.55 C
1031 20-07-2016 13:50:00 29.6 C 59 % 20.73 C
1032 20-07-2016 13:55:00 29.6 C 57 % 20.17 C
1033 20-07-2016 14:00:00 29.5 C 64 % 21.97 C
1034 20-07-2016 14:05:00 29.4 C 57 % 19.99 C
1035 20-07-2016 14:10:00 29.6 C 56 % 19.89 C
1036 20-07-2016 14:15:00 29.8 C 57 % 20.36 C
1037 20-07-2016 14:20:00 29.9 C 55 % 19.88 C
1038 20-07-2016 14:25:00 30.2 C 55 % 20.15 C
1039 20-07-2016 14:30:00 30.6 C 53 % 19.92 C
1040 20-07-2016 14:35:00 30.7 C 58 % 21.48 C
1041 20-07-2016 14:40:00 30.6 C 52 % 19.62 C
1042 20-07-2016 14:45:00 30.7 C 55 % 20.62 C
1043 20-07-2016 14:50:00 30.7 C 52 % 19.71 C
1044 20-07-2016 14:55:00 30.8 C 52 % 19.8 C
1045 20-07-2016 15:00:00 30.9 C 53 % 20.2 C
1046 20-07-2016 15:05:00 31 C 52 % 19.98 C
1047 20-07-2016 15:10:00 31.1 C 52 % 20.08 C
1048 20-07-2016 15:15:00 31.4 C 52 % 20.35 C
1049 20-07-2016 15:20:00 31.6 C 50 % 19.9 C
1050 20-07-2016 15:25:00 31.9 C 51 % 20.5 C
Sensor: Nr:Datum:Temp:Feuchte:Taupunkt:
Aussen-T/F 1051 20-07-2016 15:30:00 32.2 C 49 % 20.12 C
1052 20-07-2016 15:35:00 32.4 C 49 % 20.31 C
1053 20-07-2016 15:40:00 32.8 C 48 % 20.34 C
1054 20-07-2016 15:45:00 33.3 C 48 % 20.79 C
1055 20-07-2016 15:50:00 33.7 C 46 % 20.46 C
1056 20-07-2016 15:55:00 34 C 52 % 22.74 C
1057 20-07-2016 16:00:00 34.1 C 48 % 21.52 C
1058 20-07-2016 16:05:00 34.2 C 43 % 19.82 C
1059 20-07-2016 16:10:00 34.3 C 43 % 19.91 C
1060 20-07-2016 16:15:00 34.3 C 46 % 21.01 C
1061 20-07-2016 16:20:00 34.4 C 45 % 20.74 C
1062 20-07-2016 16:25:00 34.6 C 41 % 19.41 C
1063 20-07-2016 16:30:00 34.8 C 48 % 22.16 C
1064 20-07-2016 16:35:00 34.9 C 47 % 21.9 C
1065 20-07-2016 16:40:00 35.1 C 41 % 19.86 C
1066 20-07-2016 16:45:00 35.3 C 48 % 22.61 C
1067 20-07-2016 16:50:00 35.2 C 45 % 21.46 C
1068 20-07-2016 16:55:00 35.3 C 49 % 22.95 C
1069 20-07-2016 17:00:00 35.3 C 42 % 20.43 C
1070 20-07-2016 17:05:00 35.3 C 50 % 23.28 C
1071 20-07-2016 17:10:00 35.4 C 53 % 24.35 C
1072 20-07-2016 17:15:00 35.2 C 50 % 23.19 C
1073 20-07-2016 17:20:00 35.1 C 53 % 24.07 C
1074 20-07-2016 17:25:00 34.9 C 51 % 23.25 C
1075 20-07-2016 17:30:00 34.8 C 53 % 23.79 C
Sensor: Nr:Datum:Temp:Feuchte:Taupunkt:
Aussen-T/F 1076 20-07-2016 17:35:00 34.6 C 53 % 23.61 C
1077 20-07-2016 17:40:00 34.3 C 49 % 22.04 C
1078 20-07-2016 17:45:00 34.3 C 54 % 23.64 C
1079 20-07-2016 17:50:00 34.1 C 52 % 22.83 C
1080 20-07-2016 17:55:00 33.7 C 55 % 23.39 C
1081 20-07-2016 18:00:00 33.2 C 55 % 22.93 C
1082 20-07-2016 18:05:00 32.6 C 57 % 22.96 C
1083 20-07-2016 18:10:00 32.1 C 57 % 22.5 C
1084 20-07-2016 18:15:00 32.2 C 61 % 23.72 C
1085 20-07-2016 18:20:00 32.4 C 58 % 23.07 C
1086 20-07-2016 18:25:00 32.8 C 52 % 21.64 C
1087 20-07-2016 18:30:00 33.2 C 52 % 22.01 C
1088 20-07-2016 18:35:00 33.4 C 52 % 22.19 C
1089 20-07-2016 18:40:00 33.6 C 51 % 22.06 C
1090 20-07-2016 18:45:00 33.4 C 52 % 22.19 C
1091 20-07-2016 18:50:00 33.2 C 51 % 21.69 C
1092 20-07-2016 18:55:00 33.1 C 53 % 22.23 C
1093 20-07-2016 19:00:00 32.9 C 55 % 22.65 C
1094 20-07-2016 19:05:00 32.8 C 54 % 22.26 C
1095 20-07-2016 19:10:00 32.7 C 54 % 22.17 C
1096 20-07-2016 19:15:00 32.1 C 52 % 21 C
1097 20-07-2016 19:20:00 31.3 C 54 % 20.87 C
1098 20-07-2016 19:25:00 30.3 C 57 % 20.83 C
1099 20-07-2016 19:30:00 29.5 C 57 % 20.08 C
1100 20-07-2016 19:35:00 28.8 C 58 % 19.71 C
Sensor: Nr:Datum:Temp:Feuchte:Taupunkt:
Aussen-T/F 1101 20-07-2016 19:40:00 28.4 C 59 % 19.61 C
1102 20-07-2016 19:45:00 28.1 C 61 % 19.87 C
1103 20-07-2016 19:50:00 27.8 C 59 % 19.05 C
1104 20-07-2016 19:55:00 27.7 C 61 % 19.49 C
1105 20-07-2016 20:00:00 27.4 C 63 % 19.73 C
1106 20-07-2016 20:05:00 27.2 C 62 % 19.28 C
1107 20-07-2016 20:10:00 27.1 C 63 % 19.45 C
1108 20-07-2016 20:15:00 26.9 C 63 % 19.26 C
1109 20-07-2016 20:20:00 26.7 C 65 % 19.57 C
1110 20-07-2016 20:25:00 26.6 C 64 % 19.23 C
1111 20-07-2016 20:30:00 26.5 C 64 % 19.13 C
1112 20-07-2016 20:35:00 26.4 C 64 % 19.04 C
1113 20-07-2016 20:40:00 26.3 C 64 % 18.94 C
1114 20-07-2016 20:45:00 26.2 C 65 % 19.1 C
1115 20-07-2016 20:50:00 26.2 C 64 % 18.85 C
1116 20-07-2016 20:55:00 26.1 C 65 % 19 C
1117 20-07-2016 21:00:00 26.1 C 66 % 19.25 C
1118 20-07-2016 21:05:00 26 C 66 % 19.15 C
1119 20-07-2016 21:10:00 25.9 C 65 % 18.81 C
1120 20-07-2016 21:15:00 25.9 C 66 % 19.06 C
1121 20-07-2016 21:20:00 25.9 C 67 % 19.3 C
1122 20-07-2016 21:25:00 25.9 C 68 % 19.54 C
1123 20-07-2016 21:30:00 25.9 C 68 % 19.54 C
1124 20-07-2016 21:35:00 25.8 C 67 % 19.2 C
1125 20-07-2016 21:40:00 25.8 C 68 % 19.44 C
Sensor: Nr:Datum:Temp:Feuchte:Taupunkt:
Aussen-T/F 1126 20-07-2016 21:45:00 25.8 C 68 % 19.44 C
1127 20-07-2016 21:50:00 25.8 C 68 % 19.44 C
1128 20-07-2016 21:55:00 25.8 C 68 % 19.44 C
1129 20-07-2016 22:00:00 25.8 C 68 % 19.44 C
1130 20-07-2016 22:05:00 25.7 C 69 % 19.58 C
1131 20-07-2016 22:10:00 25.6 C 70 % 19.72 C
1132 20-07-2016 22:15:00 25.4 C 70 % 19.53 C
1133 20-07-2016 22:20:00 25.3 C 70 % 19.43 C
1134 20-07-2016 22:25:00 25.3 C 69 % 19.2 C
1135 20-07-2016 22:30:00 25.2 C 69 % 19.11 C
1136 20-07-2016 22:35:00 25.2 C 70 % 19.34 C
1137 20-07-2016 22:40:00 25.1 C 71 % 19.47 C
1138 20-07-2016 22:45:00 24.9 C 71 % 19.28 C
1139 20-07-2016 22:50:00 24.8 C 72 % 19.41 C
1140 20-07-2016 22:55:00 24.7 C 72 % 19.31 C
1141 20-07-2016 23:00:00 24.4 C 71 % 18.8 C
1142 20-07-2016 23:05:00 24.3 C 71 % 18.7 C
1143 20-07-2016 23:10:00 24.2 C 71 % 18.61 C
1144 20-07-2016 23:15:00 24.1 C 73 % 18.96 C
1145 20-07-2016 23:20:00 23.9 C 72 % 18.54 C
1146 20-07-2016 23:25:00 23.9 C 74 % 18.98 C
1147 20-07-2016 23:30:00 23.9 C 75 % 19.2 C
1148 20-07-2016 23:35:00 23.7 C 75 % 19 C
1149 20-07-2016 23:40:00 23.6 C 75 % 18.91 C
1150 20-07-2016 23:45:00 23.6 C 75 % 18.91 C
Sensor: Nr:Datum:Temp:Feuchte:Taupunkt:
Aussen-T/F 1151 20-07-2016 23:50:00 23.6 C 74 % 18.69 C
1152 20-07-2016 23:55:00 23.6 C 73 % 18.48 C
1153 21-07-2016 00:00:00 23.7 C 72 % 18.35 C
1154 21-07-2016 00:05:00 23.8 C 71 % 18.22 C
1155 21-07-2016 00:10:00 23.9 C 73 % 18.76 C
1156 21-07-2016 00:15:00 23.8 C 74 % 18.89 C
1157 21-07-2016 00:20:00 23.7 C 74 % 18.79 C
1158 21-07-2016 00:25:00 23.6 C 74 % 18.69 C
1159 21-07-2016 00:30:00 23.4 C 75 % 18.71 C
1160 21-07-2016 00:35:00 23.4 C 74 % 18.5 C
1161 21-07-2016 00:40:00 23.3 C 75 % 18.62 C
1162 21-07-2016 00:45:00 23.2 C 74 % 18.31 C
1163 21-07-2016 00:50:00 23.1 C 76 % 18.64 C
1164 21-07-2016 00:55:00 23.1 C 76 % 18.64 C
1165 21-07-2016 01:00:00 23 C 76 % 18.54 C
1166 21-07-2016 01:05:00 23 C 77 % 18.75 C
1167 21-07-2016 01:10:00 23.1 C 78 % 19.05 C
1168 21-07-2016 01:15:00 23 C 78 % 18.96 C
1169 21-07-2016 01:20:00 22.9 C 77 % 18.65 C
1170 21-07-2016 01:25:00 22.8 C 77 % 18.56 C
1171 21-07-2016 01:30:00 22.8 C 78 % 18.76 C
1172 21-07-2016 01:35:00 22.7 C 77 % 18.46 C
1173 21-07-2016 01:40:00 22.7 C 77 % 18.46 C
1174 21-07-2016 01:45:00 22.6 C 78 % 18.57 C
1175 21-07-2016 01:50:00 22.6 C 77 % 18.36 C
Sensor: Nr:Datum:Temp:Feuchte:Taupunkt:
Aussen-T/F 1176 21-07-2016 01:55:00 22.4 C 77 % 18.17 C
1177 21-07-2016 02:00:00 22.4 C 78 % 18.37 C
1178 21-07-2016 02:05:00 22.4 C 78 % 18.37 C
1179 21-07-2016 02:10:00 22.4 C 78 % 18.37 C
1180 21-07-2016 02:15:00 22.3 C 77 % 18.07 C
1181 21-07-2016 02:20:00 22.3 C 78 % 18.28 C
1182 21-07-2016 02:25:00 22.3 C 77 % 18.07 C
1183 21-07-2016 02:30:00 22.4 C 78 % 18.37 C
1184 21-07-2016 02:35:00 22.4 C 77 % 18.17 C
1185 21-07-2016 02:40:00 22.5 C 79 % 18.67 C
1186 21-07-2016 02:45:00 22.5 C 78 % 18.47 C
1187 21-07-2016 02:50:00 22.4 C 78 % 18.37 C
1188 21-07-2016 02:55:00 22.4 C 78 % 18.37 C
1189 21-07-2016 03:00:00 22.3 C 77 % 18.07 C
1190 21-07-2016 03:05:00 22.3 C 77 % 18.07 C
1191 21-07-2016 03:10:00 22.2 C 78 % 18.18 C
1192 21-07-2016 03:15:00 22.2 C 79 % 18.38 C
1193 21-07-2016 03:20:00 22.2 C 80 % 18.58 C
1194 21-07-2016 03:25:00 22.2 C 80 % 18.58 C
1195 21-07-2016 03:30:00 22.3 C 77 % 18.07 C
1196 21-07-2016 03:35:00 22.6 C 76 % 18.15 C
1197 21-07-2016 03:40:00 22.8 C 75 % 18.14 C
1198 21-07-2016 03:45:00 22.9 C 75 % 18.23 C
1199 21-07-2016 03:50:00 23 C 75 % 18.33 C
1200 21-07-2016 03:55:00 23 C 76 % 18.54 C
Sensor: Nr:Datum:Temp:Feuchte:Taupunkt:
Aussen-T/F 1201 21-07-2016 04:00:00 22.9 C 76 % 18.44 C
1202 21-07-2016 04:05:00 22.8 C 76 % 18.35 C
1203 21-07-2016 04:10:00 22.8 C 76 % 18.35 C
1204 21-07-2016 04:15:00 22.8 C 76 % 18.35 C
1205 21-07-2016 04:20:00 22.8 C 76 % 18.35 C
1206 21-07-2016 04:25:00 22.8 C 77 % 18.56 C
1207 21-07-2016 04:30:00 22.7 C 77 % 18.46 C
1208 21-07-2016 04:35:00 22.6 C 78 % 18.57 C
1209 21-07-2016 04:40:00 22.5 C 78 % 18.47 C
1210 21-07-2016 04:45:00 22.4 C 78 % 18.37 C
1211 21-07-2016 04:50:00 22.3 C 78 % 18.28 C
1212 21-07-2016 04:55:00 22.3 C 77 % 18.07 C
1213 21-07-2016 05:00:00 22.3 C 77 % 18.07 C
1214 21-07-2016 05:05:00 22.3 C 77 % 18.07 C
1215 21-07-2016 05:10:00 22.3 C 77 % 18.07 C
1216 21-07-2016 05:15:00 22.2 C 78 % 18.18 C
1217 21-07-2016 05:20:00 22.1 C 78 % 18.08 C
1218 21-07-2016 05:25:00 22 C 79 % 18.19 C
1219 21-07-2016 05:30:00 21.8 C 81 % 18.39 C
1220 21-07-2016 05:35:00 21.6 C 81 % 18.2 C
1221 21-07-2016 05:40:00 21.4 C 82 % 18.2 C
1222 21-07-2016 05:45:00 21.2 C 82 % 18 C
1223 21-07-2016 05:50:00 21.1 C 83 % 18.1 C
1224 21-07-2016 05:55:00 20.9 C 83 % 17.9 C
1225 21-07-2016 06:00:00 20.8 C 84 % 18 C
Sensor: Nr:Datum:Temp:Feuchte:Taupunkt:
Aussen-T/F 1226 21-07-2016 06:05:00 20.8 C 83 % 17.81 C
1227 21-07-2016 06:10:00 20.7 C 84 % 17.9 C
1228 21-07-2016 06:15:00 20.7 C 84 % 17.9 C
1229 21-07-2016 06:20:00 20.6 C 84 % 17.8 C
1230 21-07-2016 06:25:00 20.6 C 84 % 17.8 C
1231 21-07-2016 06:30:00 20.6 C 84 % 17.8 C
1232 21-07-2016 06:35:00 20.5 C 85 % 17.89 C
1233 21-07-2016 06:40:00 20.4 C 85 % 17.79 C
1234 21-07-2016 06:45:00 20.4 C 86 % 17.98 C
1235 21-07-2016 06:50:00 20.3 C 86 % 17.88 C
1236 21-07-2016 06:55:00 20.3 C 86 % 17.88 C
1237 21-07-2016 07:00:00 20.2 C 86 % 17.78 C
1238 21-07-2016 07:05:00 20.2 C 86 % 17.78 C
1239 21-07-2016 07:10:00 20.1 C 85 % 17.5 C
1240 21-07-2016 07:15:00 20.1 C 84 % 17.31 C
1241 21-07-2016 07:20:00 20.2 C 85 % 17.6 C
1242 21-07-2016 07:25:00 20.2 C 85 % 17.6 C
1243 21-07-2016 07:30:00 20.2 C 86 % 17.78 C
1244 21-07-2016 07:35:00 20.2 C 86 % 17.78 C
1245 21-07-2016 07:40:00 20.1 C 87 % 17.87 C
1246 21-07-2016 07:45:00 19.9 C 88 % 17.85 C
1247 21-07-2016 07:50:00 19.8 C 88 % 17.75 C
1248 21-07-2016 07:55:00 19.7 C 89 % 17.84 C
1249 21-07-2016 08:00:00 19.7 C 89 % 17.84 C
1250 21-07-2016 08:05:00 19.6 C 89 % 17.74 C
Sensor: Nr:Datum:Temp:Feuchte:Taupunkt:
Aussen-T/F 1251 21-07-2016 08:10:00 19.5 C 90 % 17.82 C
1252 21-07-2016 08:15:00 19.5 C 91 % 17.99 C
1253 21-07-2016 08:20:00 19.4 C 91 % 17.89 C
1254 21-07-2016 08:25:00 19.2 C 92 % 17.87 C
1255 21-07-2016 08:30:00 19.1 C 92 % 17.77 C
1256 21-07-2016 08:35:00 19.1 C 92 % 17.77 C
1257 21-07-2016 08:40:00 19.1 C 93 % 17.94 C
1258 21-07-2016 08:45:00 19 C 93 % 17.84 C
1259 21-07-2016 08:50:00 19.1 C 93 % 17.94 C
1260 21-07-2016 08:55:00 19.1 C 94 % 18.11 C
1261 21-07-2016 09:00:00 19.1 C 94 % 18.11 C
1262 21-07-2016 09:05:00 19 C 94 % 18.01 C
1263 21-07-2016 09:10:00 19.1 C 94 % 18.11 C
1264 21-07-2016 09:15:00 19.1 C 94 % 18.11 C
1265 21-07-2016 09:20:00 19.2 C 94 % 18.21 C
1266 21-07-2016 09:25:00 19.2 C 94 % 18.21 C
1267 21-07-2016 09:30:00 19.2 C 94 % 18.21 C
1268 21-07-2016 09:35:00 19.3 C 95 % 18.48 C
1269 21-07-2016 09:40:00 19.3 C 95 % 18.48 C
1270 21-07-2016 09:45:00 19.3 C 95 % 18.48 C
1271 21-07-2016 09:50:00 19.4 C 95 % 18.58 C
1272 21-07-2016 09:55:00 19.4 C 95 % 18.58 C
1273 21-07-2016 10:00:00 19.5 C 95 % 18.68 C
1274 21-07-2016 10:05:00 19.6 C 95 % 18.78 C
1275 21-07-2016 10:10:00 19.6 C 95 % 18.78 C
Sensor: Nr:Datum:Temp:Feuchte:Taupunkt:
Aussen-T/F 1276 21-07-2016 10:15:00 19.7 C 95 % 18.88 C
1277 21-07-2016 10:20:00 19.8 C 95 % 18.98 C
1278 21-07-2016 10:25:00 19.8 C 95 % 18.98 C
1279 21-07-2016 10:30:00 19.9 C 95 % 19.07 C
1280 21-07-2016 10:35:00 19.9 C 95 % 19.07 C
1281 21-07-2016 10:40:00 20 C 95 % 19.17 C
1282 21-07-2016 10:45:00 20.1 C 95 % 19.27 C
1283 21-07-2016 10:50:00 20.1 C 95 % 19.27 C
1284 21-07-2016 10:55:00 20.2 C 95 % 19.37 C
1285 21-07-2016 11:00:00 20.2 C 95 % 19.37 C
1286 21-07-2016 11:05:00 20.2 C 95 % 19.37 C
1287 21-07-2016 11:10:00 20.3 C 95 % 19.47 C
1288 21-07-2016 11:15:00 20.4 C 95 % 19.57 C
1289 21-07-2016 11:20:00 20.5 C 95 % 19.67 C
1290 21-07-2016 11:25:00 20.6 C 95 % 19.77 C
1291 21-07-2016 11:30:00 20.7 C 95 % 19.87 C
1292 21-07-2016 11:35:00 20.9 C 95 % 20.07 C
1293 21-07-2016 11:40:00 21 C 95 % 20.17 C
1294 21-07-2016 11:45:00 21.1 C 94 % 20.1 C
1295 21-07-2016 11:50:00 21.2 C 94 % 20.19 C
1296 21-07-2016 11:55:00 21.2 C 93 % 20.02 C
1297 21-07-2016 12:00:00 21.3 C 93 % 20.12 C
1298 21-07-2016 12:05:00 21.4 C 93 % 20.22 C
1299 21-07-2016 12:10:00 21.6 C 91 % 20.07 C
1300 21-07-2016 12:15:00 21.8 C 91 % 20.26 C
Sensor: Nr:Datum:Temp:Feuchte:Taupunkt:
Aussen-T/F 1301 21-07-2016 12:20:00 21.9 C 90 % 20.18 C
1302 21-07-2016 12:25:00 22.3 C 91 % 20.76 C
1303 21-07-2016 12:30:00 22.6 C 92 % 21.23 C
1304 21-07-2016 12:35:00 22.6 C 89 % 20.69 C
1305 21-07-2016 12:40:00 22.7 C 91 % 21.15 C
1306 21-07-2016 12:45:00 22.9 C 91 % 21.35 C
1307 21-07-2016 12:50:00 23 C 91 % 21.45 C
1308 21-07-2016 12:55:00 22.8 C 87 % 20.52 C
1309 21-07-2016 13:00:00 22.9 C 89 % 20.99 C
1310 21-07-2016 13:05:00 22.9 C 88 % 20.81 C
1311 21-07-2016 13:10:00 23 C 87 % 20.72 C
1312 21-07-2016 13:15:00 23.1 C 86 % 20.63 C
1313 21-07-2016 13:20:00 23.2 C 83 % 20.15 C
1314 21-07-2016 13:25:00 23.2 C 81 % 19.76 C
1315 21-07-2016 13:30:00 23.4 C 82 % 20.15 C
1316 21-07-2016 13:35:00 23.4 C 80 % 19.75 C
1317 21-07-2016 13:40:00 23.6 C 80 % 19.95 C
1318 21-07-2016 13:45:00 23.7 C 82 % 20.44 C
1319 21-07-2016 13:50:00 23.8 C 80 % 20.14 C
1320 21-07-2016 13:55:00 23.9 C 82 % 20.64 C
1321 21-07-2016 14:00:00 23.9 C 79 % 20.03 C
1322 21-07-2016 14:05:00 23.9 C 77 % 19.62 C
1323 21-07-2016 14:10:00 24.3 C 79 % 20.42 C
1324 21-07-2016 14:15:00 24.5 C 76 % 19.99 C
1325 21-07-2016 14:20:00 24.7 C 76 % 20.18 C
Sensor: Nr:Datum:Temp:Feuchte:Taupunkt:
Aussen-T/F 1326 21-07-2016 14:25:00 24.9 C 76 % 20.38 C
1327 21-07-2016 14:30:00 25 C 75 % 20.26 C
1328 21-07-2016 14:35:00 25.2 C 72 % 19.79 C
1329 21-07-2016 14:40:00 25.4 C 74 % 20.43 C
1330 21-07-2016 14:45:00 25.6 C 75 % 20.84 C
1331 21-07-2016 14:50:00 25.6 C 72 % 20.17 C
1332 21-07-2016 14:55:00 25.7 C 72 % 20.27 C
1333 21-07-2016 15:00:00 25.8 C 76 % 21.24 C
1334 21-07-2016 15:05:00 25.9 C 71 % 20.24 C
1335 21-07-2016 15:10:00 26.3 C 73 % 21.07 C
1336 21-07-2016 15:15:00 26.5 C 71 % 20.81 C
1337 21-07-2016 15:20:00 26.6 C 70 % 20.67 C
1338 21-07-2016 15:25:00 26.5 C 78 % 22.35 C
1339 21-07-2016 15:30:00 26.3 C 78 % 22.15 C
1340 21-07-2016 15:35:00 25.9 C 79 % 21.97 C
1341 21-07-2016 15:40:00 25.6 C 81 % 22.09 C
1342 21-07-2016 15:45:00 25.2 C 82 % 21.91 C
1343 21-07-2016 15:50:00 24.9 C 82 % 21.61 C
1344 21-07-2016 15:55:00 24.6 C 84 % 21.71 C
1345 21-07-2016 16:00:00 24.4 C 85 % 21.71 C
1346 21-07-2016 16:05:00 24.1 C 85 % 21.42 C
1347 21-07-2016 16:10:00 23.9 C 86 % 21.41 C
1348 21-07-2016 16:15:00 23.6 C 86 % 21.12 C
1349 21-07-2016 16:20:00 23.3 C 78 % 19.25 C
1350 21-07-2016 16:25:00 23.3 C 81 % 19.85 C
Sensor: Nr:Datum:Temp:Feuchte:Taupunkt:
Aussen-T/F 1351 21-07-2016 16:30:00 23.1 C 78 % 19.05 C
1352 21-07-2016 16:35:00 22.8 C 80 % 19.17 C
1353 21-07-2016 16:40:00 22.6 C 83 % 19.56 C
1354 21-07-2016 16:45:00 22.3 C 85 % 19.65 C
1355 21-07-2016 16:50:00 22 C 86 % 19.55 C
1356 21-07-2016 16:55:00 21.8 C 87 % 19.54 C
1357 21-07-2016 17:00:00 21.6 C 88 % 19.53 C
1358 21-07-2016 17:05:00 21.3 C 89 % 19.41 C
1359 21-07-2016 17:10:00 21.2 C 90 % 19.49 C
1360 21-07-2016 17:15:00 21 C 90 % 19.3 C
1361 21-07-2016 17:20:00 20.9 C 91 % 19.37 C
1362 21-07-2016 17:25:00 20.8 C 91 % 19.28 C
1363 21-07-2016 17:30:00 20.7 C 91 % 19.18 C
1364 21-07-2016 17:35:00 20.5 C 91 % 18.98 C
1365 21-07-2016 17:40:00 20.3 C 91 % 18.78 C
1366 21-07-2016 17:45:00 20.2 C 91 % 18.68 C
1367 21-07-2016 17:50:00 20.1 C 92 % 18.76 C
1368 21-07-2016 17:55:00 20 C 92 % 18.66 C
1369 21-07-2016 18:00:00 19.9 C 92 % 18.56 C
1370 21-07-2016 18:05:00 19.8 C 93 % 18.63 C
1371 21-07-2016 18:10:00 19.8 C 93 % 18.63 C
1372 21-07-2016 18:15:00 19.8 C 93 % 18.63 C
1373 21-07-2016 18:20:00 19.8 C 94 % 18.81 C
1374 21-07-2016 18:25:00 19.8 C 94 % 18.81 C
1375 21-07-2016 18:30:00 19.8 C 94 % 18.81 C
Sensor: Nr:Datum:Temp:Feuchte:Taupunkt:
Aussen-T/F 1376 21-07-2016 18:35:00 19.7 C 94 % 18.71 C
1377 21-07-2016 18:40:00 19.7 C 94 % 18.71 C
1378 21-07-2016 18:45:00 19.7 C 94 % 18.71 C
1379 21-07-2016 18:50:00 19.7 C 94 % 18.71 C
1380 21-07-2016 18:55:00 19.7 C 94 % 18.71 C
1381 21-07-2016 19:00:00 19.7 C 94 % 18.71 C
1382 21-07-2016 19:05:00 19.6 C 94 % 18.61 C
1383 21-07-2016 19:10:00 19.6 C 94 % 18.61 C
1384 21-07-2016 19:15:00 19.6 C 94 % 18.61 C
1385 21-07-2016 19:20:00 19.6 C 94 % 18.61 C
1386 21-07-2016 19:25:00 19.6 C 95 % 18.78 C
1387 21-07-2016 19:30:00 19.6 C 95 % 18.78 C
1388 21-07-2016 19:35:00 19.6 C 95 % 18.78 C
1389 21-07-2016 19:40:00 19.6 C 95 % 18.78 C
1390 21-07-2016 19:45:00 19.6 C 95 % 18.78 C
1391 21-07-2016 19:50:00 19.6 C 95 % 18.78 C
1392 21-07-2016 19:55:00 19.5 C 95 % 18.68 C
1393 21-07-2016 20:00:00 19.4 C 95 % 18.58 C
1394 21-07-2016 20:05:00 19.2 C 94 % 18.21 C
1395 21-07-2016 20:10:00 19.1 C 94 % 18.11 C
1396 21-07-2016 20:15:00 19 C 95 % 18.18 C
1397 21-07-2016 20:20:00 18.9 C 95 % 18.08 C
1398 21-07-2016 20:25:00 18.9 C 95 % 18.08 C
1399 21-07-2016 20:30:00 18.9 C 95 % 18.08 C
1400 21-07-2016 20:35:00 19 C 95 % 18.18 C
Sensor: Nr:Datum:Temp:Feuchte:Taupunkt:
Aussen-T/F 1401 21-07-2016 20:40:00 18.9 C 95 % 18.08 C
1402 21-07-2016 20:45:00 18.9 C 95 % 18.08 C
1403 21-07-2016 20:50:00 18.9 C 95 % 18.08 C
1404 21-07-2016 20:55:00 19 C 95 % 18.18 C
1405 21-07-2016 21:00:00 19 C 96 % 18.35 C
1406 21-07-2016 21:05:00 19.1 C 96 % 18.45 C
1407 21-07-2016 21:10:00 19 C 95 % 18.18 C
1408 21-07-2016 21:15:00 19 C 95 % 18.18 C
1409 21-07-2016 21:20:00 18.9 C 95 % 18.08 C
1410 21-07-2016 21:25:00 18.9 C 95 % 18.08 C
1411 21-07-2016 21:30:00 18.9 C 95 % 18.08 C
1412 21-07-2016 21:35:00 18.9 C 95 % 18.08 C
1413 21-07-2016 21:40:00 18.9 C 95 % 18.08 C
1414 21-07-2016 21:45:00 18.8 C 95 % 17.98 C
1415 21-07-2016 21:50:00 18.8 C 95 % 17.98 C
1416 21-07-2016 21:55:00 18.8 C 96 % 18.15 C
1417 21-07-2016 22:00:00 18.7 C 96 % 18.05 C
1418 21-07-2016 22:05:00 18.7 C 96 % 18.05 C
1419 21-07-2016 22:10:00 18.7 C 96 % 18.05 C
1420 21-07-2016 22:15:00 18.7 C 95 % 17.88 C
1421 21-07-2016 22:20:00 18.6 C 95 % 17.78 C
1422 21-07-2016 22:25:00 18.6 C 96 % 17.95 C
1423 21-07-2016 22:30:00 18.7 C 96 % 18.05 C
1424 21-07-2016 22:35:00 18.6 C 96 % 17.95 C
1425 21-07-2016 22:40:00 18.6 C 96 % 17.95 C
Sensor: Nr:Datum:Temp:Feuchte:Taupunkt:
Aussen-T/F 1426 21-07-2016 22:45:00 18.6 C 96 % 17.95 C
1427 21-07-2016 22:50:00 18.6 C 96 % 17.95 C
1428 21-07-2016 22:55:00 18.6 C 96 % 17.95 C
1429 21-07-2016 23:00:00 18.5 C 96 % 17.85 C
1430 21-07-2016 23:05:00 18.5 C 96 % 17.85 C
1431 21-07-2016 23:10:00 18.4 C 96 % 17.75 C
1432 21-07-2016 23:15:00 18.4 C 96 % 17.75 C
1433 21-07-2016 23:20:00 18.4 C 96 % 17.75 C
1434 21-07-2016 23:25:00 18.4 C 96 % 17.75 C
1435 21-07-2016 23:30:00 18.4 C 96 % 17.75 C
1436 21-07-2016 23:35:00 18.4 C 96 % 17.75 C
1437 21-07-2016 23:40:00 18.4 C 96 % 17.75 C
1438 21-07-2016 23:45:00 18.4 C 96 % 17.75 C
1439 21-07-2016 23:50:00 18.3 C 96 % 17.65 C
1440 21-07-2016 23:55:00 18.3 C 96 % 17.65 C
1441 22-07-2016 00:00:00 18.3 C 96 % 17.65 C
1442 22-07-2016 00:05:00 18.3 C 96 % 17.65 C
1443 22-07-2016 00:10:00 18.3 C 96 % 17.65 C
1444 22-07-2016 00:15:00 18.3 C 96 % 17.65 C
1445 22-07-2016 00:20:00 18.3 C 96 % 17.65 C
1446 22-07-2016 00:25:00 18.3 C 96 % 17.65 C
1447 22-07-2016 00:30:00 18.2 C 96 % 17.55 C
1448 22-07-2016 00:35:00 18.2 C 96 % 17.55 C
1449 22-07-2016 00:40:00 18.2 C 96 % 17.55 C
1450 22-07-2016 00:45:00 18.2 C 96 % 17.55 C
Sensor: Nr:Datum:Temp:Feuchte:Taupunkt:
Aussen-T/F 1451 22-07-2016 00:50:00 18.2 C 96 % 17.55 C
1452 22-07-2016 00:55:00 18.1 C 96 % 17.45 C
1453 22-07-2016 01:00:00 18.1 C 96 % 17.45 C
1454 22-07-2016 01:05:00 18.1 C 96 % 17.45 C
1455 22-07-2016 01:10:00 18.1 C 96 % 17.45 C
1456 22-07-2016 01:15:00 18.1 C 96 % 17.45 C
1457 22-07-2016 01:20:00 18.1 C 96 % 17.45 C
1458 22-07-2016 01:25:00 18.1 C 96 % 17.45 C
1459 22-07-2016 01:30:00 18 C 96 % 17.35 C
1460 22-07-2016 01:35:00 18 C 96 % 17.35 C
1461 22-07-2016 01:40:00 18 C 96 % 17.35 C
1462 22-07-2016 01:45:00 18 C 96 % 17.35 C
1463 22-07-2016 01:50:00 18 C 96 % 17.35 C
1464 22-07-2016 01:55:00 18 C 96 % 17.35 C
1465 22-07-2016 02:00:00 18 C 96 % 17.35 C
1466 22-07-2016 02:05:00 18 C 96 % 17.35 C
1467 22-07-2016 02:10:00 18.1 C 97 % 17.62 C
1468 22-07-2016 02:15:00 18.1 C 97 % 17.62 C
1469 22-07-2016 02:20:00 18.1 C 96 % 17.45 C
1470 22-07-2016 02:25:00 18 C 96 % 17.35 C
1471 22-07-2016 02:30:00 17.9 C 96 % 17.25 C
1472 22-07-2016 02:35:00 17.9 C 96 % 17.25 C
1473 22-07-2016 02:40:00 17.9 C 96 % 17.25 C
1474 22-07-2016 02:45:00 17.8 C 96 % 17.15 C
1475 22-07-2016 02:50:00 17.8 C 96 % 17.15 C
Sensor: Nr:Datum:Temp:Feuchte:Taupunkt:
Aussen-T/F 1476 22-07-2016 02:55:00 17.8 C 96 % 17.15 C
1477 22-07-2016 03:00:00 17.7 C 96 % 17.05 C
1478 22-07-2016 03:05:00 17.6 C 96 % 16.95 C
1479 22-07-2016 03:10:00 17.5 C 96 % 16.85 C
1480 22-07-2016 03:15:00 17.4 C 96 % 16.76 C
1481 22-07-2016 03:20:00 17.3 C 96 % 16.66 C
1482 22-07-2016 03:25:00 17.3 C 96 % 16.66 C
1483 22-07-2016 03:30:00 17.3 C 96 % 16.66 C
1484 22-07-2016 03:35:00 17.3 C 96 % 16.66 C
1485 22-07-2016 03:40:00 17.2 C 96 % 16.56 C
1486 22-07-2016 03:45:00 17.2 C 96 % 16.56 C
1487 22-07-2016 03:50:00 17.2 C 96 % 16.56 C
1488 22-07-2016 03:55:00 17.2 C 96 % 16.56 C
1489 22-07-2016 04:00:00 17.2 C 96 % 16.56 C
1490 22-07-2016 04:05:00 17.2 C 96 % 16.56 C
1491 22-07-2016 04:10:00 17.2 C 96 % 16.56 C
1492 22-07-2016 04:15:00 17.1 C 96 % 16.46 C
1493 22-07-2016 04:20:00 17.1 C 96 % 16.46 C
1494 22-07-2016 04:25:00 17 C 96 % 16.36 C
1495 22-07-2016 04:30:00 16.9 C 97 % 16.42 C
1496 22-07-2016 04:35:00 16.9 C 97 % 16.42 C
1497 22-07-2016 04:40:00 16.9 C 97 % 16.42 C
1498 22-07-2016 04:45:00 16.9 C 97 % 16.42 C
1499 22-07-2016 04:50:00 16.9 C 96 % 16.26 C
1500 22-07-2016 04:55:00 16.8 C 96 % 16.16 C
Sensor: Nr:Datum:Temp:Feuchte:Taupunkt:
Aussen-T/F 1501 22-07-2016 05:00:00 16.8 C 96 % 16.16 C
1502 22-07-2016 05:05:00 16.8 C 96 % 16.16 C
1503 22-07-2016 05:10:00 16.8 C 96 % 16.16 C
1504 22-07-2016 05:15:00 16.8 C 96 % 16.16 C
1505 22-07-2016 05:20:00 16.8 C 97 % 16.32 C
1506 22-07-2016 05:25:00 16.8 C 97 % 16.32 C
1507 22-07-2016 05:30:00 16.8 C 97 % 16.32 C
1508 22-07-2016 05:35:00 16.7 C 97 % 16.22 C
1509 22-07-2016 05:40:00 16.6 C 97 % 16.12 C
1510 22-07-2016 05:45:00 16.6 C 97 % 16.12 C
1511 22-07-2016 05:50:00 16.6 C 96 % 15.96 C
1512 22-07-2016 05:55:00 16.5 C 96 % 15.86 C
1513 22-07-2016 06:00:00 16.5 C 96 % 15.86 C
1514 22-07-2016 06:05:00 16.5 C 97 % 16.02 C
1515 22-07-2016 06:10:00 16.6 C 97 % 16.12 C
1516 22-07-2016 06:15:00 16.6 C 97 % 16.12 C
1517 22-07-2016 06:20:00 16.6 C 97 % 16.12 C
1518 22-07-2016 06:25:00 16.6 C 97 % 16.12 C
1519 22-07-2016 06:30:00 16.6 C 97 % 16.12 C
1520 22-07-2016 06:35:00 16.6 C 97 % 16.12 C
1521 22-07-2016 06:40:00 16.7 C 97 % 16.22 C
1522 22-07-2016 06:45:00 16.8 C 97 % 16.32 C
1523 22-07-2016 06:50:00 16.9 C 97 % 16.42 C
1524 22-07-2016 06:55:00 17.1 C 97 % 16.62 C
1525 22-07-2016 07:00:00 17.1 C 97 % 16.62 C
Sensor: Nr:Datum:Temp:Feuchte:Taupunkt:
Aussen-T/F 1526 22-07-2016 07:05:00 17.2 C 97 % 16.72 C
1527 22-07-2016 07:10:00 17.2 C 97 % 16.72 C
1528 22-07-2016 07:15:00 17.2 C 97 % 16.72 C
1529 22-07-2016 07:20:00 17.3 C 97 % 16.82 C
1530 22-07-2016 07:25:00 17.3 C 97 % 16.82 C
1531 22-07-2016 07:30:00 17.3 C 97 % 16.82 C
1532 22-07-2016 07:35:00 17.4 C 97 % 16.92 C
1533 22-07-2016 07:40:00 17.4 C 97 % 16.92 C
1534 22-07-2016 07:45:00 17.5 C 97 % 17.02 C
1535 22-07-2016 07:50:00 17.6 C 97 % 17.12 C
1536 22-07-2016 07:55:00 17.6 C 97 % 17.12 C
1537 22-07-2016 08:00:00 17.6 C 97 % 17.12 C
1538 22-07-2016 08:05:00 17.6 C 97 % 17.12 C
1539 22-07-2016 08:10:00 17.6 C 97 % 17.12 C
1540 22-07-2016 08:15:00 17.6 C 97 % 17.12 C
1541 22-07-2016 08:20:00 17.5 C 97 % 17.02 C
1542 22-07-2016 08:25:00 17.5 C 97 % 17.02 C
1543 22-07-2016 08:30:00 17.5 C 97 % 17.02 C
1544 22-07-2016 08:35:00 17.6 C 97 % 17.12 C
1545 22-07-2016 08:40:00 17.7 C 97 % 17.22 C
1546 22-07-2016 08:45:00 17.6 C 97 % 17.12 C
1547 22-07-2016 08:50:00 17.6 C 97 % 17.12 C
1548 22-07-2016 08:55:00 17.6 C 97 % 17.12 C
1549 22-07-2016 09:00:00 17.7 C 97 % 17.22 C
1550 22-07-2016 09:05:00 17.7 C 97 % 17.22 C
Sensor: Nr:Datum:Temp:Feuchte:Taupunkt:
Aussen-T/F 1551 22-07-2016 09:10:00 17.8 C 97 % 17.32 C
1552 22-07-2016 09:15:00 18 C 97 % 17.52 C
1553 22-07-2016 09:20:00 18.2 C 97 % 17.72 C
1554 22-07-2016 09:25:00 18.2 C 97 % 17.72 C
1555 22-07-2016 09:30:00 18.3 C 97 % 17.82 C
1556 22-07-2016 09:35:00 18.3 C 97 % 17.82 C
1557 22-07-2016 09:40:00 18.4 C 97 % 17.91 C
1558 22-07-2016 09:45:00 18.6 C 97 % 18.11 C
1559 22-07-2016 09:50:00 18.6 C 97 % 18.11 C
1560 22-07-2016 09:55:00 18.7 C 97 % 18.21 C
1561 22-07-2016 10:00:00 18.7 C 97 % 18.21 C
1562 22-07-2016 10:05:00 18.8 C 97 % 18.31 C
1563 22-07-2016 10:10:00 18.9 C 97 % 18.41 C
1564 22-07-2016 10:15:00 19 C 97 % 18.51 C
1565 22-07-2016 10:20:00 19.2 C 97 % 18.71 C
1566 22-07-2016 10:25:00 19.3 C 97 % 18.81 C
1567 22-07-2016 10:30:00 19.4 C 97 % 18.91 C
1568 22-07-2016 10:35:00 19.5 C 97 % 19.01 C
1569 22-07-2016 10:40:00 19.6 C 97 % 19.11 C
1570 22-07-2016 10:45:00 19.8 C 97 % 19.31 C
1571 22-07-2016 10:50:00 20 C 97 % 19.51 C
1572 22-07-2016 10:55:00 20.2 C 97 % 19.71 C
1573 22-07-2016 11:00:00 20.3 C 97 % 19.81 C
1574 22-07-2016 11:05:00 20.4 C 97 % 19.91 C
1575 22-07-2016 11:10:00 20.5 C 97 % 20.01 C
Sensor: Nr:Datum:Temp:Feuchte:Taupunkt:
Aussen-T/F 1576 22-07-2016 11:15:00 20.7 C 97 % 20.21 C
1577 22-07-2016 11:20:00 20.8 C 97 % 20.31 C
1578 22-07-2016 11:25:00 20.9 C 97 % 20.41 C
1579 22-07-2016 11:30:00 21.1 C 97 % 20.6 C
1580 22-07-2016 11:35:00 21.3 C 96 % 20.64 C
1581 22-07-2016 11:40:00 21.4 C 96 % 20.74 C
1582 22-07-2016 11:45:00 21.6 C 96 % 20.93 C
1583 22-07-2016 11:50:00 21.7 C 96 % 21.03 C
1584 22-07-2016 11:55:00 21.7 C 96 % 21.03 C
1585 22-07-2016 12:00:00 21.9 C 96 % 21.23 C
1586 22-07-2016 12:05:00 21.9 C 95 % 21.06 C
1587 22-07-2016 12:10:00 22.2 C 95 % 21.36 C
1588 22-07-2016 12:15:00 22.3 C 94 % 21.29 C
1589 22-07-2016 12:20:00 22.7 C 94 % 21.68 C
1590 22-07-2016 12:25:00 23.1 C 92 % 21.73 C
1591 22-07-2016 12:30:00 23.4 C 93 % 22.2 C
1592 22-07-2016 12:35:00 23.7 C 93 % 22.5 C
1593 22-07-2016 12:40:00 23.7 C 92 % 22.32 C
1594 22-07-2016 12:45:00 23.8 C 90 % 22.06 C
1595 22-07-2016 12:50:00 24 C 89 % 22.07 C
1596 22-07-2016 12:55:00 24.1 C 86 % 21.61 C
1597 22-07-2016 13:00:00 24.3 C 89 % 22.37 C
1598 22-07-2016 13:05:00 24.5 C 88 % 22.38 C
1599 22-07-2016 13:10:00 24.6 C 89 % 22.66 C
1600 22-07-2016 13:15:00 24.6 C 90 % 22.85 C
Sensor: Nr:Datum:Temp:Feuchte:Taupunkt:
Aussen-T/F 1601 22-07-2016 13:20:00 24.6 C 90 % 22.85 C
1602 22-07-2016 13:25:00 24.4 C 87 % 22.09 C
1603 22-07-2016 13:30:00 24.5 C 86 % 22 C
1604 22-07-2016 13:35:00 24.7 C 83 % 21.62 C
1605 22-07-2016 13:40:00 24.9 C 82 % 21.61 C
1606 22-07-2016 13:45:00 25.1 C 82 % 21.81 C
1607 22-07-2016 13:50:00 25.3 C 80 % 21.6 C
1608 22-07-2016 13:55:00 25.6 C 78 % 21.48 C
1609 22-07-2016 14:00:00 25.7 C 79 % 21.78 C
1610 22-07-2016 14:05:00 25.9 C 76 % 21.34 C
1611 22-07-2016 14:10:00 26 C 77 % 21.65 C
1612 22-07-2016 14:15:00 26.2 C 76 % 21.63 C
1613 22-07-2016 14:20:00 26.3 C 74 % 21.29 C
1614 22-07-2016 14:25:00 26.5 C 73 % 21.26 C
1615 22-07-2016 14:30:00 26.7 C 70 % 20.77 C
1616 22-07-2016 14:35:00 26.9 C 71 % 21.19 C
1617 22-07-2016 14:40:00 27 C 69 % 20.82 C
1618 22-07-2016 14:45:00 27.1 C 70 % 21.15 C
1619 22-07-2016 14:50:00 27.1 C 71 % 21.38 C
1620 22-07-2016 14:55:00 27.2 C 74 % 22.16 C
1621 22-07-2016 15:00:00 27.3 C 71 % 21.58 C
1622 22-07-2016 15:05:00 27.4 C 75 % 22.57 C
1623 22-07-2016 15:10:00 27.4 C 68 % 20.97 C
1624 22-07-2016 15:15:00 27.6 C 72 % 22.09 C
1625 22-07-2016 15:20:00 27.7 C 78 % 23.51 C
Sensor: Nr:Datum:Temp:Feuchte:Taupunkt:
Aussen-T/F 1626 22-07-2016 15:25:00 27.6 C 73 % 22.32 C
1627 22-07-2016 15:30:00 27.5 C 76 % 22.89 C
1628 22-07-2016 15:35:00 27.3 C 69 % 21.11 C
1629 22-07-2016 15:40:00 27.4 C 76 % 22.79 C
1630 22-07-2016 15:45:00 27.4 C 72 % 21.9 C
1631 22-07-2016 15:50:00 27.8 C 80 % 24.03 C
1632 22-07-2016 15:55:00 28.2 C 74 % 23.12 C
1633 22-07-2016 16:00:00 28.3 C 64 % 20.83 C
1634 22-07-2016 16:05:00 28.8 C 76 % 24.14 C
1635 22-07-2016 16:10:00 29.1 C 61 % 20.81 C
1636 22-07-2016 16:15:00 29.3 C 64 % 21.78 C
1637 22-07-2016 16:20:00 29.6 C 60 % 21.01 C
1638 22-07-2016 16:25:00 29.6 C 67 % 22.82 C
1639 22-07-2016 16:30:00 29.2 C 64 % 21.68 C
1640 22-07-2016 16:35:00 28.5 C 70 % 22.49 C
1641 22-07-2016 16:40:00 28 C 71 % 22.25 C
1642 22-07-2016 16:45:00 27.7 C 65 % 20.52 C
1643 22-07-2016 16:50:00 27.8 C 64 % 20.36 C
1644 22-07-2016 16:55:00 27.8 C 66 % 20.86 C
1645 22-07-2016 17:00:00 27.5 C 66 % 20.58 C
1646 22-07-2016 17:05:00 27.2 C 66 % 20.29 C
1647 22-07-2016 17:10:00 27 C 65 % 19.86 C
1648 22-07-2016 17:15:00 27.1 C 65 % 19.95 C
1649 22-07-2016 17:20:00 26.9 C 65 % 19.76 C
1650 22-07-2016 17:25:00 26.8 C 64 % 19.42 C
Sensor: Nr:Datum:Temp:Feuchte:Taupunkt:
Aussen-T/F 1651 22-07-2016 17:30:00 26.8 C 64 % 19.42 C
1652 22-07-2016 17:35:00 27.1 C 69 % 20.92 C
1653 22-07-2016 17:40:00 27.1 C 68 % 20.68 C
1654 22-07-2016 17:45:00 27 C 69 % 20.82 C
1655 22-07-2016 17:50:00 26.9 C 70 % 20.96 C
1656 22-07-2016 17:55:00 26.8 C 67 % 20.16 C
1657 22-07-2016 18:00:00 26.6 C 66 % 19.72 C
1658 22-07-2016 18:05:00 26.4 C 74 % 21.39 C
1659 22-07-2016 18:10:00 26.3 C 76 % 21.73 C
1660 22-07-2016 18:15:00 26.1 C 76 % 21.53 C
1661 22-07-2016 18:20:00 25.8 C 78 % 21.67 C
1662 22-07-2016 18:25:00 25.6 C 78 % 21.48 C
1663 22-07-2016 18:30:00 25.2 C 79 % 21.3 C
1664 22-07-2016 18:35:00 24.8 C 81 % 21.31 C
1665 22-07-2016 18:40:00 24.2 C 79 % 20.32 C
1666 22-07-2016 18:45:00 23.9 C 77 % 19.62 C
1667 22-07-2016 18:50:00 23.8 C 80 % 20.14 C
1668 22-07-2016 18:55:00 23.7 C 82 % 20.44 C
1669 22-07-2016 19:00:00 23.5 C 82 % 20.25 C
1670 22-07-2016 19:05:00 23.3 C 83 % 20.25 C
1671 22-07-2016 19:10:00 23.1 C 80 % 19.46 C
1672 22-07-2016 19:15:00 23 C 84 % 20.15 C
1673 22-07-2016 19:20:00 22.9 C 84 % 20.05 C
1674 22-07-2016 19:25:00 22.8 C 84 % 19.95 C
1675 22-07-2016 19:30:00 22.7 C 84 % 19.86 C
Sensor: Nr:Datum:Temp:Feuchte:Taupunkt:
Aussen-T/F 1676 22-07-2016 19:35:00 22.6 C 84 % 19.76 C
1677 22-07-2016 19:40:00 22.4 C 85 % 19.75 C
1678 22-07-2016 19:45:00 22.3 C 85 % 19.65 C
1679 22-07-2016 19:50:00 22.2 C 86 % 19.75 C
1680 22-07-2016 19:55:00 22.1 C 87 % 19.83 C
1681 22-07-2016 20:00:00 22.1 C 87 % 19.83 C
1682 22-07-2016 20:05:00 21.9 C 87 % 19.64 C
1683 22-07-2016 20:10:00 21.8 C 87 % 19.54 C
1684 22-07-2016 20:15:00 21.8 C 88 % 19.72 C
1685 22-07-2016 20:20:00 21.7 C 88 % 19.62 C
1686 22-07-2016 20:25:00 21.7 C 88 % 19.62 C
1687 22-07-2016 20:30:00 21.6 C 89 % 19.71 C
1688 22-07-2016 20:35:00 21.5 C 87 % 19.24 C
1689 22-07-2016 20:40:00 21.5 C 88 % 19.43 C
1690 22-07-2016 20:45:00 21.4 C 88 % 19.33 C
1691 22-07-2016 20:50:00 21.4 C 86 % 18.96 C
1692 22-07-2016 20:55:00 21.3 C 87 % 19.05 C
1693 22-07-2016 21:00:00 21.2 C 87 % 18.95 C
1694 22-07-2016 21:05:00 21.2 C 87 % 18.95 C
1695 22-07-2016 21:10:00 21.1 C 87 % 18.85 C
1696 22-07-2016 21:15:00 20.9 C 88 % 18.84 C
1697 22-07-2016 21:20:00 20.8 C 88 % 18.74 C
1698 22-07-2016 21:25:00 20.7 C 88 % 18.64 C
1699 22-07-2016 21:30:00 20.7 C 89 % 18.82 C
1700 22-07-2016 21:35:00 20.6 C 88 % 18.54 C
Sensor: Nr:Datum:Temp:Feuchte:Taupunkt:
Aussen-T/F 1701 22-07-2016 21:40:00 20.4 C 88 % 18.34 C
1702 22-07-2016 21:45:00 20.4 C 88 % 18.34 C
1703 22-07-2016 21:50:00 20.3 C 89 % 18.43 C
1704 22-07-2016 21:55:00 20.3 C 89 % 18.43 C
1705 22-07-2016 22:00:00 20.2 C 89 % 18.33 C
1706 22-07-2016 22:05:00 20.2 C 89 % 18.33 C
1707 22-07-2016 22:10:00 20.1 C 89 % 18.23 C
1708 22-07-2016 22:15:00 20.1 C 89 % 18.23 C
1709 22-07-2016 22:20:00 20 C 89 % 18.13 C
1710 22-07-2016 22:25:00 19.9 C 89 % 18.03 C
1711 22-07-2016 22:30:00 19.9 C 89 % 18.03 C
1712 22-07-2016 22:35:00 19.9 C 89 % 18.03 C
1713 22-07-2016 22:40:00 19.9 C 88 % 17.85 C
1714 22-07-2016 22:45:00 19.8 C 88 % 17.75 C
1715 22-07-2016 22:50:00 19.9 C 88 % 17.85 C
1716 22-07-2016 22:55:00 19.9 C 88 % 17.85 C
1717 22-07-2016 23:00:00 19.9 C 89 % 18.03 C
1718 22-07-2016 23:05:00 19.9 C 89 % 18.03 C
1719 22-07-2016 23:10:00 19.9 C 89 % 18.03 C
1720 22-07-2016 23:15:00 19.9 C 89 % 18.03 C
1721 22-07-2016 23:20:00 19.9 C 89 % 18.03 C
1722 22-07-2016 23:25:00 19.9 C 89 % 18.03 C
1723 22-07-2016 23:30:00 19.8 C 89 % 17.93 C
1724 22-07-2016 23:35:00 19.8 C 89 % 17.93 C
1725 22-07-2016 23:40:00 19.8 C 90 % 18.11 C
Sensor: Nr:Datum:Temp:Feuchte:Taupunkt:
Aussen-T/F 1726 22-07-2016 23:45:00 19.8 C 90 % 18.11 C
1727 22-07-2016 23:50:00 19.8 C 90 % 18.11 C
1728 22-07-2016 23:55:00 19.7 C 90 % 18.01 C
1729 23-07-2016 00:00:00 19.7 C 90 % 18.01 C
1730 23-07-2016 00:05:00 19.7 C 90 % 18.01 C
1731 23-07-2016 00:10:00 19.6 C 90 % 17.91 C
1732 23-07-2016 00:15:00 19.6 C 91 % 18.09 C
1733 23-07-2016 00:20:00 19.6 C 91 % 18.09 C
1734 23-07-2016 00:25:00 19.5 C 91 % 17.99 C
1735 23-07-2016 00:30:00 19.5 C 91 % 17.99 C
1736 23-07-2016 00:35:00 19.4 C 91 % 17.89 C
1737 23-07-2016 00:40:00 19.3 C 91 % 17.79 C
1738 23-07-2016 00:45:00 19.3 C 91 % 17.79 C
1739 23-07-2016 00:50:00 19.3 C 91 % 17.79 C
1740 23-07-2016 00:55:00 19.2 C 92 % 17.87 C
1741 23-07-2016 01:00:00 19.2 C 92 % 17.87 C
1742 23-07-2016 01:05:00 19.2 C 92 % 17.87 C
1743 23-07-2016 01:10:00 19.2 C 92 % 17.87 C
1744 23-07-2016 01:15:00 19.2 C 92 % 17.87 C
1745 23-07-2016 01:20:00 19.2 C 92 % 17.87 C
1746 23-07-2016 01:25:00 19.2 C 93 % 18.04 C
1747 23-07-2016 01:30:00 19.2 C 93 % 18.04 C
1748 23-07-2016 01:35:00 19.2 C 93 % 18.04 C
1749 23-07-2016 01:40:00 19.1 C 93 % 17.94 C
1750 23-07-2016 01:45:00 19.1 C 92 % 17.77 C
Sensor: Nr:Datum:Temp:Feuchte:Taupunkt:
Aussen-T/F 1751 23-07-2016 01:50:00 19.1 C 92 % 17.77 C
1752 23-07-2016 01:55:00 19.1 C 93 % 17.94 C
1753 23-07-2016 02:00:00 19.1 C 93 % 17.94 C
1754 23-07-2016 02:05:00 19.1 C 93 % 17.94 C
1755 23-07-2016 02:10:00 19 C 93 % 17.84 C
1756 23-07-2016 02:15:00 18.9 C 93 % 17.74 C
1757 23-07-2016 02:20:00 18.9 C 93 % 17.74 C
1758 23-07-2016 02:25:00 18.9 C 93 % 17.74 C
1759 23-07-2016 02:30:00 18.9 C 93 % 17.74 C
1760 23-07-2016 02:35:00 18.9 C 93 % 17.74 C
1761 23-07-2016 02:40:00 18.8 C 93 % 17.64 C
1762 23-07-2016 02:45:00 18.8 C 93 % 17.64 C
1763 23-07-2016 02:50:00 18.8 C 93 % 17.64 C
1764 23-07-2016 02:55:00 18.8 C 93 % 17.64 C
1765 23-07-2016 03:00:00 18.7 C 93 % 17.54 C
1766 23-07-2016 03:05:00 18.7 C 93 % 17.54 C
1767 23-07-2016 03:10:00 18.7 C 93 % 17.54 C
1768 23-07-2016 03:15:00 18.7 C 93 % 17.54 C
1769 23-07-2016 03:20:00 18.6 C 93 % 17.45 C
1770 23-07-2016 03:25:00 18.6 C 93 % 17.45 C
1771 23-07-2016 03:30:00 18.6 C 93 % 17.45 C
1772 23-07-2016 03:35:00 18.6 C 93 % 17.45 C
1773 23-07-2016 03:40:00 18.6 C 93 % 17.45 C
1774 23-07-2016 03:45:00 18.6 C 93 % 17.45 C
1775 23-07-2016 03:50:00 18.5 C 93 % 17.35 C
Sensor: Nr:Datum:Temp:Feuchte:Taupunkt:
Aussen-T/F 1776 23-07-2016 03:55:00 18.4 C 93 % 17.25 C
1777 23-07-2016 04:00:00 18.4 C 93 % 17.25 C
1778 23-07-2016 04:05:00 18.4 C 93 % 17.25 C
1779 23-07-2016 04:10:00 18.4 C 93 % 17.25 C
1780 23-07-2016 04:15:00 18.3 C 93 % 17.15 C
1781 23-07-2016 04:20:00 18.3 C 93 % 17.15 C
1782 23-07-2016 04:25:00 18.3 C 93 % 17.15 C
1783 23-07-2016 04:30:00 18.3 C 93 % 17.15 C
1784 23-07-2016 04:35:00 18.4 C 93 % 17.25 C
1785 23-07-2016 04:40:00 18.4 C 93 % 17.25 C
1786 23-07-2016 04:45:00 18.4 C 94 % 17.42 C
1787 23-07-2016 04:50:00 18.4 C 94 % 17.42 C
1788 23-07-2016 04:55:00 18.5 C 94 % 17.52 C
1789 23-07-2016 05:00:00 18.4 C 94 % 17.42 C
1790 23-07-2016 05:05:00 18.4 C 94 % 17.42 C
1791 23-07-2016 05:10:00 18.4 C 94 % 17.42 C
1792 23-07-2016 05:15:00 18.4 C 94 % 17.42 C
1793 23-07-2016 05:20:00 18.3 C 94 % 17.32 C
1794 23-07-2016 05:25:00 18.3 C 94 % 17.32 C
1795 23-07-2016 05:30:00 18.3 C 94 % 17.32 C
1796 23-07-2016 05:35:00 18.3 C 94 % 17.32 C
1797 23-07-2016 05:40:00 18.3 C 94 % 17.32 C
1798 23-07-2016 05:45:00 18.3 C 94 % 17.32 C
1799 23-07-2016 05:50:00 18.3 C 95 % 17.48 C
1800 23-07-2016 05:55:00 18.3 C 95 % 17.48 C
Sensor: Nr:Datum:Temp:Feuchte:Taupunkt:
Aussen-T/F 1801 23-07-2016 06:00:00 18.3 C 95 % 17.48 C
1802 23-07-2016 06:05:00 18.3 C 95 % 17.48 C
1803 23-07-2016 06:10:00 18.3 C 95 % 17.48 C
1804 23-07-2016 06:15:00 18.3 C 95 % 17.48 C
1805 23-07-2016 06:20:00 18.3 C 95 % 17.48 C
1806 23-07-2016 06:25:00 18.4 C 95 % 17.58 C
1807 23-07-2016 06:30:00 18.4 C 95 % 17.58 C
1808 23-07-2016 06:35:00 18.4 C 95 % 17.58 C
1809 23-07-2016 06:40:00 18.4 C 95 % 17.58 C
1810 23-07-2016 06:45:00 18.4 C 95 % 17.58 C
1811 23-07-2016 06:50:00 18.4 C 95 % 17.58 C
1812 23-07-2016 06:55:00 18.4 C 95 % 17.58 C
1813 23-07-2016 07:00:00 18.4 C 95 % 17.58 C
1814 23-07-2016 07:05:00 18.5 C 95 % 17.68 C
1815 23-07-2016 07:10:00 18.6 C 95 % 17.78 C
1816 23-07-2016 07:15:00 18.6 C 95 % 17.78 C
1817 23-07-2016 07:20:00 18.6 C 95 % 17.78 C
1818 23-07-2016 07:25:00 18.6 C 95 % 17.78 C
1819 23-07-2016 07:30:00 18.7 C 95 % 17.88 C
1820 23-07-2016 07:35:00 18.7 C 96 % 18.05 C
1821 23-07-2016 07:40:00 18.8 C 96 % 18.15 C
1822 23-07-2016 07:45:00 18.9 C 96 % 18.25 C
1823 23-07-2016 07:50:00 18.9 C 96 % 18.25 C
1824 23-07-2016 07:55:00 19 C 96 % 18.35 C
1825 23-07-2016 08:00:00 19 C 96 % 18.35 C
Sensor: Nr:Datum:Temp:Feuchte:Taupunkt:
Aussen-T/F 1826 23-07-2016 08:05:00 19 C 95 % 18.18 C
1827 23-07-2016 08:10:00 19 C 95 % 18.18 C
1828 23-07-2016 08:15:00 19 C 95 % 18.18 C
1829 23-07-2016 08:20:00 19 C 95 % 18.18 C
1830 23-07-2016 08:25:00 19 C 95 % 18.18 C
1831 23-07-2016 08:30:00 19.1 C 96 % 18.45 C
1832 23-07-2016 08:35:00 19.2 C 96 % 18.55 C
1833 23-07-2016 08:40:00 19.3 C 95 % 18.48 C
1834 23-07-2016 08:45:00 19.4 C 96 % 18.75 C
1835 23-07-2016 08:50:00 19.4 C 96 % 18.75 C
1836 23-07-2016 08:55:00 19.5 C 95 % 18.68 C
1837 23-07-2016 09:00:00 19.6 C 95 % 18.78 C
1838 23-07-2016 09:05:00 19.7 C 95 % 18.88 C
1839 23-07-2016 09:10:00 19.7 C 95 % 18.88 C
1840 23-07-2016 09:15:00 19.8 C 95 % 18.98 C
1841 23-07-2016 09:20:00 19.9 C 95 % 19.07 C
1842 23-07-2016 09:25:00 19.9 C 95 % 19.07 C
1843 23-07-2016 09:30:00 20 C 95 % 19.17 C
1844 23-07-2016 09:35:00 20.1 C 95 % 19.27 C
1845 23-07-2016 09:40:00 20.1 C 95 % 19.27 C
1846 23-07-2016 09:45:00 20.1 C 94 % 19.1 C
1847 23-07-2016 09:50:00 20.1 C 94 % 19.1 C
1848 23-07-2016 09:55:00 20.1 C 94 % 19.1 C
1849 23-07-2016 10:00:00 20.3 C 94 % 19.3 C
1850 23-07-2016 10:05:00 20.4 C 94 % 19.4 C
Sensor: Nr:Datum:Temp:Feuchte:Taupunkt:
Aussen-T/F 1851 23-07-2016 10:10:00 20.4 C 93 % 19.23 C
1852 23-07-2016 10:15:00 20.5 C 93 % 19.33 C
1853 23-07-2016 10:20:00 20.6 C 93 % 19.43 C
1854 23-07-2016 10:25:00 20.7 C 93 % 19.53 C
1855 23-07-2016 10:30:00 20.7 C 92 % 19.35 C
1856 23-07-2016 10:35:00 20.7 C 92 % 19.35 C
1857 23-07-2016 10:40:00 20.7 C 91 % 19.18 C
1858 23-07-2016 10:45:00 20.8 C 92 % 19.45 C
1859 23-07-2016 10:50:00 20.8 C 92 % 19.45 C
1860 23-07-2016 10:55:00 20.9 C 92 % 19.55 C
1861 23-07-2016 11:00:00 21 C 92 % 19.65 C
1862 23-07-2016 11:05:00 21.1 C 92 % 19.75 C
1863 23-07-2016 11:10:00 21.1 C 92 % 19.75 C
1864 23-07-2016 11:15:00 21.2 C 93 % 20.02 C
1865 23-07-2016 11:20:00 21.1 C 91 % 19.57 C
1866 23-07-2016 11:25:00 21.1 C 92 % 19.75 C
1867 23-07-2016 11:30:00 21.2 C 92 % 19.85 C
1868 23-07-2016 11:35:00 21.1 C 91 % 19.57 C
1869 23-07-2016 11:40:00 21.1 C 91 % 19.57 C
1870 23-07-2016 11:45:00 21.1 C 90 % 19.39 C
1871 23-07-2016 11:50:00 21.1 C 90 % 19.39 C
1872 23-07-2016 11:55:00 21.2 C 90 % 19.49 C
1873 23-07-2016 12:00:00 21.3 C 89 % 19.41 C
1874 23-07-2016 12:05:00 21.4 C 90 % 19.69 C
1875 23-07-2016 12:10:00 21.7 C 89 % 19.81 C
Sensor: Nr:Datum:Temp:Feuchte:Taupunkt:
Aussen-T/F 1876 23-07-2016 12:15:00 21.8 C 89 % 19.9 C
1877 23-07-2016 12:20:00 21.9 C 87 % 19.64 C
1878 23-07-2016 12:25:00 22.1 C 87 % 19.83 C
1879 23-07-2016 12:30:00 22.1 C 86 % 19.65 C
1880 23-07-2016 12:35:00 22.2 C 85 % 19.56 C
1881 23-07-2016 12:40:00 22.3 C 85 % 19.65 C
1882 23-07-2016 12:45:00 22.3 C 84 % 19.46 C
1883 23-07-2016 12:50:00 22.4 C 84 % 19.56 C
1884 23-07-2016 12:55:00 22.5 C 84 % 19.66 C
1885 23-07-2016 13:00:00 22.5 C 82 % 19.27 C
1886 23-07-2016 13:05:00 22.6 C 82 % 19.37 C
1887 23-07-2016 13:10:00 22.6 C 82 % 19.37 C
1888 23-07-2016 13:15:00 22.7 C 82 % 19.47 C
1889 23-07-2016 13:20:00 22.8 C 83 % 19.76 C
1890 23-07-2016 13:25:00 22.8 C 82 % 19.56 C
1891 23-07-2016 13:30:00 22.9 C 82 % 19.66 C
1892 23-07-2016 13:35:00 23.1 C 84 % 20.25 C
1893 23-07-2016 13:40:00 23.3 C 82 % 20.05 C
1894 23-07-2016 13:45:00 23.4 C 82 % 20.15 C
1895 23-07-2016 13:50:00 23.5 C 79 % 19.65 C
1896 23-07-2016 13:55:00 23.6 C 79 % 19.74 C
1897 23-07-2016 14:00:00 23.7 C 79 % 19.84 C
1898 23-07-2016 14:05:00 23.8 C 80 % 20.14 C
1899 23-07-2016 14:10:00 23.9 C 78 % 19.83 C
1900 23-07-2016 14:15:00 24.1 C 78 % 20.02 C
Sensor: Nr:Datum:Temp:Feuchte:Taupunkt:
Aussen-T/F 1901 23-07-2016 14:20:00 24.1 C 79 % 20.23 C
1902 23-07-2016 14:25:00 24.2 C 76 % 19.7 C
1903 23-07-2016 14:30:00 24.3 C 77 % 20.01 C
1904 23-07-2016 14:35:00 24.3 C 75 % 19.58 C
1905 23-07-2016 14:40:00 24.3 C 74 % 19.37 C
1906 23-07-2016 14:45:00 24.2 C 74 % 19.27 C
1907 23-07-2016 14:50:00 24.2 C 77 % 19.91 C
1908 23-07-2016 14:55:00 24.1 C 77 % 19.81 C
1909 23-07-2016 15:00:00 23.9 C 77 % 19.62 C
1910 23-07-2016 15:05:00 23.8 C 79 % 19.94 C
1911 23-07-2016 15:10:00 23.7 C 79 % 19.84 C
1912 23-07-2016 15:15:00 23.7 C 78 % 19.63 C
1913 23-07-2016 15:20:00 23.6 C 78 % 19.54 C
1914 23-07-2016 15:25:00 23.4 C 79 % 19.55 C
1915 23-07-2016 15:30:00 23.4 C 80 % 19.75 C
1916 23-07-2016 15:35:00 23.4 C 80 % 19.75 C
1917 23-07-2016 15:40:00 23.3 C 82 % 20.05 C
1918 23-07-2016 15:45:00 23.2 C 81 % 19.76 C
1919 23-07-2016 15:50:00 23 C 81 % 19.56 C
1920 23-07-2016 15:55:00 22.9 C 82 % 19.66 C
1921 23-07-2016 16:00:00 22.9 C 83 % 19.86 C
1922 23-07-2016 16:05:00 22.9 C 84 % 20.05 C
1923 23-07-2016 16:10:00 22.9 C 83 % 19.86 C
1924 23-07-2016 16:15:00 23.1 C 83 % 20.05 C
1925 23-07-2016 16:20:00 23.1 C 83 % 20.05 C
Sensor: Nr:Datum:Temp:Feuchte:Taupunkt:
Aussen-T/F 1926 23-07-2016 16:25:00 23.1 C 83 % 20.05 C
1927 23-07-2016 16:30:00 23 C 82 % 19.76 C
1928 23-07-2016 16:35:00 22.8 C 85 % 20.14 C
1929 23-07-2016 16:40:00 22.5 C 87 % 20.23 C
1930 23-07-2016 16:45:00 22 C 88 % 19.92 C
1931 23-07-2016 16:50:00 21.7 C 89 % 19.81 C
1932 23-07-2016 16:55:00 21.4 C 91 % 19.87 C
1933 23-07-2016 17:00:00 21.2 C 91 % 19.67 C
1934 23-07-2016 17:05:00 20.9 C 92 % 19.55 C
1935 23-07-2016 17:10:00 20.8 C 92 % 19.45 C
1936 23-07-2016 17:15:00 20.7 C 92 % 19.35 C
1937 23-07-2016 17:20:00 20.6 C 93 % 19.43 C
1938 23-07-2016 17:25:00 20.5 C 93 % 19.33 C
1939 23-07-2016 17:30:00 20.5 C 93 % 19.33 C
1940 23-07-2016 17:35:00 20.5 C 93 % 19.33 C
1941 23-07-2016 17:40:00 20.4 C 93 % 19.23 C
1942 23-07-2016 17:45:00 20.4 C 93 % 19.23 C
1943 23-07-2016 17:50:00 20.4 C 93 % 19.23 C
1944 23-07-2016 17:55:00 20.4 C 94 % 19.4 C
1945 23-07-2016 18:00:00 20.4 C 94 % 19.4 C
1946 23-07-2016 18:05:00 20.5 C 94 % 19.5 C
1947 23-07-2016 18:10:00 20.6 C 95 % 19.77 C
1948 23-07-2016 18:15:00 20.6 C 94 % 19.6 C
1949 23-07-2016 18:20:00 20.6 C 95 % 19.77 C
1950 23-07-2016 18:25:00 20.8 C 95 % 19.97 C
Sensor: Nr:Datum:Temp:Feuchte:Taupunkt:
Aussen-T/F 1951 23-07-2016 18:30:00 20.8 C 95 % 19.97 C
1952 23-07-2016 18:35:00 20.8 C 95 % 19.97 C
1953 23-07-2016 18:40:00 20.9 C 95 % 20.07 C
1954 23-07-2016 18:45:00 21.1 C 95 % 20.27 C
1955 23-07-2016 18:50:00 21.1 C 95 % 20.27 C
1956 23-07-2016 18:55:00 21.2 C 95 % 20.37 C
1957 23-07-2016 19:00:00 21.2 C 95 % 20.37 C
1958 23-07-2016 19:05:00 21.1 C 95 % 20.27 C
1959 23-07-2016 19:10:00 21.1 C 95 % 20.27 C
1960 23-07-2016 19:15:00 21.1 C 95 % 20.27 C
1961 23-07-2016 19:20:00 21.2 C 95 % 20.37 C
1962 23-07-2016 19:25:00 21.1 C 95 % 20.27 C
1963 23-07-2016 19:30:00 21.1 C 95 % 20.27 C
1964 23-07-2016 19:35:00 21.1 C 95 % 20.27 C
1965 23-07-2016 19:40:00 21.1 C 95 % 20.27 C
1966 23-07-2016 19:45:00 21 C 95 % 20.17 C
1967 23-07-2016 19:50:00 20.9 C 95 % 20.07 C
1968 23-07-2016 19:55:00 20.9 C 95 % 20.07 C
1969 23-07-2016 20:00:00 20.8 C 95 % 19.97 C
1970 23-07-2016 20:05:00 20.8 C 95 % 19.97 C
1971 23-07-2016 20:10:00 20.8 C 95 % 19.97 C
1972 23-07-2016 20:15:00 20.7 C 95 % 19.87 C
1973 23-07-2016 20:20:00 20.7 C 95 % 19.87 C
1974 23-07-2016 20:25:00 20.7 C 95 % 19.87 C
1975 23-07-2016 20:30:00 20.6 C 95 % 19.77 C
Sensor: Nr:Datum:Temp:Feuchte:Taupunkt:
Aussen-T/F 1976 23-07-2016 20:35:00 20.6 C 95 % 19.77 C
1977 23-07-2016 20:40:00 20.6 C 95 % 19.77 C
1978 23-07-2016 20:45:00 20.5 C 95 % 19.67 C
1979 23-07-2016 20:50:00 20.5 C 95 % 19.67 C
1980 23-07-2016 20:55:00 20.4 C 96 % 19.74 C
1981 23-07-2016 21:00:00 20.5 C 96 % 19.84 C
1982 23-07-2016 21:05:00 20.5 C 96 % 19.84 C
1983 23-07-2016 21:10:00 20.4 C 95 % 19.57 C
1984 23-07-2016 21:15:00 20.4 C 96 % 19.74 C
1985 23-07-2016 21:20:00 20.4 C 96 % 19.74 C
1986 23-07-2016 21:25:00 20.4 C 96 % 19.74 C
1987 23-07-2016 21:30:00 20.3 C 95 % 19.47 C
1988 23-07-2016 21:35:00 20.2 C 96 % 19.54 C
1989 23-07-2016 21:40:00 20.1 C 96 % 19.44 C
1990 23-07-2016 21:45:00 20.1 C 95 % 19.27 C
1991 23-07-2016 21:50:00 19.9 C 95 % 19.07 C
1992 23-07-2016 21:55:00 19.9 C 95 % 19.07 C
1993 23-07-2016 22:00:00 19.8 C 96 % 19.14 C
1994 23-07-2016 22:05:00 19.8 C 96 % 19.14 C
1995 23-07-2016 22:10:00 19.7 C 95 % 18.88 C
1996 23-07-2016 22:15:00 19.7 C 96 % 19.04 C
1997 23-07-2016 22:20:00 19.7 C 96 % 19.04 C
1998 23-07-2016 22:25:00 19.6 C 96 % 18.94 C
1999 23-07-2016 22:30:00 19.6 C 96 % 18.94 C
2000 23-07-2016 22:35:00 19.6 C 96 % 18.94 C
Sensor: Nr:Datum:Temp:Feuchte:Taupunkt:
Aussen-T/F 2001 23-07-2016 22:40:00 19.6 C 96 % 18.94 C
2002 23-07-2016 22:45:00 19.5 C 96 % 18.84 C
2003 23-07-2016 22:50:00 19.5 C 96 % 18.84 C
2004 23-07-2016 22:55:00 19.4 C 96 % 18.75 C
2005 23-07-2016 23:00:00 19.4 C 96 % 18.75 C
2006 23-07-2016 23:05:00 19.4 C 96 % 18.75 C
2007 23-07-2016 23:10:00 19.4 C 96 % 18.75 C
2008 23-07-2016 23:15:00 19.4 C 96 % 18.75 C
2009 23-07-2016 23:20:00 19.4 C 96 % 18.75 C
2010 23-07-2016 23:25:00 19.4 C 96 % 18.75 C
2011 23-07-2016 23:30:00 19.4 C 96 % 18.75 C
2012 23-07-2016 23:35:00 19.4 C 96 % 18.75 C
2013 23-07-2016 23:40:00 19.3 C 96 % 18.65 C
2014 23-07-2016 23:45:00 19.3 C 96 % 18.65 C
2015 23-07-2016 23:50:00 19.3 C 96 % 18.65 C
2016 23-07-2016 23:55:00 19.3 C 96 % 18.65 C
2017 24-07-2016 00:00:00 19.3 C 96 % 18.65 C
2018 24-07-2016 00:05:00 19.3 C 96 % 18.65 C
2019 24-07-2016 00:10:00 19.3 C 96 % 18.65 C
2020 24-07-2016 00:15:00 19.3 C 96 % 18.65 C
2021 24-07-2016 00:20:00 19.3 C 96 % 18.65 C
2022 24-07-2016 00:25:00 19.2 C 96 % 18.55 C
2023 24-07-2016 00:30:00 19.2 C 96 % 18.55 C
2024 24-07-2016 00:35:00 19.1 C 96 % 18.45 C
2025 24-07-2016 00:40:00 19.1 C 96 % 18.45 C
Sensor: Nr:Datum:Temp:Feuchte:Taupunkt:
Aussen-T/F 2026 24-07-2016 00:45:00 19.1 C 96 % 18.45 C
2027 24-07-2016 00:50:00 19.1 C 96 % 18.45 C
2028 24-07-2016 00:55:00 19.1 C 96 % 18.45 C
2029 24-07-2016 01:00:00 19.1 C 96 % 18.45 C
2030 24-07-2016 01:05:00 19.1 C 96 % 18.45 C
2031 24-07-2016 01:10:00 19.1 C 96 % 18.45 C
2032 24-07-2016 01:15:00 19.1 C 96 % 18.45 C
2033 24-07-2016 01:20:00 19.1 C 96 % 18.45 C
2034 24-07-2016 01:25:00 19.1 C 96 % 18.45 C
2035 24-07-2016 01:30:00 19.1 C 96 % 18.45 C
2036 24-07-2016 01:35:00 19.2 C 97 % 18.71 C
2037 24-07-2016 01:40:00 19.2 C 97 % 18.71 C
2038 24-07-2016 01:45:00 19.2 C 97 % 18.71 C
2039 24-07-2016 01:50:00 19.2 C 97 % 18.71 C
2040 24-07-2016 01:55:00 19.1 C 97 % 18.61 C
2041 24-07-2016 02:00:00 19.1 C 97 % 18.61 C
2042 24-07-2016 02:05:00 19.1 C 97 % 18.61 C
2043 24-07-2016 02:10:00 19.1 C 97 % 18.61 C
2044 24-07-2016 02:15:00 19.1 C 97 % 18.61 C
2045 24-07-2016 02:20:00 19.1 C 96 % 18.45 C
2046 24-07-2016 02:25:00 19.1 C 96 % 18.45 C
2047 24-07-2016 02:30:00 19.1 C 96 % 18.45 C
2048 24-07-2016 02:35:00 19.1 C 96 % 18.45 C
2049 24-07-2016 02:40:00 19.1 C 97 % 18.61 C
2050 24-07-2016 02:45:00 19.1 C 97 % 18.61 C
Sensor: Nr:Datum:Temp:Feuchte:Taupunkt:
Aussen-T/F 2051 24-07-2016 02:50:00 19.1 C 97 % 18.61 C
2052 24-07-2016 02:55:00 19.1 C 97 % 18.61 C
2053 24-07-2016 03:00:00 19.1 C 97 % 18.61 C
2054 24-07-2016 03:05:00 19.1 C 97 % 18.61 C
2055 24-07-2016 03:10:00 19.1 C 97 % 18.61 C
2056 24-07-2016 03:15:00 19.1 C 97 % 18.61 C
2057 24-07-2016 03:20:00 19.1 C 97 % 18.61 C
2058 24-07-2016 03:25:00 19.1 C 97 % 18.61 C
2059 24-07-2016 03:30:00 19.1 C 97 % 18.61 C
2060 24-07-2016 03:35:00 19.1 C 97 % 18.61 C
2061 24-07-2016 03:40:00 19.1 C 97 % 18.61 C
2062 24-07-2016 03:45:00 19.1 C 97 % 18.61 C
2063 24-07-2016 03:50:00 19.2 C 97 % 18.71 C
2064 24-07-2016 03:55:00 19.1 C 97 % 18.61 C
2065 24-07-2016 04:00:00 19.1 C 97 % 18.61 C
2066 24-07-2016 04:05:00 19.1 C 97 % 18.61 C
2067 24-07-2016 04:10:00 19.1 C 97 % 18.61 C
2068 24-07-2016 04:15:00 19.1 C 97 % 18.61 C
2069 24-07-2016 04:20:00 19.1 C 97 % 18.61 C
2070 24-07-2016 04:25:00 19.1 C 97 % 18.61 C
2071 24-07-2016 04:30:00 19.1 C 97 % 18.61 C
2072 24-07-2016 04:35:00 19.1 C 97 % 18.61 C
2073 24-07-2016 04:40:00 19 C 97 % 18.51 C
2074 24-07-2016 04:45:00 18.9 C 97 % 18.41 C
2075 24-07-2016 04:50:00 18.9 C 97 % 18.41 C
Sensor: Nr:Datum:Temp:Feuchte:Taupunkt:
Aussen-T/F 2076 24-07-2016 04:55:00 18.8 C 97 % 18.31 C
2077 24-07-2016 05:00:00 18.8 C 97 % 18.31 C
2078 24-07-2016 05:05:00 18.7 C 96 % 18.05 C
2079 24-07-2016 05:10:00 18.7 C 96 % 18.05 C
2080 24-07-2016 05:15:00 18.6 C 97 % 18.11 C
2081 24-07-2016 05:20:00 18.6 C 97 % 18.11 C
2082 24-07-2016 05:25:00 18.6 C 97 % 18.11 C
2083 24-07-2016 05:30:00 18.5 C 97 % 18.01 C
2084 24-07-2016 05:35:00 18.5 C 97 % 18.01 C
2085 24-07-2016 05:40:00 18.5 C 97 % 18.01 C
2086 24-07-2016 05:45:00 18.6 C 97 % 18.11 C
2087 24-07-2016 05:50:00 18.6 C 97 % 18.11 C
2088 24-07-2016 05:55:00 18.6 C 97 % 18.11 C
2089 24-07-2016 06:00:00 18.6 C 97 % 18.11 C
2090 24-07-2016 06:05:00 18.6 C 97 % 18.11 C
2091 24-07-2016 06:10:00 18.6 C 97 % 18.11 C
2092 24-07-2016 06:15:00 18.6 C 97 % 18.11 C
2093 24-07-2016 06:20:00 18.6 C 97 % 18.11 C
2094 24-07-2016 06:25:00 18.6 C 97 % 18.11 C
2095 24-07-2016 06:30:00 18.7 C 97 % 18.21 C
2096 24-07-2016 06:35:00 18.7 C 97 % 18.21 C
2097 24-07-2016 06:40:00 18.7 C 97 % 18.21 C
2098 24-07-2016 06:45:00 18.7 C 97 % 18.21 C
2099 24-07-2016 06:50:00 18.8 C 97 % 18.31 C
2100 24-07-2016 06:55:00 18.8 C 97 % 18.31 C
Sensor: Nr:Datum:Temp:Feuchte:Taupunkt:
Aussen-T/F 2101 24-07-2016 07:00:00 18.8 C 97 % 18.31 C
2102 24-07-2016 07:05:00 18.8 C 97 % 18.31 C
2103 24-07-2016 07:10:00 18.9 C 97 % 18.41 C
2104 24-07-2016 07:15:00 18.9 C 97 % 18.41 C
2105 24-07-2016 07:20:00 18.9 C 97 % 18.41 C
2106 24-07-2016 07:25:00 19 C 97 % 18.51 C
2107 24-07-2016 07:30:00 19 C 97 % 18.51 C
2108 24-07-2016 07:35:00 19.1 C 97 % 18.61 C
2109 24-07-2016 07:40:00 19.1 C 97 % 18.61 C
2110 24-07-2016 07:45:00 19.2 C 97 % 18.71 C
2111 24-07-2016 07:50:00 19.2 C 97 % 18.71 C
2112 24-07-2016 07:55:00 19.3 C 97 % 18.81 C
2113 24-07-2016 08:00:00 19.3 C 97 % 18.81 C
2114 24-07-2016 08:05:00 19.3 C 97 % 18.81 C
2115 24-07-2016 08:10:00 19.3 C 97 % 18.81 C
2116 24-07-2016 08:15:00 19.3 C 97 % 18.81 C
2117 24-07-2016 08:20:00 19.4 C 97 % 18.91 C
2118 24-07-2016 08:25:00 19.4 C 97 % 18.91 C
2119 24-07-2016 08:30:00 19.4 C 97 % 18.91 C
2120 24-07-2016 08:35:00 19.4 C 97 % 18.91 C
2121 24-07-2016 08:40:00 19.4 C 97 % 18.91 C
2122 24-07-2016 08:45:00 19.6 C 97 % 19.11 C
2123 24-07-2016 08:50:00 19.6 C 97 % 19.11 C
2124 24-07-2016 08:55:00 19.6 C 97 % 19.11 C
2125 24-07-2016 09:00:00 19.6 C 97 % 19.11 C
Sensor: Nr:Datum:Temp:Feuchte:Taupunkt:
Aussen-T/F 2126 24-07-2016 09:05:00 19.7 C 97 % 19.21 C
2127 24-07-2016 09:10:00 19.7 C 97 % 19.21 C
2128 24-07-2016 09:15:00 19.7 C 97 % 19.21 C
2129 24-07-2016 09:20:00 19.7 C 97 % 19.21 C
2130 24-07-2016 09:25:00 19.8 C 97 % 19.31 C
2131 24-07-2016 09:30:00 19.7 C 97 % 19.21 C
2132 24-07-2016 09:35:00 19.7 C 97 % 19.21 C
2133 24-07-2016 09:40:00 19.7 C 97 % 19.21 C
2134 24-07-2016 09:45:00 19.7 C 97 % 19.21 C
2135 24-07-2016 09:50:00 19.7 C 96 % 19.04 C
2136 24-07-2016 09:55:00 19.8 C 96 % 19.14 C
2137 24-07-2016 10:00:00 19.9 C 96 % 19.24 C
2138 24-07-2016 10:05:00 19.9 C 96 % 19.24 C
2139 24-07-2016 10:10:00 20.1 C 96 % 19.44 C
2140 24-07-2016 10:15:00 20.1 C 95 % 19.27 C
2141 24-07-2016 10:20:00 20.2 C 94 % 19.2 C
2142 24-07-2016 10:25:00 20.3 C 94 % 19.3 C
2143 24-07-2016 10:30:00 20.4 C 94 % 19.4 C
2144 24-07-2016 10:35:00 20.4 C 93 % 19.23 C
2145 24-07-2016 10:40:00 20.6 C 93 % 19.43 C
2146 24-07-2016 10:45:00 20.7 C 92 % 19.35 C
2147 24-07-2016 10:50:00 20.7 C 92 % 19.35 C
2148 24-07-2016 10:55:00 20.8 C 91 % 19.28 C
2149 24-07-2016 11:00:00 20.8 C 91 % 19.28 C
2150 24-07-2016 11:05:00 20.9 C 91 % 19.37 C
Sensor: Nr:Datum:Temp:Feuchte:Taupunkt:
Aussen-T/F 2151 24-07-2016 11:10:00 21.1 C 90 % 19.39 C
2152 24-07-2016 11:15:00 21.3 C 89 % 19.41 C
2153 24-07-2016 11:20:00 21.4 C 90 % 19.69 C
2154 24-07-2016 11:25:00 21.4 C 88 % 19.33 C
2155 24-07-2016 11:30:00 21.7 C 91 % 20.17 C
2156 24-07-2016 11:35:00 21.8 C 92 % 20.44 C
2157 24-07-2016 11:40:00 21.8 C 89 % 19.9 C
2158 24-07-2016 11:45:00 21.9 C 90 % 20.18 C
2159 24-07-2016 11:50:00 22 C 88 % 19.92 C
2160 24-07-2016 11:55:00 22.1 C 87 % 19.83 C
2161 24-07-2016 12:00:00 22.3 C 85 % 19.65 C
2162 24-07-2016 12:05:00 22.5 C 87 % 20.23 C
2163 24-07-2016 12:10:00 22.7 C 85 % 20.05 C
2164 24-07-2016 12:15:00 22.9 C 82 % 19.66 C
2165 24-07-2016 12:20:00 23.2 C 82 % 19.95 C
2166 24-07-2016 12:25:00 23.3 C 81 % 19.85 C
2167 24-07-2016 12:30:00 23.3 C 80 % 19.65 C
2168 24-07-2016 12:35:00 23.3 C 79 % 19.45 C
2169 24-07-2016 12:40:00 23.3 C 79 % 19.45 C
2170 24-07-2016 12:45:00 23.3 C 79 % 19.45 C
2171 24-07-2016 12:50:00 23.3 C 77 % 19.04 C
2172 24-07-2016 12:55:00 23.4 C 83 % 20.35 C
2173 24-07-2016 13:00:00 23.5 C 80 % 19.85 C
2174 24-07-2016 13:05:00 23.6 C 80 % 19.95 C
2175 24-07-2016 13:10:00 23.7 C 81 % 20.24 C
Sensor: Nr:Datum:Temp:Feuchte:Taupunkt:
Aussen-T/F 2176 24-07-2016 13:15:00 23.7 C 81 % 20.24 C
2177 24-07-2016 13:20:00 23.6 C 81 % 20.15 C
2178 24-07-2016 13:25:00 23.7 C 81 % 20.24 C
2179 24-07-2016 13:30:00 23.7 C 82 % 20.44 C
2180 24-07-2016 13:35:00 23.8 C 83 % 20.74 C
2181 24-07-2016 13:40:00 23.9 C 79 % 20.03 C
2182 24-07-2016 13:45:00 23.9 C 76 % 19.41 C
2183 24-07-2016 13:50:00 24 C 80 % 20.33 C
2184 24-07-2016 13:55:00 24.1 C 77 % 19.81 C
2185 24-07-2016 14:00:00 24.2 C 76 % 19.7 C
2186 24-07-2016 14:05:00 24.3 C 76 % 19.8 C
2187 24-07-2016 14:10:00 24.3 C 76 % 19.8 C
2188 24-07-2016 14:15:00 24.5 C 77 % 20.2 C
2189 24-07-2016 14:20:00 24.6 C 74 % 19.66 C
2190 24-07-2016 14:25:00 24.6 C 73 % 19.44 C
2191 24-07-2016 14:30:00 24.7 C 75 % 19.97 C
2192 24-07-2016 14:35:00 24.7 C 73 % 19.53 C
2193 24-07-2016 14:40:00 24.7 C 73 % 19.53 C
2194 24-07-2016 14:45:00 24.7 C 74 % 19.75 C
2195 24-07-2016 14:50:00 24.7 C 82 % 21.42 C
2196 24-07-2016 14:55:00 24.7 C 76 % 20.18 C
2197 24-07-2016 15:00:00 24.8 C 74 % 19.85 C
2198 24-07-2016 15:05:00 25.2 C 75 % 20.45 C
2199 24-07-2016 15:10:00 25.6 C 70 % 19.72 C
2200 24-07-2016 15:15:00 25.8 C 70 % 19.91 C
Sensor: Nr:Datum:Temp:Feuchte:Taupunkt:
Aussen-T/F 2201 24-07-2016 15:20:00 25.9 C 69 % 19.77 C
2202 24-07-2016 15:25:00 25.9 C 70 % 20.01 C
2203 24-07-2016 15:30:00 26.1 C 67 % 19.49 C
2204 24-07-2016 15:35:00 26.3 C 66 % 19.44 C
2205 24-07-2016 15:40:00 26.6 C 66 % 19.72 C
2206 24-07-2016 15:45:00 27 C 63 % 19.35 C
2207 24-07-2016 15:50:00 27.3 C 63 % 19.63 C
2208 24-07-2016 15:55:00 27.4 C 59 % 18.68 C
2209 24-07-2016 16:00:00 27.7 C 63 % 20.01 C
2210 24-07-2016 16:05:00 28 C 59 % 19.24 C
2211 24-07-2016 16:10:00 28.1 C 64 % 20.64 C
2212 24-07-2016 16:15:00 28.2 C 70 % 22.2 C
2213 24-07-2016 16:20:00 28 C 60 % 19.51 C
2214 24-07-2016 16:25:00 27.8 C 59 % 19.05 C
2215 24-07-2016 16:30:00 28.1 C 67 % 21.39 C
2216 24-07-2016 16:35:00 28.1 C 64 % 20.64 C
2217 24-07-2016 16:40:00 27.9 C 62 % 19.94 C
2218 24-07-2016 16:45:00 27.6 C 63 % 19.92 C
2219 24-07-2016 16:50:00 27.5 C 60 % 19.04 C
2220 24-07-2016 16:55:00 27.6 C 71 % 21.86 C
2221 24-07-2016 17:00:00 27.5 C 65 % 20.33 C
2222 24-07-2016 17:05:00 27.8 C 74 % 22.73 C
2223 24-07-2016 17:10:00 27.9 C 61 % 19.68 C
2224 24-07-2016 17:15:00 28.2 C 61 % 19.96 C
2225 24-07-2016 17:20:00 28.3 C 60 % 19.79 C
Sensor: Nr:Datum:Temp:Feuchte:Taupunkt:
Aussen-T/F 2226 24-07-2016 17:25:00 28.4 C 59 % 19.61 C
2227 24-07-2016 17:30:00 28.5 C 57 % 19.15 C
2228 24-07-2016 17:35:00 28.6 C 58 % 19.52 C
2229 24-07-2016 17:40:00 28.7 C 63 % 20.95 C
2230 24-07-2016 17:45:00 28.7 C 57 % 19.34 C
2231 24-07-2016 17:50:00 28.8 C 59 % 19.99 C
2232 24-07-2016 17:55:00 29.1 C 56 % 19.42 C
2233 24-07-2016 18:00:00 29.2 C 57 % 19.8 C
2234 24-07-2016 18:05:00 29.1 C 57 % 19.71 C
2235 24-07-2016 18:10:00 28.9 C 56 % 19.24 C
2236 24-07-2016 18:15:00 28.9 C 58 % 19.8 C
2237 24-07-2016 18:20:00 28.7 C 59 % 19.89 C
2238 24-07-2016 18:25:00 28.5 C 60 % 19.98 C
2239 24-07-2016 18:30:00 28.2 C 62 % 20.22 C
2240 24-07-2016 18:35:00 28 C 62 % 20.04 C
2241 24-07-2016 18:40:00 27.8 C 60 % 19.32 C
2242 24-07-2016 18:45:00 27.8 C 69 % 21.59 C
2243 24-07-2016 18:50:00 27.6 C 71 % 21.86 C
2244 24-07-2016 18:55:00 27.5 C 67 % 20.82 C
2245 24-07-2016 19:00:00 27.7 C 64 % 20.27 C
2246 24-07-2016 19:05:00 28 C 67 % 21.3 C
2247 24-07-2016 19:10:00 28 C 62 % 20.04 C
2248 24-07-2016 19:15:00 28.1 C 63 % 20.39 C
2249 24-07-2016 19:20:00 28.1 C 63 % 20.39 C
2250 24-07-2016 19:25:00 28.1 C 68 % 21.63 C
Sensor: Nr:Datum:Temp:Feuchte:Taupunkt:
Aussen-T/F 2251 24-07-2016 19:30:00 27.9 C 63 % 20.2 C
2252 24-07-2016 19:35:00 27.7 C 69 % 21.49 C
2253 24-07-2016 19:40:00 27.6 C 72 % 22.09 C
2254 24-07-2016 19:45:00 27.3 C 73 % 22.03 C
2255 24-07-2016 19:50:00 27.1 C 73 % 21.84 C
2256 24-07-2016 19:55:00 26.7 C 74 % 21.68 C
2257 24-07-2016 20:00:00 26.4 C 75 % 21.61 C
2258 24-07-2016 20:05:00 26.1 C 75 % 21.32 C
2259 24-07-2016 20:10:00 25.7 C 75 % 20.93 C
2260 24-07-2016 20:15:00 25.4 C 77 % 21.07 C
2261 24-07-2016 20:20:00 25.1 C 77 % 20.78 C
2262 24-07-2016 20:25:00 24.8 C 78 % 20.7 C
2263 24-07-2016 20:30:00 24.6 C 79 % 20.71 C
2264 24-07-2016 20:35:00 24.3 C 80 % 20.63 C
2265 24-07-2016 20:40:00 24 C 80 % 20.33 C
2266 24-07-2016 20:45:00 23.7 C 81 % 20.24 C
2267 24-07-2016 20:50:00 23.4 C 81 % 19.95 C
2268 24-07-2016 20:55:00 23.2 C 82 % 19.95 C
2269 24-07-2016 21:00:00 22.9 C 82 % 19.66 C
2270 24-07-2016 21:05:00 22.8 C 83 % 19.76 C
2271 24-07-2016 21:10:00 22.6 C 83 % 19.56 C
2272 24-07-2016 21:15:00 22.3 C 84 % 19.46 C
2273 24-07-2016 21:20:00 22.1 C 84 % 19.27 C
2274 24-07-2016 21:25:00 21.9 C 84 % 19.07 C
2275 24-07-2016 21:30:00 21.8 C 85 % 19.16 C
Sensor: Nr:Datum:Temp:Feuchte:Taupunkt:
Aussen-T/F 2276 24-07-2016 21:35:00 21.6 C 85 % 18.97 C
2277 24-07-2016 21:40:00 21.5 C 85 % 18.87 C
2278 24-07-2016 21:45:00 21.4 C 85 % 18.77 C
2279 24-07-2016 21:50:00 21.3 C 85 % 18.67 C
2280 24-07-2016 21:55:00 21.2 C 86 % 18.76 C
2281 24-07-2016 22:00:00 21.2 C 86 % 18.76 C
2282 24-07-2016 22:05:00 21.1 C 87 % 18.85 C
2283 24-07-2016 22:10:00 21 C 87 % 18.75 C
2284 24-07-2016 22:15:00 20.9 C 87 % 18.65 C
2285 24-07-2016 22:20:00 20.8 C 87 % 18.56 C
2286 24-07-2016 22:25:00 20.7 C 88 % 18.64 C
2287 24-07-2016 22:30:00 20.7 C 88 % 18.64 C
2288 24-07-2016 22:35:00 20.6 C 89 % 18.72 C
2289 24-07-2016 22:40:00 20.4 C 89 % 18.53 C
2290 24-07-2016 22:45:00 20.4 C 89 % 18.53 C
2291 24-07-2016 22:50:00 20.3 C 90 % 18.61 C
2292 24-07-2016 22:55:00 20.3 C 90 % 18.61 C
2293 24-07-2016 23:00:00 20.3 C 90 % 18.61 C
2294 24-07-2016 23:05:00 20.3 C 91 % 18.78 C
2295 24-07-2016 23:10:00 20.3 C 91 % 18.78 C
2296 24-07-2016 23:15:00 20.3 C 91 % 18.78 C
2297 24-07-2016 23:20:00 20.3 C 91 % 18.78 C
2298 24-07-2016 23:25:00 20.3 C 91 % 18.78 C
2299 24-07-2016 23:30:00 20.2 C 91 % 18.68 C
2300 24-07-2016 23:35:00 20.2 C 91 % 18.68 C
Sensor: Nr:Datum:Temp:Feuchte:Taupunkt:
Aussen-T/F 2301 24-07-2016 23:40:00 20.1 C 91 % 18.58 C
2302 24-07-2016 23:45:00 20.1 C 91 % 18.58 C
2303 24-07-2016 23:50:00 19.9 C 91 % 18.39 C
2304 24-07-2016 23:55:00 19.9 C 91 % 18.39 C
2305 25-07-2016 00:00:00 19.8 C 91 % 18.29 C
2306 25-07-2016 00:05:00 19.8 C 91 % 18.29 C
2307 25-07-2016 00:10:00 19.7 C 92 % 18.36 C
2308 25-07-2016 00:15:00 19.7 C 92 % 18.36 C
2309 25-07-2016 00:20:00 19.8 C 92 % 18.46 C
2310 25-07-2016 00:25:00 19.8 C 92 % 18.46 C
2311 25-07-2016 00:30:00 19.8 C 92 % 18.46 C
2312 25-07-2016 00:35:00 19.8 C 92 % 18.46 C
2313 25-07-2016 00:40:00 19.8 C 92 % 18.46 C
2314 25-07-2016 00:45:00 19.8 C 92 % 18.46 C
2315 25-07-2016 00:50:00 19.8 C 92 % 18.46 C
2316 25-07-2016 00:55:00 19.8 C 92 % 18.46 C
2317 25-07-2016 01:00:00 19.8 C 92 % 18.46 C
2318 25-07-2016 01:05:00 19.8 C 92 % 18.46 C
2319 25-07-2016 01:10:00 19.8 C 92 % 18.46 C
2320 25-07-2016 01:15:00 19.8 C 92 % 18.46 C
2321 25-07-2016 01:20:00 19.8 C 92 % 18.46 C
2322 25-07-2016 01:25:00 19.8 C 92 % 18.46 C
2323 25-07-2016 01:30:00 19.7 C 92 % 18.36 C
2324 25-07-2016 01:35:00 19.7 C 92 % 18.36 C
2325 25-07-2016 01:40:00 19.6 C 92 % 18.26 C
Sensor: Nr:Datum:Temp:Feuchte:Taupunkt:
Aussen-T/F 2326 25-07-2016 01:45:00 19.5 C 92 % 18.17 C
2327 25-07-2016 01:50:00 19.3 C 91 % 17.79 C
2328 25-07-2016 01:55:00 19.3 C 92 % 17.97 C
2329 25-07-2016 02:00:00 19.2 C 92 % 17.87 C
2330 25-07-2016 02:05:00 19.2 C 92 % 17.87 C
2331 25-07-2016 02:10:00 19.2 C 92 % 17.87 C
2332 25-07-2016 02:15:00 19.1 C 92 % 17.77 C
2333 25-07-2016 02:20:00 18.9 C 92 % 17.57 C
2334 25-07-2016 02:25:00 18.8 C 92 % 17.47 C
2335 25-07-2016 02:30:00 18.7 C 92 % 17.37 C
2336 25-07-2016 02:35:00 18.6 C 92 % 17.27 C
2337 25-07-2016 02:40:00 18.6 C 93 % 17.45 C
2338 25-07-2016 02:45:00 18.5 C 93 % 17.35 C
2339 25-07-2016 02:50:00 18.5 C 93 % 17.35 C
2340 25-07-2016 02:55:00 18.5 C 94 % 17.52 C
2341 25-07-2016 03:00:00 18.6 C 94 % 17.62 C
2342 25-07-2016 03:05:00 18.6 C 94 % 17.62 C
2343 25-07-2016 03:10:00 18.6 C 94 % 17.62 C
2344 25-07-2016 03:15:00 18.4 C 94 % 17.42 C
2345 25-07-2016 03:20:00 18.4 C 93 % 17.25 C
2346 25-07-2016 03:25:00 18.3 C 94 % 17.32 C
2347 25-07-2016 03:30:00 18.3 C 94 % 17.32 C
2348 25-07-2016 03:35:00 18.2 C 94 % 17.22 C
2349 25-07-2016 03:40:00 18.2 C 94 % 17.22 C
2350 25-07-2016 03:45:00 18.2 C 94 % 17.22 C
Sensor: Nr:Datum:Temp:Feuchte:Taupunkt:
Aussen-T/F 2351 25-07-2016 03:50:00 18.1 C 94 % 17.12 C
2352 25-07-2016 03:55:00 18.1 C 94 % 17.12 C
2353 25-07-2016 04:00:00 18.1 C 94 % 17.12 C
2354 25-07-2016 04:05:00 18.1 C 94 % 17.12 C
2355 25-07-2016 04:10:00 18 C 94 % 17.02 C
2356 25-07-2016 04:15:00 17.9 C 94 % 16.92 C
2357 25-07-2016 04:20:00 17.9 C 94 % 16.92 C
2358 25-07-2016 04:25:00 17.8 C 94 % 16.82 C
2359 25-07-2016 04:30:00 17.8 C 94 % 16.82 C
2360 25-07-2016 04:35:00 17.8 C 95 % 16.99 C
2361 25-07-2016 04:40:00 17.8 C 95 % 16.99 C
2362 25-07-2016 04:45:00 17.8 C 95 % 16.99 C
2363 25-07-2016 04:50:00 17.8 C 95 % 16.99 C
2364 25-07-2016 04:55:00 17.8 C 95 % 16.99 C
2365 25-07-2016 05:00:00 17.7 C 95 % 16.89 C
2366 25-07-2016 05:05:00 17.7 C 95 % 16.89 C
2367 25-07-2016 05:10:00 17.6 C 95 % 16.79 C
2368 25-07-2016 05:15:00 17.6 C 95 % 16.79 C
2369 25-07-2016 05:20:00 17.5 C 95 % 16.69 C
2370 25-07-2016 05:25:00 17.5 C 95 % 16.69 C
2371 25-07-2016 05:30:00 17.5 C 95 % 16.69 C
2372 25-07-2016 05:35:00 17.6 C 95 % 16.79 C
2373 25-07-2016 05:40:00 17.6 C 95 % 16.79 C
2374 25-07-2016 05:45:00 17.6 C 95 % 16.79 C
2375 25-07-2016 05:50:00 17.5 C 95 % 16.69 C
Sensor: Nr:Datum:Temp:Feuchte:Taupunkt:
Aussen-T/F 2376 25-07-2016 05:55:00 17.5 C 95 % 16.69 C
2377 25-07-2016 06:00:00 17.4 C 95 % 16.59 C
2378 25-07-2016 06:05:00 17.3 C 95 % 16.49 C
2379 25-07-2016 06:10:00 17.3 C 95 % 16.49 C
2380 25-07-2016 06:15:00 17.2 C 95 % 16.39 C
2381 25-07-2016 06:20:00 17.3 C 95 % 16.49 C
2382 25-07-2016 06:25:00 17.3 C 95 % 16.49 C
2383 25-07-2016 06:30:00 17.3 C 95 % 16.49 C
2384 25-07-2016 06:35:00 17.4 C 95 % 16.59 C
2385 25-07-2016 06:40:00 17.4 C 95 % 16.59 C
2386 25-07-2016 06:45:00 17.5 C 96 % 16.85 C
2387 25-07-2016 06:50:00 17.6 C 96 % 16.95 C
2388 25-07-2016 06:55:00 17.7 C 96 % 17.05 C
2389 25-07-2016 07:00:00 17.7 C 96 % 17.05 C
2390 25-07-2016 07:05:00 17.8 C 96 % 17.15 C
2391 25-07-2016 07:10:00 17.9 C 96 % 17.25 C
2392 25-07-2016 07:15:00 17.9 C 96 % 17.25 C
2393 25-07-2016 07:20:00 18.1 C 96 % 17.45 C
2394 25-07-2016 07:25:00 18.2 C 96 % 17.55 C
2395 25-07-2016 07:30:00 18.3 C 96 % 17.65 C
2396 25-07-2016 07:35:00 18.3 C 96 % 17.65 C
2397 25-07-2016 07:40:00 18.4 C 96 % 17.75 C
2398 25-07-2016 07:45:00 18.4 C 95 % 17.58 C
2399 25-07-2016 07:50:00 18.6 C 95 % 17.78 C
2400 25-07-2016 07:55:00 18.6 C 95 % 17.78 C
Sensor: Nr:Datum:Temp:Feuchte:Taupunkt:
Aussen-T/F 2401 25-07-2016 08:00:00 18.7 C 95 % 17.88 C
2402 25-07-2016 08:05:00 18.8 C 95 % 17.98 C
2403 25-07-2016 08:10:00 18.9 C 95 % 18.08 C
2404 25-07-2016 08:15:00 19 C 95 % 18.18 C
2405 25-07-2016 08:20:00 19.1 C 95 % 18.28 C
2406 25-07-2016 08:25:00 19.1 C 94 % 18.11 C
2407 25-07-2016 08:30:00 19.1 C 94 % 18.11 C
2408 25-07-2016 08:35:00 19.2 C 94 % 18.21 C
2409 25-07-2016 08:40:00 19.3 C 94 % 18.31 C
2410 25-07-2016 08:45:00 19.4 C 94 % 18.41 C
2411 25-07-2016 08:50:00 19.6 C 94 % 18.61 C
2412 25-07-2016 08:55:00 19.7 C 94 % 18.71 C
2413 25-07-2016 09:00:00 19.7 C 93 % 18.54 C
2414 25-07-2016 09:05:00 19.8 C 93 % 18.63 C
2415 25-07-2016 09:10:00 20 C 93 % 18.83 C
2416 25-07-2016 09:15:00 20.1 C 93 % 18.93 C
2417 25-07-2016 09:20:00 20.1 C 92 % 18.76 C
2418 25-07-2016 09:25:00 20.2 C 91 % 18.68 C
2419 25-07-2016 09:30:00 20.2 C 90 % 18.51 C
2420 25-07-2016 09:35:00 20.3 C 91 % 18.78 C
2421 25-07-2016 09:40:00 20.3 C 88 % 18.25 C
2422 25-07-2016 09:45:00 20.5 C 90 % 18.8 C
2423 25-07-2016 09:50:00 20.6 C 86 % 18.18 C
2424 25-07-2016 09:55:00 20.7 C 87 % 18.46 C
2425 25-07-2016 10:00:00 20.8 C 85 % 18.18 C
Sensor: Nr:Datum:Temp:Feuchte:Taupunkt:
Aussen-T/F 2426 25-07-2016 10:05:00 21 C 86 % 18.57 C
2427 25-07-2016 10:10:00 21.1 C 86 % 18.67 C
2428 25-07-2016 10:15:00 21.2 C 84 % 18.39 C
2429 25-07-2016 10:20:00 21.3 C 83 % 18.29 C
2430 25-07-2016 10:25:00 21.5 C 81 % 18.1 C
2431 25-07-2016 10:30:00 21.8 C 84 % 18.97 C
2432 25-07-2016 10:35:00 22 C 79 % 18.19 C
2433 25-07-2016 10:40:00 22.2 C 77 % 17.98 C
2434 25-07-2016 10:45:00 22.4 C 76 % 17.96 C
2435 25-07-2016 10:50:00 22.6 C 76 % 18.15 C
2436 25-07-2016 10:55:00 22.7 C 80 % 19.07 C
2437 25-07-2016 11:00:00 22.6 C 73 % 17.51 C
2438 25-07-2016 11:05:00 22.7 C 76 % 18.25 C
2439 25-07-2016 11:10:00 22.7 C 73 % 17.61 C
2440 25-07-2016 11:15:00 22.8 C 72 % 17.49 C
2441 25-07-2016 11:20:00 23 C 73 % 17.9 C
2442 25-07-2016 11:25:00 23.1 C 77 % 18.85 C
2443 25-07-2016 11:30:00 23.2 C 71 % 17.65 C
2444 25-07-2016 11:35:00 23.2 C 74 % 18.31 C
2445 25-07-2016 11:40:00 23.4 C 77 % 19.14 C
2446 25-07-2016 11:45:00 23.4 C 69 % 17.39 C
2447 25-07-2016 11:50:00 23.6 C 69 % 17.58 C
2448 25-07-2016 11:55:00 23.7 C 69 % 17.67 C
2449 25-07-2016 12:00:00 23.7 C 69 % 17.67 C
2450 25-07-2016 12:05:00 23.8 C 69 % 17.77 C
Sensor: Nr:Datum:Temp:Feuchte:Taupunkt:
Aussen-T/F 2451 25-07-2016 12:10:00 23.9 C 69 % 17.87 C
2452 25-07-2016 12:15:00 24.1 C 69 % 18.06 C
2453 25-07-2016 12:20:00 24.2 C 68 % 17.92 C
2454 25-07-2016 12:25:00 24.2 C 67 % 17.68 C
2455 25-07-2016 12:30:00 24.2 C 69 % 18.15 C
2456 25-07-2016 12:35:00 24.2 C 72 % 18.83 C
2457 25-07-2016 12:40:00 24.2 C 70 % 18.38 C
2458 25-07-2016 12:45:00 24.2 C 72 % 18.83 C
2459 25-07-2016 12:50:00 24.2 C 74 % 19.27 C
2460 25-07-2016 12:55:00 24.1 C 74 % 19.17 C
2461 25-07-2016 13:00:00 24.1 C 73 % 18.96 C
2462 25-07-2016 13:05:00 24.1 C 72 % 18.73 C
2463 25-07-2016 13:10:00 24.1 C 75 % 19.39 C
2464 25-07-2016 13:15:00 24.1 C 74 % 19.17 C
2465 25-07-2016 13:20:00 24.2 C 73 % 19.05 C
2466 25-07-2016 13:25:00 24.5 C 71 % 18.89 C
2467 25-07-2016 13:30:00 24.8 C 69 % 18.72 C
2468 25-07-2016 13:35:00 24.9 C 70 % 19.05 C
2469 25-07-2016 13:40:00 24.8 C 75 % 20.06 C
2470 25-07-2016 13:45:00 24.7 C 76 % 20.18 C
2471 25-07-2016 13:50:00 24.4 C 73 % 19.24 C
2472 25-07-2016 13:55:00 24.3 C 77 % 20.01 C
2473 25-07-2016 14:00:00 24.3 C 78 % 20.22 C
2474 25-07-2016 14:05:00 24.3 C 71 % 18.7 C
2475 25-07-2016 14:10:00 24.6 C 70 % 18.76 C
Sensor: Nr:Datum:Temp:Feuchte:Taupunkt:
Aussen-T/F 2476 25-07-2016 14:15:00 24.8 C 69 % 18.72 C
2477 25-07-2016 14:20:00 25.1 C 67 % 18.54 C
2478 25-07-2016 14:25:00 25.3 C 67 % 18.73 C
2479 25-07-2016 14:30:00 25.4 C 68 % 19.06 C
2480 25-07-2016 14:35:00 25.5 C 69 % 19.39 C
2481 25-07-2016 14:40:00 25.5 C 68 % 19.16 C
2482 25-07-2016 14:45:00 25.6 C 65 % 18.53 C
2483 25-07-2016 14:50:00 25.7 C 72 % 20.27 C
2484 25-07-2016 14:55:00 25.7 C 68 % 19.35 C
2485 25-07-2016 15:00:00 25.8 C 68 % 19.44 C
2486 25-07-2016 15:05:00 25.9 C 63 % 18.31 C
2487 25-07-2016 15:10:00 26 C 65 % 18.91 C
2488 25-07-2016 15:15:00 26.1 C 72 % 20.65 C
2489 25-07-2016 15:20:00 25.9 C 63 % 18.31 C
2490 25-07-2016 15:25:00 26.1 C 62 % 18.25 C
2491 25-07-2016 15:30:00 26.3 C 63 % 18.69 C
2492 25-07-2016 15:35:00 26.5 C 65 % 19.38 C
2493 25-07-2016 15:40:00 26.2 C 68 % 19.82 C
2494 25-07-2016 15:45:00 25.9 C 73 % 20.69 C
2495 25-07-2016 15:50:00 25.7 C 67 % 19.11 C
2496 25-07-2016 15:55:00 25.9 C 64 % 18.57 C
2497 25-07-2016 16:00:00 26.5 C 66 % 19.63 C
2498 25-07-2016 16:05:00 26.7 C 67 % 20.06 C
2499 25-07-2016 16:10:00 26.6 C 62 % 18.72 C
2500 25-07-2016 16:15:00 26.6 C 59 % 17.93 C
Sensor: Nr:Datum:Temp:Feuchte:Taupunkt:
Aussen-T/F 2501 25-07-2016 16:20:00 26.6 C 59 % 17.93 C
2502 25-07-2016 16:25:00 26.4 C 60 % 18.01 C
2503 25-07-2016 16:30:00 26.3 C 61 % 18.18 C
2504 25-07-2016 16:35:00 26.3 C 61 % 18.18 C
2505 25-07-2016 16:40:00 26.2 C 60 % 17.82 C
2506 25-07-2016 16:45:00 26.2 C 62 % 18.34 C
2507 25-07-2016 16:50:00 26.2 C 62 % 18.34 C
2508 25-07-2016 16:55:00 26.3 C 60 % 17.91 C
2509 25-07-2016 17:00:00 26.3 C 59 % 17.65 C
2510 25-07-2016 17:05:00 26.3 C 60 % 17.91 C
2511 25-07-2016 17:10:00 26.3 C 64 % 18.94 C
2512 25-07-2016 17:15:00 26.2 C 68 % 19.82 C
2513 25-07-2016 17:20:00 26.1 C 70 % 20.2 C
2514 25-07-2016 17:25:00 25.8 C 64 % 18.47 C
2515 25-07-2016 17:30:00 25.8 C 70 % 19.91 C
2516 25-07-2016 17:35:00 25.8 C 73 % 20.59 C
2517 25-07-2016 17:40:00 25.8 C 74 % 20.81 C
2518 25-07-2016 17:45:00 25.7 C 64 % 18.38 C
2519 25-07-2016 17:50:00 25.6 C 65 % 18.53 C
2520 25-07-2016 17:55:00 25.5 C 63 % 17.94 C
2521 25-07-2016 18:00:00 25.6 C 63 % 18.03 C
2522 25-07-2016 18:05:00 25.7 C 72 % 20.27 C
2523 25-07-2016 18:10:00 25.6 C 75 % 20.84 C
2524 25-07-2016 18:15:00 25.2 C 70 % 19.34 C
2525 25-07-2016 18:20:00 24.9 C 76 % 20.38 C
Sensor: Nr:Datum:Temp:Feuchte:Taupunkt:
Aussen-T/F 2526 25-07-2016 18:25:00 24.7 C 76 % 20.18 C
2527 25-07-2016 18:30:00 24.6 C 78 % 20.51 C
2528 25-07-2016 18:35:00 24.3 C 78 % 20.22 C
2529 25-07-2016 18:40:00 24.3 C 80 % 20.63 C
2530 25-07-2016 18:45:00 24.3 C 80 % 20.63 C
2531 25-07-2016 18:50:00 24.7 C 76 % 20.18 C
2532 25-07-2016 18:55:00 25.3 C 68 % 18.97 C
2533 25-07-2016 19:00:00 25.9 C 75 % 21.13 C
2534 25-07-2016 19:05:00 25.9 C 75 % 21.13 C
2535 25-07-2016 19:10:00 25.7 C 75 % 20.93 C
2536 25-07-2016 19:15:00 25.3 C 76 % 20.76 C
2537 25-07-2016 19:20:00 24.8 C 78 % 20.7 C
2538 25-07-2016 19:25:00 24.5 C 79 % 20.62 C
2539 25-07-2016 19:30:00 24.3 C 80 % 20.63 C
2540 25-07-2016 19:35:00 24.3 C 72 % 18.93 C
2541 25-07-2016 19:40:00 24.6 C 72 % 19.21 C
2542 25-07-2016 19:45:00 24.9 C 68 % 18.59 C
2543 25-07-2016 19:50:00 25.2 C 70 % 19.34 C
2544 25-07-2016 19:55:00 25.3 C 66 % 18.49 C
2545 25-07-2016 20:00:00 25.4 C 65 % 18.34 C
2546 25-07-2016 20:05:00 25.6 C 67 % 19.01 C
2547 25-07-2016 20:10:00 25.6 C 67 % 19.01 C
2548 25-07-2016 20:15:00 25.7 C 65 % 18.62 C
2549 25-07-2016 20:20:00 25.7 C 65 % 18.62 C
2550 25-07-2016 20:25:00 25.7 C 66 % 18.87 C
Sensor: Nr:Datum:Temp:Feuchte:Taupunkt:
Aussen-T/F 2551 25-07-2016 20:30:00 25.5 C 65 % 18.44 C
2552 25-07-2016 20:35:00 25.3 C 68 % 18.97 C
2553 25-07-2016 20:40:00 25.1 C 69 % 19.01 C
2554 25-07-2016 20:45:00 24.8 C 68 % 18.49 C
2555 25-07-2016 20:50:00 24.6 C 68 % 18.3 C
2556 25-07-2016 20:55:00 24.4 C 69 % 18.34 C
2557 25-07-2016 21:00:00 24.2 C 71 % 18.61 C
2558 25-07-2016 21:05:00 23.9 C 76 % 19.41 C
2559 25-07-2016 21:10:00 23.4 C 77 % 19.14 C
2560 25-07-2016 21:15:00 23 C 78 % 18.96 C
2561 25-07-2016 21:20:00 22.6 C 80 % 18.97 C
2562 25-07-2016 21:25:00 22.3 C 81 % 18.88 C
2563 25-07-2016 21:30:00 22.2 C 83 % 19.17 C
2564 25-07-2016 21:35:00 22 C 83 % 18.98 C
2565 25-07-2016 21:40:00 21.8 C 83 % 18.78 C
2566 25-07-2016 21:45:00 21.8 C 84 % 18.97 C
2567 25-07-2016 21:50:00 21.8 C 84 % 18.97 C
2568 25-07-2016 21:55:00 21.7 C 84 % 18.88 C
2569 25-07-2016 22:00:00 21.7 C 84 % 18.88 C
2570 25-07-2016 22:05:00 21.7 C 84 % 18.88 C
2571 25-07-2016 22:10:00 21.7 C 83 % 18.69 C
2572 25-07-2016 22:15:00 21.7 C 83 % 18.69 C
2573 25-07-2016 22:20:00 21.7 C 84 % 18.88 C
2574 25-07-2016 22:25:00 21.7 C 84 % 18.88 C
2575 25-07-2016 22:30:00 21.6 C 84 % 18.78 C
Sensor: Nr:Datum:Temp:Feuchte:Taupunkt:
Aussen-T/F 2576 25-07-2016 22:35:00 21.5 C 83 % 18.49 C
2577 25-07-2016 22:40:00 21.5 C 84 % 18.68 C
2578 25-07-2016 22:45:00 21.4 C 84 % 18.58 C
2579 25-07-2016 22:50:00 21.3 C 84 % 18.49 C
2580 25-07-2016 22:55:00 21.2 C 84 % 18.39 C
2581 25-07-2016 23:00:00 21 C 84 % 18.19 C
2582 25-07-2016 23:05:00 20.8 C 84 % 18 C
2583 25-07-2016 23:10:00 20.7 C 85 % 18.09 C
2584 25-07-2016 23:15:00 20.6 C 85 % 17.99 C
2585 25-07-2016 23:20:00 20.5 C 85 % 17.89 C
2586 25-07-2016 23:25:00 20.4 C 85 % 17.79 C
2587 25-07-2016 23:30:00 20.4 C 86 % 17.98 C
2588 25-07-2016 23:35:00 20.3 C 86 % 17.88 C
2589 25-07-2016 23:40:00 20.2 C 85 % 17.6 C
2590 25-07-2016 23:45:00 20.2 C 86 % 17.78 C
2591 25-07-2016 23:50:00 20.1 C 86 % 17.68 C
2592 25-07-2016 23:55:00 19.9 C 87 % 17.67 C
2593 26-07-2016 00:00:00 19.8 C 87 % 17.57 C
2594 26-07-2016 00:05:00 19.8 C 87 % 17.57 C
2595 26-07-2016 00:10:00 19.7 C 88 % 17.66 C
2596 26-07-2016 00:15:00 19.7 C 88 % 17.66 C
2597 26-07-2016 00:20:00 19.7 C 88 % 17.66 C
2598 26-07-2016 00:25:00 19.6 C 88 % 17.56 C
2599 26-07-2016 00:30:00 19.6 C 88 % 17.56 C
2600 26-07-2016 00:35:00 19.4 C 89 % 17.54 C
Sensor: Nr:Datum:Temp:Feuchte:Taupunkt:
Aussen-T/F 2601 26-07-2016 00:40:00 19.3 C 89 % 17.44 C
2602 26-07-2016 00:45:00 19.3 C 89 % 17.44 C
2603 26-07-2016 00:50:00 19.2 C 90 % 17.52 C
2604 26-07-2016 00:55:00 19.2 C 90 % 17.52 C
2605 26-07-2016 01:00:00 19.1 C 90 % 17.42 C
2606 26-07-2016 01:05:00 19 C 91 % 17.5 C
2607 26-07-2016 01:10:00 18.9 C 91 % 17.4 C
2608 26-07-2016 01:15:00 18.9 C 91 % 17.4 C
2609 26-07-2016 01:20:00 18.8 C 91 % 17.3 C
2610 26-07-2016 01:25:00 18.7 C 91 % 17.2 C
2611 26-07-2016 01:30:00 18.7 C 91 % 17.2 C
2612 26-07-2016 01:35:00 18.6 C 92 % 17.27 C
2613 26-07-2016 01:40:00 18.6 C 92 % 17.27 C
2614 26-07-2016 01:45:00 18.5 C 92 % 17.18 C
2615 26-07-2016 01:50:00 18.4 C 92 % 17.08 C
2616 26-07-2016 01:55:00 18.4 C 92 % 17.08 C
2617 26-07-2016 02:00:00 18.3 C 92 % 16.98 C
2618 26-07-2016 02:05:00 18.2 C 92 % 16.88 C
2619 26-07-2016 02:10:00 18.2 C 92 % 16.88 C
2620 26-07-2016 02:15:00 18.1 C 93 % 16.95 C
2621 26-07-2016 02:20:00 18.1 C 93 % 16.95 C
2622 26-07-2016 02:25:00 18.1 C 93 % 16.95 C
2623 26-07-2016 02:30:00 18.1 C 93 % 16.95 C
2624 26-07-2016 02:35:00 18.1 C 93 % 16.95 C
2625 26-07-2016 02:40:00 18.1 C 93 % 16.95 C
Sensor: Nr:Datum:Temp:Feuchte:Taupunkt:
Aussen-T/F 2626 26-07-2016 02:45:00 18.2 C 94 % 17.22 C
2627 26-07-2016 02:50:00 18.2 C 94 % 17.22 C
2628 26-07-2016 02:55:00 18.2 C 94 % 17.22 C
2629 26-07-2016 03:00:00 18.2 C 94 % 17.22 C
2630 26-07-2016 03:05:00 18.2 C 94 % 17.22 C
2631 26-07-2016 03:10:00 18.2 C 93 % 17.05 C
2632 26-07-2016 03:15:00 18.1 C 93 % 16.95 C
2633 26-07-2016 03:20:00 18.1 C 93 % 16.95 C
2634 26-07-2016 03:25:00 18 C 93 % 16.85 C
2635 26-07-2016 03:30:00 18 C 93 % 16.85 C
2636 26-07-2016 03:35:00 17.9 C 93 % 16.75 C
2637 26-07-2016 03:40:00 17.9 C 93 % 16.75 C
2638 26-07-2016 03:45:00 17.9 C 94 % 16.92 C
2639 26-07-2016 03:50:00 17.9 C 94 % 16.92 C
2640 26-07-2016 03:55:00 17.9 C 94 % 16.92 C
2641 26-07-2016 04:00:00 17.9 C 94 % 16.92 C
2642 26-07-2016 04:05:00 17.9 C 94 % 16.92 C
2643 26-07-2016 04:10:00 17.9 C 94 % 16.92 C
2644 26-07-2016 04:15:00 17.9 C 94 % 16.92 C
2645 26-07-2016 04:20:00 17.9 C 94 % 16.92 C
2646 26-07-2016 04:25:00 17.9 C 94 % 16.92 C
2647 26-07-2016 04:30:00 17.9 C 94 % 16.92 C
2648 26-07-2016 04:35:00 17.9 C 94 % 16.92 C
2649 26-07-2016 04:40:00 17.9 C 94 % 16.92 C
2650 26-07-2016 04:45:00 17.9 C 94 % 16.92 C
Sensor: Nr:Datum:Temp:Feuchte:Taupunkt:
Aussen-T/F 2651 26-07-2016 04:50:00 17.9 C 94 % 16.92 C
2652 26-07-2016 04:55:00 17.8 C 94 % 16.82 C
2653 26-07-2016 05:00:00 17.8 C 94 % 16.82 C
2654 26-07-2016 05:05:00 17.8 C 94 % 16.82 C
2655 26-07-2016 05:10:00 17.7 C 94 % 16.72 C
2656 26-07-2016 05:15:00 17.7 C 94 % 16.72 C
2657 26-07-2016 05:20:00 17.7 C 94 % 16.72 C
2658 26-07-2016 05:25:00 17.6 C 94 % 16.62 C
2659 26-07-2016 05:30:00 17.6 C 94 % 16.62 C
2660 26-07-2016 05:35:00 17.4 C 94 % 16.42 C
2661 26-07-2016 05:40:00 17.4 C 94 % 16.42 C
2662 26-07-2016 05:45:00 17.3 C 94 % 16.33 C
2663 26-07-2016 05:50:00 17.3 C 94 % 16.33 C
2664 26-07-2016 05:55:00 17.3 C 95 % 16.49 C
2665 26-07-2016 06:00:00 17.3 C 95 % 16.49 C
2666 26-07-2016 06:05:00 17.4 C 95 % 16.59 C
2667 26-07-2016 06:10:00 17.4 C 95 % 16.59 C
2668 26-07-2016 06:15:00 17.4 C 95 % 16.59 C
2669 26-07-2016 06:20:00 17.5 C 95 % 16.69 C
2670 26-07-2016 06:25:00 17.6 C 95 % 16.79 C
2671 26-07-2016 06:30:00 17.6 C 95 % 16.79 C
2672 26-07-2016 06:35:00 17.7 C 95 % 16.89 C
2673 26-07-2016 06:40:00 17.7 C 95 % 16.89 C
2674 26-07-2016 06:45:00 17.8 C 95 % 16.99 C
2675 26-07-2016 06:50:00 17.8 C 95 % 16.99 C
Sensor: Nr:Datum:Temp:Feuchte:Taupunkt:
Aussen-T/F 2676 26-07-2016 06:55:00 17.9 C 95 % 17.09 C
2677 26-07-2016 07:00:00 18 C 95 % 17.19 C
2678 26-07-2016 07:05:00 18.1 C 95 % 17.29 C
2679 26-07-2016 07:10:00 18.2 C 95 % 17.39 C
2680 26-07-2016 07:15:00 18.4 C 96 % 17.75 C
2681 26-07-2016 07:20:00 18.4 C 95 % 17.58 C
2682 26-07-2016 07:25:00 18.5 C 95 % 17.68 C
2683 26-07-2016 07:30:00 18.6 C 95 % 17.78 C
2684 26-07-2016 07:35:00 18.6 C 95 % 17.78 C
2685 26-07-2016 07:40:00 18.7 C 95 % 17.88 C
2686 26-07-2016 07:45:00 18.7 C 95 % 17.88 C
2687 26-07-2016 07:50:00 18.8 C 94 % 17.81 C
2688 26-07-2016 07:55:00 18.9 C 94 % 17.91 C
2689 26-07-2016 08:00:00 19 C 94 % 18.01 C
2690 26-07-2016 08:05:00 19.1 C 93 % 17.94 C
2691 26-07-2016 08:10:00 19.2 C 93 % 18.04 C
2692 26-07-2016 08:15:00 19.2 C 92 % 17.87 C
2693 26-07-2016 08:20:00 19.3 C 92 % 17.97 C
2694 26-07-2016 08:25:00 19.4 C 92 % 18.07 C
2695 26-07-2016 08:30:00 19.5 C 91 % 17.99 C
2696 26-07-2016 08:35:00 19.7 C 91 % 18.19 C
2697 26-07-2016 08:40:00 19.8 C 91 % 18.29 C
2698 26-07-2016 08:45:00 20 C 90 % 18.31 C
2699 26-07-2016 08:50:00 20.1 C 90 % 18.41 C
2700 26-07-2016 08:55:00 20.2 C 89 % 18.33 C
Sensor: Nr:Datum:Temp:Feuchte:Taupunkt:
Aussen-T/F 2701 26-07-2016 09:00:00 20.3 C 89 % 18.43 C
2702 26-07-2016 09:05:00 20.3 C 89 % 18.43 C
2703 26-07-2016 09:10:00 20.4 C 89 % 18.53 C
2704 26-07-2016 09:15:00 20.5 C 88 % 18.44 C
2705 26-07-2016 09:20:00 20.6 C 88 % 18.54 C
2706 26-07-2016 09:25:00 20.7 C 88 % 18.64 C
2707 26-07-2016 09:30:00 20.8 C 88 % 18.74 C
2708 26-07-2016 09:35:00 20.8 C 88 % 18.74 C
2709 26-07-2016 09:40:00 20.8 C 87 % 18.56 C
2710 26-07-2016 09:45:00 20.8 C 88 % 18.74 C
2711 26-07-2016 09:50:00 20.8 C 88 % 18.74 C
2712 26-07-2016 09:55:00 20.8 C 87 % 18.56 C
2713 26-07-2016 10:00:00 20.8 C 88 % 18.74 C
2714 26-07-2016 10:05:00 20.8 C 88 % 18.74 C
2715 26-07-2016 10:10:00 20.8 C 87 % 18.56 C
2716 26-07-2016 10:15:00 20.7 C 87 % 18.46 C
2717 26-07-2016 10:20:00 20.7 C 88 % 18.64 C
2718 26-07-2016 10:25:00 20.7 C 87 % 18.46 C
2719 26-07-2016 10:30:00 20.6 C 87 % 18.36 C
2720 26-07-2016 10:35:00 20.7 C 88 % 18.64 C
2721 26-07-2016 10:40:00 20.6 C 87 % 18.36 C
2722 26-07-2016 10:45:00 20.7 C 87 % 18.46 C
2723 26-07-2016 10:50:00 20.6 C 87 % 18.36 C
2724 26-07-2016 10:55:00 20.7 C 88 % 18.64 C
2725 26-07-2016 11:00:00 20.8 C 89 % 18.92 C
Sensor: Nr:Datum:Temp:Feuchte:Taupunkt:
Aussen-T/F 2726 26-07-2016 11:05:00 20.9 C 89 % 19.02 C
2727 26-07-2016 11:10:00 20.8 C 88 % 18.74 C
2728 26-07-2016 11:15:00 20.7 C 87 % 18.46 C
2729 26-07-2016 11:20:00 20.7 C 88 % 18.64 C
2730 26-07-2016 11:25:00 20.6 C 88 % 18.54 C
2731 26-07-2016 11:30:00 20.6 C 87 % 18.36 C
2732 26-07-2016 11:35:00 20.7 C 86 % 18.27 C
2733 26-07-2016 11:40:00 20.8 C 86 % 18.37 C
2734 26-07-2016 11:45:00 21 C 85 % 18.38 C
2735 26-07-2016 11:50:00 21.3 C 84 % 18.49 C
2736 26-07-2016 11:55:00 21.4 C 83 % 18.39 C
2737 26-07-2016 12:00:00 21.6 C 84 % 18.78 C
2738 26-07-2016 12:05:00 21.7 C 83 % 18.69 C
2739 26-07-2016 12:10:00 21.8 C 84 % 18.97 C
2740 26-07-2016 12:15:00 21.9 C 82 % 18.69 C
2741 26-07-2016 12:20:00 22.1 C 82 % 18.88 C
2742 26-07-2016 12:25:00 22.1 C 81 % 18.69 C
2743 26-07-2016 12:30:00 22.2 C 82 % 18.98 C
2744 26-07-2016 12:35:00 22.3 C 82 % 19.08 C
2745 26-07-2016 12:40:00 22.5 C 83 % 19.47 C
2746 26-07-2016 12:45:00 22.7 C 82 % 19.47 C
2747 26-07-2016 12:50:00 22.7 C 79 % 18.87 C
2748 26-07-2016 12:55:00 22.7 C 80 % 19.07 C
2749 26-07-2016 13:00:00 22.8 C 79 % 18.97 C
2750 26-07-2016 13:05:00 22.9 C 79 % 19.06 C
Sensor: Nr:Datum:Temp:Feuchte:Taupunkt:
Aussen-T/F 2751 26-07-2016 13:10:00 22.9 C 79 % 19.06 C
2752 26-07-2016 13:15:00 22.9 C 79 % 19.06 C
2753 26-07-2016 13:20:00 23.1 C 79 % 19.26 C
2754 26-07-2016 13:25:00 23.2 C 79 % 19.35 C
2755 26-07-2016 13:30:00 23.3 C 79 % 19.45 C
2756 26-07-2016 13:35:00 23.5 C 80 % 19.85 C
2757 26-07-2016 13:40:00 23.6 C 78 % 19.54 C
2758 26-07-2016 13:45:00 23.7 C 76 % 19.22 C
2759 26-07-2016 13:50:00 23.7 C 77 % 19.43 C
2760 26-07-2016 13:55:00 23.8 C 78 % 19.73 C
2761 26-07-2016 14:00:00 23.8 C 77 % 19.52 C
2762 26-07-2016 14:05:00 23.9 C 77 % 19.62 C
2763 26-07-2016 14:10:00 24 C 76 % 19.51 C
2764 26-07-2016 14:15:00 24.1 C 76 % 19.6 C
2765 26-07-2016 14:20:00 24.3 C 76 % 19.8 C
2766 26-07-2016 14:25:00 24.3 C 75 % 19.58 C
2767 26-07-2016 14:30:00 24.3 C 76 % 19.8 C
2768 26-07-2016 14:35:00 24.3 C 74 % 19.37 C
2769 26-07-2016 14:40:00 24.3 C 75 % 19.58 C
2770 26-07-2016 14:45:00 24.3 C 72 % 18.93 C
2771 26-07-2016 14:50:00 24.3 C 73 % 19.15 C
2772 26-07-2016 14:55:00 24.3 C 73 % 19.15 C
2773 26-07-2016 15:00:00 24.3 C 75 % 19.58 C
2774 26-07-2016 15:05:00 24.3 C 73 % 19.15 C
2775 26-07-2016 15:10:00 24.3 C 73 % 19.15 C
Sensor: Nr:Datum:Temp:Feuchte:Taupunkt:
Aussen-T/F 2776 26-07-2016 15:15:00 24.3 C 73 % 19.15 C
2777 26-07-2016 15:20:00 24.3 C 73 % 19.15 C
2778 26-07-2016 15:25:00 24.3 C 72 % 18.93 C
2779 26-07-2016 15:30:00 24.2 C 72 % 18.83 C
2780 26-07-2016 15:35:00 24.1 C 73 % 18.96 C
2781 26-07-2016 15:40:00 24 C 72 % 18.64 C
2782 26-07-2016 15:45:00 24 C 74 % 19.08 C
2783 26-07-2016 15:50:00 23.9 C 74 % 18.98 C
2784 26-07-2016 15:55:00 23.9 C 75 % 19.2 C
2785 26-07-2016 16:00:00 23.9 C 74 % 18.98 C
2786 26-07-2016 16:05:00 23.8 C 75 % 19.1 C
2787 26-07-2016 16:10:00 23.6 C 75 % 18.91 C
2788 26-07-2016 16:15:00 23.4 C 75 % 18.71 C
2789 26-07-2016 16:20:00 23.2 C 76 % 18.73 C
2790 26-07-2016 16:25:00 23.2 C 76 % 18.73 C
2791 26-07-2016 16:30:00 23.1 C 76 % 18.64 C
2792 26-07-2016 16:35:00 22.9 C 77 % 18.65 C
2793 26-07-2016 16:40:00 22.7 C 78 % 18.67 C
2794 26-07-2016 16:45:00 22.4 C 80 % 18.78 C
2795 26-07-2016 16:50:00 22.2 C 81 % 18.78 C
2796 26-07-2016 16:55:00 22.1 C 81 % 18.69 C
2797 26-07-2016 17:00:00 21.9 C 81 % 18.49 C
2798 26-07-2016 17:05:00 21.7 C 81 % 18.3 C
2799 26-07-2016 17:10:00 21.6 C 81 % 18.2 C
2800 26-07-2016 17:15:00 21.5 C 81 % 18.1 C
Sensor: Nr:Datum:Temp:Feuchte:Taupunkt:
Aussen-T/F 2801 26-07-2016 17:20:00 21.4 C 81 % 18 C
2802 26-07-2016 17:25:00 21.4 C 81 % 18 C
2803 26-07-2016 17:30:00 21.3 C 81 % 17.91 C
2804 26-07-2016 17:35:00 21.3 C 81 % 17.91 C
2805 26-07-2016 17:40:00 21.7 C 80 % 18.1 C
2806 26-07-2016 17:45:00 22.1 C 78 % 18.08 C
2807 26-07-2016 17:50:00 22.3 C 78 % 18.28 C
2808 26-07-2016 17:55:00 22.6 C 77 % 18.36 C
2809 26-07-2016 18:00:00 22.7 C 76 % 18.25 C
2810 26-07-2016 18:05:00 22.8 C 76 % 18.35 C
2811 26-07-2016 18:10:00 22.8 C 76 % 18.35 C
2812 26-07-2016 18:15:00 22.8 C 76 % 18.35 C
2813 26-07-2016 18:20:00 22.8 C 76 % 18.35 C
2814 26-07-2016 18:25:00 22.7 C 77 % 18.46 C
2815 26-07-2016 18:30:00 22.7 C 77 % 18.46 C
2816 26-07-2016 18:35:00 22.7 C 77 % 18.46 C
2817 26-07-2016 18:40:00 22.6 C 77 % 18.36 C
2818 26-07-2016 18:45:00 22.6 C 76 % 18.15 C
2819 26-07-2016 18:50:00 22.3 C 77 % 18.07 C
2820 26-07-2016 18:55:00 22 C 77 % 17.78 C
2821 26-07-2016 19:00:00 21.8 C 79 % 18 C
2822 26-07-2016 19:05:00 21.7 C 79 % 17.9 C
2823 26-07-2016 19:10:00 21.7 C 80 % 18.1 C
2824 26-07-2016 19:15:00 21.6 C 80 % 18 C
2825 26-07-2016 19:20:00 21.6 C 80 % 18 C
Sensor: Nr:Datum:Temp:Feuchte:Taupunkt:
Aussen-T/F 2826 26-07-2016 19:25:00 21.6 C 79 % 17.8 C
2827 26-07-2016 19:30:00 21.7 C 80 % 18.1 C
2828 26-07-2016 19:35:00 21.7 C 79 % 17.9 C
2829 26-07-2016 19:40:00 21.7 C 79 % 17.9 C
2830 26-07-2016 19:45:00 21.6 C 80 % 18 C
2831 26-07-2016 19:50:00 21.6 C 81 % 18.2 C
2832 26-07-2016 19:55:00 21.6 C 80 % 18 C
2833 26-07-2016 20:00:00 21.7 C 80 % 18.1 C
2834 26-07-2016 20:05:00 21.7 C 79 % 17.9 C
2835 26-07-2016 20:10:00 21.6 C 79 % 17.8 C
2836 26-07-2016 20:15:00 21.4 C 80 % 17.81 C
2837 26-07-2016 20:20:00 21.1 C 80 % 17.51 C
2838 26-07-2016 20:25:00 20.9 C 81 % 17.52 C
2839 26-07-2016 20:30:00 20.7 C 81 % 17.32 C
2840 26-07-2016 20:35:00 20.4 C 82 % 17.22 C
2841 26-07-2016 20:40:00 20.3 C 83 % 17.32 C
2842 26-07-2016 20:45:00 20.2 C 83 % 17.22 C
2843 26-07-2016 20:50:00 20 C 83 % 17.02 C
2844 26-07-2016 20:55:00 19.9 C 84 % 17.12 C
2845 26-07-2016 21:00:00 19.8 C 85 % 17.21 C
2846 26-07-2016 21:05:00 19.7 C 85 % 17.11 C
2847 26-07-2016 21:10:00 19.5 C 86 % 17.1 C
2848 26-07-2016 21:15:00 19.3 C 86 % 16.9 C
2849 26-07-2016 21:20:00 19.1 C 87 % 16.89 C
2850 26-07-2016 21:25:00 18.9 C 87 % 16.69 C
Sensor: Nr:Datum:Temp:Feuchte:Taupunkt:
Aussen-T/F 2851 26-07-2016 21:30:00 18.8 C 87 % 16.59 C
2852 26-07-2016 21:35:00 18.6 C 88 % 16.57 C
2853 26-07-2016 21:40:00 18.4 C 88 % 16.38 C
2854 26-07-2016 21:45:00 18.3 C 89 % 16.46 C
2855 26-07-2016 21:50:00 18.1 C 89 % 16.26 C
2856 26-07-2016 21:55:00 18 C 89 % 16.16 C
2857 26-07-2016 22:00:00 17.8 C 90 % 16.14 C
2858 26-07-2016 22:05:00 17.8 C 90 % 16.14 C
2859 26-07-2016 22:10:00 17.7 C 90 % 16.04 C
2860 26-07-2016 22:15:00 17.6 C 91 % 16.11 C
2861 26-07-2016 22:20:00 17.4 C 91 % 15.92 C
2862 26-07-2016 22:25:00 17.4 C 91 % 15.92 C
2863 26-07-2016 22:30:00 17.3 C 91 % 15.82 C
2864 26-07-2016 22:35:00 17.3 C 92 % 15.99 C
2865 26-07-2016 22:40:00 17.3 C 92 % 15.99 C
2866 26-07-2016 22:45:00 17.3 C 92 % 15.99 C
2867 26-07-2016 22:50:00 17.2 C 92 % 15.89 C
2868 26-07-2016 22:55:00 17.2 C 92 % 15.89 C
2869 26-07-2016 23:00:00 17.2 C 92 % 15.89 C
2870 26-07-2016 23:05:00 17.2 C 93 % 16.06 C
2871 26-07-2016 23:10:00 17.3 C 93 % 16.16 C
2872 26-07-2016 23:15:00 17.3 C 93 % 16.16 C
2873 26-07-2016 23:20:00 17.3 C 93 % 16.16 C
2874 26-07-2016 23:25:00 17.2 C 92 % 15.89 C
2875 26-07-2016 23:30:00 17.2 C 92 % 15.89 C
Sensor: Nr:Datum:Temp:Feuchte:Taupunkt:
Aussen-T/F 2876 26-07-2016 23:35:00 17.1 C 92 % 15.79 C
2877 26-07-2016 23:40:00 17.1 C 92 % 15.79 C
2878 26-07-2016 23:45:00 17 C 93 % 15.86 C
2879 26-07-2016 23:50:00 17 C 93 % 15.86 C
2880 26-07-2016 23:55:00 16.9 C 93 % 15.76 C
2881 27-07-2016 00:00:00 16.9 C 93 % 15.76 C
2882 27-07-2016 00:05:00 16.9 C 93 % 15.76 C
2883 27-07-2016 00:10:00 16.8 C 93 % 15.66 C
2884 27-07-2016 00:15:00 16.8 C 93 % 15.66 C
2885 27-07-2016 00:20:00 16.8 C 93 % 15.66 C
2886 27-07-2016 00:25:00 16.7 C 93 % 15.56 C
2887 27-07-2016 00:30:00 16.6 C 93 % 15.46 C
2888 27-07-2016 00:35:00 16.6 C 93 % 15.46 C
2889 27-07-2016 00:40:00 16.5 C 93 % 15.36 C
2890 27-07-2016 00:45:00 16.4 C 93 % 15.27 C
2891 27-07-2016 00:50:00 16.3 C 93 % 15.17 C
2892 27-07-2016 00:55:00 16.3 C 93 % 15.17 C
2893 27-07-2016 01:00:00 16.3 C 93 % 15.17 C
2894 27-07-2016 01:05:00 16.2 C 94 % 15.23 C
2895 27-07-2016 01:10:00 16.3 C 94 % 15.33 C
2896 27-07-2016 01:15:00 16.2 C 93 % 15.07 C
2897 27-07-2016 01:20:00 16.2 C 94 % 15.23 C
2898 27-07-2016 01:25:00 16.1 C 93 % 14.97 C
2899 27-07-2016 01:30:00 15.9 C 93 % 14.77 C
2900 27-07-2016 01:35:00 15.9 C 94 % 14.94 C
Sensor: Nr:Datum:Temp:Feuchte:Taupunkt:
Aussen-T/F 2901 27-07-2016 01:40:00 15.9 C 94 % 14.94 C
2902 27-07-2016 01:45:00 15.8 C 94 % 14.84 C
2903 27-07-2016 01:50:00 15.8 C 94 % 14.84 C
2904 27-07-2016 01:55:00 15.8 C 94 % 14.84 C
2905 27-07-2016 02:00:00 15.7 C 94 % 14.74 C
2906 27-07-2016 02:05:00 15.8 C 94 % 14.84 C
2907 27-07-2016 02:10:00 15.9 C 95 % 15.1 C
2908 27-07-2016 02:15:00 15.9 C 95 % 15.1 C
2909 27-07-2016 02:20:00 16.1 C 95 % 15.3 C
2910 27-07-2016 02:25:00 16.1 C 95 % 15.3 C
2911 27-07-2016 02:30:00 16.2 C 95 % 15.4 C
2912 27-07-2016 02:35:00 16.2 C 95 % 15.4 C
2913 27-07-2016 02:40:00 16.2 C 95 % 15.4 C
2914 27-07-2016 02:45:00 16.3 C 95 % 15.5 C
2915 27-07-2016 02:50:00 16.3 C 95 % 15.5 C
2916 27-07-2016 02:55:00 16.3 C 95 % 15.5 C
2917 27-07-2016 03:00:00 16.3 C 95 % 15.5 C
2918 27-07-2016 03:05:00 16.2 C 95 % 15.4 C
2919 27-07-2016 03:10:00 16.2 C 95 % 15.4 C
2920 27-07-2016 03:15:00 16.1 C 95 % 15.3 C
2921 27-07-2016 03:20:00 16.1 C 95 % 15.3 C
2922 27-07-2016 03:25:00 16 C 95 % 15.2 C
2923 27-07-2016 03:30:00 15.9 C 95 % 15.1 C
2924 27-07-2016 03:35:00 15.9 C 95 % 15.1 C
2925 27-07-2016 03:40:00 15.8 C 95 % 15 C
Sensor: Nr:Datum:Temp:Feuchte:Taupunkt:
Aussen-T/F 2926 27-07-2016 03:45:00 15.8 C 95 % 15 C
2927 27-07-2016 03:50:00 15.8 C 95 % 15 C
2928 27-07-2016 03:55:00 15.7 C 95 % 14.9 C
2929 27-07-2016 04:00:00 15.7 C 95 % 14.9 C
2930 27-07-2016 04:05:00 15.7 C 95 % 14.9 C
2931 27-07-2016 04:10:00 15.7 C 95 % 14.9 C
2932 27-07-2016 04:15:00 15.7 C 95 % 14.9 C
2933 27-07-2016 04:20:00 15.8 C 95 % 15 C
2934 27-07-2016 04:25:00 15.8 C 95 % 15 C
2935 27-07-2016 04:30:00 15.8 C 95 % 15 C
2936 27-07-2016 04:35:00 15.8 C 95 % 15 C
2937 27-07-2016 04:40:00 15.8 C 95 % 15 C
2938 27-07-2016 04:45:00 15.8 C 96 % 15.16 C
2939 27-07-2016 04:50:00 15.8 C 96 % 15.16 C
2940 27-07-2016 04:55:00 15.9 C 96 % 15.26 C
2941 27-07-2016 05:00:00 15.9 C 96 % 15.26 C
2942 27-07-2016 05:05:00 15.9 C 96 % 15.26 C
2943 27-07-2016 05:10:00 15.9 C 96 % 15.26 C
2944 27-07-2016 05:15:00 15.9 C 96 % 15.26 C
2945 27-07-2016 05:20:00 15.8 C 96 % 15.16 C
2946 27-07-2016 05:25:00 15.8 C 95 % 15 C
2947 27-07-2016 05:30:00 15.8 C 95 % 15 C
2948 27-07-2016 05:35:00 15.7 C 95 % 14.9 C
2949 27-07-2016 05:40:00 15.7 C 95 % 14.9 C
2950 27-07-2016 05:45:00 15.6 C 95 % 14.8 C
Sensor: Nr:Datum:Temp:Feuchte:Taupunkt:
Aussen-T/F 2951 27-07-2016 05:50:00 15.6 C 95 % 14.8 C
2952 27-07-2016 05:55:00 15.6 C 95 % 14.8 C
2953 27-07-2016 06:00:00 15.6 C 95 % 14.8 C
2954 27-07-2016 06:05:00 15.5 C 95 % 14.7 C
2955 27-07-2016 06:10:00 15.4 C 95 % 14.6 C
2956 27-07-2016 06:15:00 15.4 C 95 % 14.6 C
2957 27-07-2016 06:20:00 15.4 C 96 % 14.77 C
2958 27-07-2016 06:25:00 15.4 C 96 % 14.77 C
2959 27-07-2016 06:30:00 15.4 C 96 % 14.77 C
2960 27-07-2016 06:35:00 15.5 C 96 % 14.86 C
2961 27-07-2016 06:40:00 15.6 C 96 % 14.96 C
2962 27-07-2016 06:45:00 15.6 C 96 % 14.96 C
2963 27-07-2016 06:50:00 15.7 C 96 % 15.06 C
2964 27-07-2016 06:55:00 15.7 C 96 % 15.06 C
2965 27-07-2016 07:00:00 15.7 C 96 % 15.06 C
2966 27-07-2016 07:05:00 15.7 C 96 % 15.06 C
2967 27-07-2016 07:10:00 15.8 C 96 % 15.16 C
2968 27-07-2016 07:15:00 15.8 C 96 % 15.16 C
2969 27-07-2016 07:20:00 15.8 C 96 % 15.16 C
2970 27-07-2016 07:25:00 15.9 C 96 % 15.26 C
2971 27-07-2016 07:30:00 16 C 96 % 15.36 C
2972 27-07-2016 07:35:00 16.1 C 96 % 15.46 C
2973 27-07-2016 07:40:00 16.1 C 96 % 15.46 C
2974 27-07-2016 07:45:00 16.1 C 96 % 15.46 C
2975 27-07-2016 07:50:00 16.1 C 96 % 15.46 C
Sensor: Nr:Datum:Temp:Feuchte:Taupunkt:
Aussen-T/F 2976 27-07-2016 07:55:00 16.2 C 96 % 15.56 C
2977 27-07-2016 08:00:00 16.3 C 96 % 15.66 C
2978 27-07-2016 08:05:00 16.3 C 96 % 15.66 C
2979 27-07-2016 08:10:00 16.4 C 96 % 15.76 C
2980 27-07-2016 08:15:00 16.5 C 96 % 15.86 C
2981 27-07-2016 08:20:00 16.4 C 95 % 15.6 C
2982 27-07-2016 08:25:00 16.4 C 95 % 15.6 C
2983 27-07-2016 08:30:00 16.4 C 95 % 15.6 C
2984 27-07-2016 08:35:00 16.5 C 95 % 15.7 C
2985 27-07-2016 08:40:00 16.6 C 94 % 15.63 C
2986 27-07-2016 08:45:00 16.7 C 94 % 15.73 C
2987 27-07-2016 08:50:00 16.7 C 94 % 15.73 C
2988 27-07-2016 08:55:00 16.8 C 94 % 15.83 C
2989 27-07-2016 09:00:00 16.8 C 94 % 15.83 C
2990 27-07-2016 09:05:00 17 C 94 % 16.03 C
2991 27-07-2016 09:10:00 17.1 C 93 % 15.96 C
2992 27-07-2016 09:15:00 17.2 C 93 % 16.06 C
2993 27-07-2016 09:20:00 17.3 C 92 % 15.99 C
2994 27-07-2016 09:25:00 17.6 C 92 % 16.28 C
2995 27-07-2016 09:30:00 17.7 C 92 % 16.38 C
2996 27-07-2016 09:35:00 17.8 C 91 % 16.31 C
2997 27-07-2016 09:40:00 18 C 90 % 16.34 C
2998 27-07-2016 09:45:00 18.2 C 90 % 16.53 C
2999 27-07-2016 09:50:00 18.3 C 90 % 16.63 C
3000 27-07-2016 09:55:00 18.3 C 90 % 16.63 C
Sensor: Nr:Datum:Temp:Feuchte:Taupunkt:
Aussen-T/F 3001 27-07-2016 10:00:00 18.3 C 90 % 16.63 C
3002 27-07-2016 10:05:00 18.3 C 91 % 16.81 C
3003 27-07-2016 10:10:00 18.3 C 89 % 16.46 C
3004 27-07-2016 10:15:00 18.4 C 88 % 16.38 C
3005 27-07-2016 10:20:00 18.5 C 87 % 16.3 C
3006 27-07-2016 10:25:00 18.8 C 86 % 16.41 C
3007 27-07-2016 10:30:00 18.9 C 87 % 16.69 C
3008 27-07-2016 10:35:00 19.1 C 86 % 16.7 C
3009 27-07-2016 10:40:00 19.3 C 85 % 16.72 C
3010 27-07-2016 10:45:00 19.5 C 83 % 16.54 C
3011 27-07-2016 10:50:00 19.7 C 84 % 16.92 C
3012 27-07-2016 10:55:00 19.8 C 83 % 16.83 C
3013 27-07-2016 11:00:00 19.9 C 81 % 16.54 C
3014 27-07-2016 11:05:00 20.1 C 84 % 17.31 C
3015 27-07-2016 11:10:00 20.1 C 83 % 17.12 C
3016 27-07-2016 11:15:00 20.1 C 80 % 16.54 C
3017 27-07-2016 11:20:00 20.2 C 78 % 16.24 C
3018 27-07-2016 11:25:00 20.3 C 79 % 16.54 C
3019 27-07-2016 11:30:00 20.6 C 78 % 16.63 C
3020 27-07-2016 11:35:00 20.9 C 76 % 16.51 C
3021 27-07-2016 11:40:00 21.2 C 76 % 16.8 C
3022 27-07-2016 11:45:00 21.3 C 76 % 16.9 C
3023 27-07-2016 11:50:00 21.4 C 78 % 17.4 C
3024 27-07-2016 11:55:00 21.4 C 77 % 17.2 C
3025 27-07-2016 12:00:00 21.4 C 79 % 17.61 C
Sensor: Nr:Datum:Temp:Feuchte:Taupunkt:
Aussen-T/F 3026 27-07-2016 12:05:00 21.5 C 76 % 17.09 C
3027 27-07-2016 12:10:00 21.7 C 74 % 16.86 C
3028 27-07-2016 12:15:00 21.8 C 72 % 16.53 C
3029 27-07-2016 12:20:00 21.9 C 72 % 16.62 C
3030 27-07-2016 12:25:00 22.2 C 72 % 16.91 C
3031 27-07-2016 12:30:00 22.3 C 73 % 17.23 C
3032 27-07-2016 12:35:00 22.4 C 71 % 16.88 C
3033 27-07-2016 12:40:00 22.6 C 72 % 17.3 C
3034 27-07-2016 12:45:00 22.6 C 73 % 17.51 C
3035 27-07-2016 12:50:00 22.4 C 71 % 16.88 C
3036 27-07-2016 12:55:00 22.4 C 74 % 17.54 C
3037 27-07-2016 13:00:00 22.5 C 73 % 17.42 C
3038 27-07-2016 13:05:00 22.6 C 70 % 16.85 C
3039 27-07-2016 13:10:00 22.7 C 77 % 18.46 C
3040 27-07-2016 13:15:00 22.8 C 76 % 18.35 C
3041 27-07-2016 13:20:00 22.9 C 68 % 16.68 C
3042 27-07-2016 13:25:00 23.2 C 69 % 17.2 C
3043 27-07-2016 13:30:00 23.3 C 68 % 17.06 C
3044 27-07-2016 13:35:00 23.4 C 64 % 16.2 C
3045 27-07-2016 13:40:00 23.4 C 65 % 16.45 C
3046 27-07-2016 13:45:00 23.4 C 61 % 15.45 C
3047 27-07-2016 13:50:00 23.5 C 60 % 15.29 C
3048 27-07-2016 13:55:00 23.6 C 62 % 15.89 C
3049 27-07-2016 14:00:00 23.6 C 61 % 15.64 C
3050 27-07-2016 14:05:00 23.7 C 66 % 16.97 C
Sensor: Nr:Datum:Temp:Feuchte:Taupunkt:
Aussen-T/F 3051 27-07-2016 14:10:00 23.8 C 59 % 15.31 C
3052 27-07-2016 14:15:00 24 C 58 % 15.23 C
3053 27-07-2016 14:20:00 24.1 C 56 % 14.78 C
3054 27-07-2016 14:25:00 24 C 59 % 15.5 C
3055 27-07-2016 14:30:00 23.9 C 58 % 15.14 C
3056 27-07-2016 14:35:00 23.9 C 60 % 15.66 C
3057 27-07-2016 14:40:00 23.8 C 60 % 15.57 C
3058 27-07-2016 14:45:00 23.7 C 61 % 15.73 C
3059 27-07-2016 14:50:00 23.7 C 59 % 15.21 C
3060 27-07-2016 14:55:00 23.8 C 57 % 14.77 C
3061 27-07-2016 15:00:00 24 C 58 % 15.23 C
3062 27-07-2016 15:05:00 24.1 C 64 % 16.86 C
3063 27-07-2016 15:10:00 24.1 C 58 % 15.32 C
3064 27-07-2016 15:15:00 24 C 64 % 16.77 C
3065 27-07-2016 15:20:00 23.8 C 61 % 15.83 C
3066 27-07-2016 15:25:00 23.7 C 65 % 16.73 C
3067 27-07-2016 15:30:00 23.7 C 57 % 14.68 C
3068 27-07-2016 15:35:00 23.8 C 69 % 17.77 C
3069 27-07-2016 15:40:00 23.8 C 69 % 17.77 C
3070 27-07-2016 15:45:00 23.7 C 62 % 15.99 C
3071 27-07-2016 15:50:00 23.7 C 66 % 16.97 C
3072 27-07-2016 15:55:00 23.8 C 68 % 17.54 C
3073 27-07-2016 16:00:00 23.7 C 65 % 16.73 C
3074 27-07-2016 16:05:00 23.6 C 69 % 17.58 C
3075 27-07-2016 16:10:00 23.5 C 71 % 17.94 C
Sensor: Nr:Datum:Temp:Feuchte:Taupunkt:
Aussen-T/F 3076 27-07-2016 16:15:00 23.3 C 62 % 15.61 C
3077 27-07-2016 16:20:00 23.6 C 63 % 16.14 C
3078 27-07-2016 16:25:00 24 C 59 % 15.5 C
3079 27-07-2016 16:30:00 24.2 C 56 % 14.87 C
3080 27-07-2016 16:35:00 24.1 C 56 % 14.78 C
3081 27-07-2016 16:40:00 24.1 C 58 % 15.32 C
3082 27-07-2016 16:45:00 24.1 C 67 % 17.59 C
3083 27-07-2016 16:50:00 24.1 C 64 % 16.86 C
3084 27-07-2016 16:55:00 24.2 C 59 % 15.68 C
3085 27-07-2016 17:00:00 24.3 C 55 % 14.68 C
3086 27-07-2016 17:05:00 24.6 C 60 % 16.32 C
3087 27-07-2016 17:10:00 24.8 C 63 % 17.28 C
3088 27-07-2016 17:15:00 25.1 C 65 % 18.06 C
3089 27-07-2016 17:20:00 25.2 C 67 % 18.63 C
3090 27-07-2016 17:25:00 25.4 C 63 % 17.84 C
3091 27-07-2016 17:30:00 25.8 C 61 % 17.71 C
3092 27-07-2016 17:35:00 25.9 C 52 % 15.29 C
3093 27-07-2016 17:40:00 26.4 C 54 % 16.34 C
3094 27-07-2016 17:45:00 27 C 47 % 14.73 C
3095 27-07-2016 17:50:00 27.3 C 46 % 14.67 C
3096 27-07-2016 17:55:00 27.3 C 54 % 17.18 C
3097 27-07-2016 18:00:00 26.9 C 47 % 14.64 C
3098 27-07-2016 18:05:00 26.7 C 55 % 16.91 C
3099 27-07-2016 18:10:00 26.3 C 49 % 14.74 C
3100 27-07-2016 18:15:00 25.9 C 60 % 17.54 C
Sensor: Nr:Datum:Temp:Feuchte:Taupunkt:
Aussen-T/F 3101 27-07-2016 18:20:00 25.5 C 55 % 15.8 C
3102 27-07-2016 18:25:00 25.1 C 52 % 14.55 C
3103 27-07-2016 18:30:00 24.9 C 63 % 17.37 C
3104 27-07-2016 18:35:00 24.7 C 66 % 17.92 C
3105 27-07-2016 18:40:00 24.3 C 66 % 17.54 C
3106 27-07-2016 18:45:00 23.9 C 66 % 17.16 C
3107 27-07-2016 18:50:00 23.6 C 68 % 17.35 C
3108 27-07-2016 18:55:00 23.4 C 66 % 16.69 C
3109 27-07-2016 19:00:00 23.4 C 70 % 17.62 C
3110 27-07-2016 19:05:00 23.8 C 62 % 16.08 C
3111 27-07-2016 19:10:00 24.1 C 68 % 17.82 C
3112 27-07-2016 19:15:00 23.8 C 68 % 17.54 C
3113 27-07-2016 19:20:00 23.4 C 69 % 17.39 C
3114 27-07-2016 19:25:00 23.1 C 71 % 17.55 C
3115 27-07-2016 19:30:00 22.6 C 71 % 17.07 C
3116 27-07-2016 19:35:00 22.3 C 71 % 16.79 C
3117 27-07-2016 19:40:00 22.2 C 72 % 16.91 C
3118 27-07-2016 19:45:00 22 C 73 % 16.94 C
3119 27-07-2016 19:50:00 21.7 C 73 % 16.65 C
3120 27-07-2016 19:55:00 21.4 C 73 % 16.36 C
3121 27-07-2016 20:00:00 21.3 C 75 % 16.69 C
3122 27-07-2016 20:05:00 21.1 C 75 % 16.5 C
3123 27-07-2016 20:10:00 20.9 C 76 % 16.51 C
3124 27-07-2016 20:15:00 20.8 C 77 % 16.62 C
3125 27-07-2016 20:20:00 20.7 C 79 % 16.93 C
Sensor: Nr:Datum:Temp:Feuchte:Taupunkt:
Aussen-T/F 3126 27-07-2016 20:25:00 20.6 C 77 % 16.43 C
3127 27-07-2016 20:30:00 20.4 C 78 % 16.44 C
3128 27-07-2016 20:35:00 20.3 C 77 % 16.14 C
3129 27-07-2016 20:40:00 20.3 C 77 % 16.14 C
3130 27-07-2016 20:45:00 20.3 C 77 % 16.14 C
3131 27-07-2016 20:50:00 20.2 C 78 % 16.24 C
3132 27-07-2016 20:55:00 20.2 C 78 % 16.24 C
3133 27-07-2016 21:00:00 20.1 C 76 % 15.74 C
3134 27-07-2016 21:05:00 20.1 C 76 % 15.74 C
3135 27-07-2016 21:10:00 20.1 C 77 % 15.94 C
3136 27-07-2016 21:15:00 20.1 C 77 % 15.94 C
3137 27-07-2016 21:20:00 20.1 C 77 % 15.94 C
3138 27-07-2016 21:25:00 20.1 C 77 % 15.94 C
3139 27-07-2016 21:30:00 20 C 78 % 16.05 C
3140 27-07-2016 21:35:00 20 C 79 % 16.25 C
3141 27-07-2016 21:40:00 20 C 80 % 16.44 C
3142 27-07-2016 21:45:00 19.9 C 79 % 16.15 C
3143 27-07-2016 21:50:00 19.8 C 79 % 16.05 C
3144 27-07-2016 21:55:00 19.8 C 79 % 16.05 C
3145 27-07-2016 22:00:00 19.7 C 80 % 16.15 C
3146 27-07-2016 22:05:00 19.7 C 81 % 16.35 C
3147 27-07-2016 22:10:00 19.7 C 81 % 16.35 C
3148 27-07-2016 22:15:00 19.6 C 82 % 16.44 C
3149 27-07-2016 22:20:00 19.6 C 82 % 16.44 C
3150 27-07-2016 22:25:00 19.5 C 81 % 16.15 C
Sensor: Nr:Datum:Temp:Feuchte:Taupunkt:
Aussen-T/F 3151 27-07-2016 22:30:00 19.4 C 82 % 16.25 C
3152 27-07-2016 22:35:00 19.4 C 83 % 16.44 C
3153 27-07-2016 22:40:00 19.4 C 83 % 16.44 C
3154 27-07-2016 22:45:00 19.4 C 84 % 16.63 C
3155 27-07-2016 22:50:00 19.4 C 84 % 16.63 C
3156 27-07-2016 22:55:00 19.3 C 84 % 16.53 C
3157 27-07-2016 23:00:00 19.3 C 83 % 16.34 C
3158 27-07-2016 23:05:00 19.3 C 82 % 16.15 C
3159 27-07-2016 23:10:00 19.3 C 83 % 16.34 C
3160 27-07-2016 23:15:00 19.3 C 83 % 16.34 C
3161 27-07-2016 23:20:00 19.3 C 84 % 16.53 C
3162 27-07-2016 23:25:00 19.3 C 84 % 16.53 C
3163 27-07-2016 23:30:00 19.2 C 84 % 16.43 C
3164 27-07-2016 23:35:00 19.2 C 84 % 16.43 C
3165 27-07-2016 23:40:00 19.1 C 84 % 16.33 C
3166 27-07-2016 23:45:00 19.1 C 84 % 16.33 C
3167 27-07-2016 23:50:00 19 C 84 % 16.24 C
3168 27-07-2016 23:55:00 18.9 C 84 % 16.14 C
3169 28-07-2016 00:00:00 18.9 C 84 % 16.14 C
3170 28-07-2016 00:05:00 18.8 C 84 % 16.04 C
3171 28-07-2016 00:10:00 18.8 C 84 % 16.04 C
3172 28-07-2016 00:15:00 18.7 C 84 % 15.94 C
3173 28-07-2016 00:20:00 18.7 C 84 % 15.94 C
3174 28-07-2016 00:25:00 18.6 C 84 % 15.84 C
3175 28-07-2016 00:30:00 18.5 C 85 % 15.93 C
Sensor: Nr:Datum:Temp:Feuchte:Taupunkt:
Aussen-T/F 3176 28-07-2016 00:35:00 18.4 C 84 % 15.65 C
3177 28-07-2016 00:40:00 18.4 C 85 % 15.83 C
3178 28-07-2016 00:45:00 18.4 C 85 % 15.83 C
3179 28-07-2016 00:50:00 18.4 C 85 % 15.83 C
3180 28-07-2016 00:55:00 18.3 C 85 % 15.74 C
3181 28-07-2016 01:00:00 18.3 C 85 % 15.74 C
3182 28-07-2016 01:05:00 18.3 C 85 % 15.74 C
3183 28-07-2016 01:10:00 18.3 C 86 % 15.92 C
3184 28-07-2016 01:15:00 18.2 C 86 % 15.82 C
3185 28-07-2016 01:20:00 18.1 C 86 % 15.72 C
3186 28-07-2016 01:25:00 18.1 C 86 % 15.72 C
3187 28-07-2016 01:30:00 18 C 86 % 15.62 C
3188 28-07-2016 01:35:00 17.9 C 87 % 15.71 C
3189 28-07-2016 01:40:00 17.9 C 87 % 15.71 C
3190 28-07-2016 01:45:00 17.9 C 87 % 15.71 C
3191 28-07-2016 01:50:00 17.8 C 87 % 15.61 C
3192 28-07-2016 01:55:00 17.8 C 87 % 15.61 C
3193 28-07-2016 02:00:00 17.8 C 87 % 15.61 C
3194 28-07-2016 02:05:00 17.8 C 87 % 15.61 C
3195 28-07-2016 02:10:00 17.7 C 88 % 15.69 C
3196 28-07-2016 02:15:00 17.7 C 88 % 15.69 C
3197 28-07-2016 02:20:00 17.7 C 88 % 15.69 C
3198 28-07-2016 02:25:00 17.6 C 88 % 15.59 C
3199 28-07-2016 02:30:00 17.6 C 88 % 15.59 C
3200 28-07-2016 02:35:00 17.6 C 88 % 15.59 C
Sensor: Nr:Datum:Temp:Feuchte:Taupunkt:
Aussen-T/F 3201 28-07-2016 02:40:00 17.6 C 88 % 15.59 C
3202 28-07-2016 02:45:00 17.6 C 88 % 15.59 C
3203 28-07-2016 02:50:00 17.6 C 88 % 15.59 C
3204 28-07-2016 02:55:00 17.6 C 88 % 15.59 C
3205 28-07-2016 03:00:00 17.6 C 88 % 15.59 C
3206 28-07-2016 03:05:00 17.6 C 88 % 15.59 C
3207 28-07-2016 03:10:00 17.5 C 88 % 15.49 C
3208 28-07-2016 03:15:00 17.5 C 88 % 15.49 C
3209 28-07-2016 03:20:00 17.6 C 89 % 15.77 C
3210 28-07-2016 03:25:00 17.6 C 89 % 15.77 C
3211 28-07-2016 03:30:00 17.6 C 89 % 15.77 C
3212 28-07-2016 03:35:00 17.6 C 89 % 15.77 C
3213 28-07-2016 03:40:00 17.5 C 89 % 15.67 C
3214 28-07-2016 03:45:00 17.6 C 89 % 15.77 C
3215 28-07-2016 03:50:00 17.5 C 89 % 15.67 C
3216 28-07-2016 03:55:00 17.5 C 89 % 15.67 C
3217 28-07-2016 04:00:00 17.5 C 89 % 15.67 C
3218 28-07-2016 04:05:00 17.4 C 89 % 15.57 C
3219 28-07-2016 04:10:00 17.3 C 89 % 15.47 C
3220 28-07-2016 04:15:00 17.3 C 89 % 15.47 C
3221 28-07-2016 04:20:00 17.2 C 89 % 15.37 C
3222 28-07-2016 04:25:00 17.1 C 89 % 15.27 C
3223 28-07-2016 04:30:00 17.1 C 89 % 15.27 C
3224 28-07-2016 04:35:00 17.1 C 89 % 15.27 C
3225 28-07-2016 04:40:00 17 C 89 % 15.17 C
Sensor: Nr:Datum:Temp:Feuchte:Taupunkt:
Aussen-T/F 3226 28-07-2016 04:45:00 17 C 89 % 15.17 C
3227 28-07-2016 04:50:00 16.9 C 89 % 15.08 C
3228 28-07-2016 04:55:00 16.9 C 89 % 15.08 C
3229 28-07-2016 05:00:00 16.9 C 89 % 15.08 C
3230 28-07-2016 05:05:00 16.8 C 89 % 14.98 C
3231 28-07-2016 05:10:00 16.8 C 90 % 15.15 C
3232 28-07-2016 05:15:00 16.7 C 90 % 15.05 C
3233 28-07-2016 05:20:00 16.7 C 90 % 15.05 C
3234 28-07-2016 05:25:00 16.7 C 90 % 15.05 C
3235 28-07-2016 05:30:00 16.6 C 90 % 14.95 C
3236 28-07-2016 05:35:00 16.5 C 90 % 14.85 C
3237 28-07-2016 05:40:00 16.4 C 90 % 14.76 C
3238 28-07-2016 05:45:00 16.4 C 90 % 14.76 C
3239 28-07-2016 05:50:00 16.4 C 91 % 14.93 C
3240 28-07-2016 05:55:00 16.4 C 91 % 14.93 C
3241 28-07-2016 06:00:00 16.4 C 91 % 14.93 C
3242 28-07-2016 06:05:00 16.4 C 92 % 15.1 C
3243 28-07-2016 06:10:00 16.4 C 92 % 15.1 C
3244 28-07-2016 06:15:00 16.4 C 92 % 15.1 C
3245 28-07-2016 06:20:00 16.4 C 92 % 15.1 C
3246 28-07-2016 06:25:00 16.4 C 92 % 15.1 C
3247 28-07-2016 06:30:00 16.4 C 92 % 15.1 C
3248 28-07-2016 06:35:00 16.4 C 92 % 15.1 C
3249 28-07-2016 06:40:00 16.4 C 92 % 15.1 C
3250 28-07-2016 06:45:00 16.5 C 92 % 15.2 C
Sensor: Nr:Datum:Temp:Feuchte:Taupunkt:
Aussen-T/F 3251 28-07-2016 06:50:00 16.5 C 92 % 15.2 C
3252 28-07-2016 06:55:00 16.6 C 92 % 15.3 C
3253 28-07-2016 07:00:00 16.7 C 93 % 15.56 C
3254 28-07-2016 07:05:00 16.7 C 93 % 15.56 C
3255 28-07-2016 07:10:00 16.8 C 93 % 15.66 C
3256 28-07-2016 07:15:00 16.8 C 93 % 15.66 C
3257 28-07-2016 07:20:00 16.9 C 93 % 15.76 C
3258 28-07-2016 07:25:00 16.9 C 93 % 15.76 C
3259 28-07-2016 07:30:00 17.1 C 93 % 15.96 C
3260 28-07-2016 07:35:00 17.2 C 93 % 16.06 C
3261 28-07-2016 07:40:00 17.3 C 93 % 16.16 C
3262 28-07-2016 07:45:00 17.4 C 92 % 16.09 C
3263 28-07-2016 07:50:00 17.6 C 92 % 16.28 C
3264 28-07-2016 07:55:00 17.7 C 92 % 16.38 C
3265 28-07-2016 08:00:00 17.8 C 92 % 16.48 C
3266 28-07-2016 08:05:00 17.9 C 92 % 16.58 C
3267 28-07-2016 08:10:00 18 C 91 % 16.51 C
3268 28-07-2016 08:15:00 18.1 C 90 % 16.43 C
3269 28-07-2016 08:20:00 18.2 C 90 % 16.53 C
3270 28-07-2016 08:25:00 18.3 C 89 % 16.46 C
3271 28-07-2016 08:30:00 18.4 C 88 % 16.38 C
3272 28-07-2016 08:35:00 18.7 C 88 % 16.67 C
3273 28-07-2016 08:40:00 18.8 C 87 % 16.59 C
3274 28-07-2016 08:45:00 18.9 C 87 % 16.69 C
3275 28-07-2016 08:50:00 19.1 C 87 % 16.89 C
Sensor: Nr:Datum:Temp:Feuchte:Taupunkt:
Aussen-T/F 3276 28-07-2016 08:55:00 19.2 C 85 % 16.62 C
3277 28-07-2016 09:00:00 19.3 C 86 % 16.9 C
3278 28-07-2016 09:05:00 19.5 C 87 % 17.28 C
3279 28-07-2016 09:10:00 19.6 C 87 % 17.38 C
3280 28-07-2016 09:15:00 19.7 C 87 % 17.47 C
3281 28-07-2016 09:20:00 19.8 C 87 % 17.57 C
3282 28-07-2016 09:25:00 19.9 C 85 % 17.3 C
3283 28-07-2016 09:30:00 20.1 C 86 % 17.68 C
3284 28-07-2016 09:35:00 20.3 C 84 % 17.51 C
3285 28-07-2016 09:40:00 20.4 C 80 % 16.83 C
3286 28-07-2016 09:45:00 20.6 C 79 % 16.83 C
3287 28-07-2016 09:50:00 20.7 C 80 % 17.13 C
3288 28-07-2016 09:55:00 20.8 C 81 % 17.42 C
3289 28-07-2016 10:00:00 20.9 C 83 % 17.9 C
3290 28-07-2016 10:05:00 20.9 C 82 % 17.71 C
3291 28-07-2016 10:10:00 20.9 C 78 % 16.92 C
3292 28-07-2016 10:15:00 20.9 C 77 % 16.72 C
3293 28-07-2016 10:20:00 21.1 C 77 % 16.91 C
3294 28-07-2016 10:25:00 21.3 C 82 % 18.1 C
3295 28-07-2016 10:30:00 21.3 C 79 % 17.51 C
3296 28-07-2016 10:35:00 21.3 C 79 % 17.51 C
3297 28-07-2016 10:40:00 21.3 C 79 % 17.51 C
3298 28-07-2016 10:45:00 21.4 C 83 % 18.39 C
3299 28-07-2016 10:50:00 21.4 C 81 % 18 C
3300 28-07-2016 10:55:00 21.3 C 80 % 17.71 C
Sensor: Nr:Datum:Temp:Feuchte:Taupunkt:
Aussen-T/F 3301 28-07-2016 11:00:00 21.4 C 79 % 17.61 C
3302 28-07-2016 11:05:00 21.4 C 79 % 17.61 C
3303 28-07-2016 11:10:00 21.6 C 74 % 16.77 C
3304 28-07-2016 11:15:00 21.7 C 77 % 17.49 C
3305 28-07-2016 11:20:00 21.8 C 75 % 17.17 C
3306 28-07-2016 11:25:00 21.9 C 75 % 17.27 C
3307 28-07-2016 11:30:00 22 C 75 % 17.36 C
3308 28-07-2016 11:35:00 22 C 73 % 16.94 C
3309 28-07-2016 11:40:00 22.1 C 77 % 17.88 C
3310 28-07-2016 11:45:00 22.1 C 75 % 17.46 C
3311 28-07-2016 11:50:00 22.1 C 74 % 17.25 C
3312 28-07-2016 11:55:00 22.2 C 74 % 17.34 C
3313 28-07-2016 12:00:00 22.3 C 72 % 17.01 C
3314 28-07-2016 12:05:00 22.5 C 72 % 17.2 C
3315 28-07-2016 12:10:00 22.6 C 71 % 17.07 C
3316 28-07-2016 12:15:00 22.7 C 71 % 17.17 C
3317 28-07-2016 12:20:00 22.8 C 76 % 18.35 C
3318 28-07-2016 12:25:00 22.9 C 71 % 17.36 C
3319 28-07-2016 12:30:00 22.9 C 70 % 17.14 C
3320 28-07-2016 12:35:00 23.1 C 71 % 17.55 C
3321 28-07-2016 12:40:00 23.2 C 69 % 17.2 C
3322 28-07-2016 12:45:00 23.3 C 70 % 17.52 C
3323 28-07-2016 12:50:00 23.3 C 73 % 18.19 C
3324 28-07-2016 12:55:00 23.4 C 71 % 17.84 C
3325 28-07-2016 13:00:00 23.4 C 69 % 17.39 C
Sensor: Nr:Datum:Temp:Feuchte:Taupunkt:
Aussen-T/F 3326 28-07-2016 13:05:00 23.4 C 69 % 17.39 C
3327 28-07-2016 13:10:00 23.4 C 68 % 17.16 C
3328 28-07-2016 13:15:00 23.3 C 69 % 17.29 C
3329 28-07-2016 13:20:00 23.3 C 68 % 17.06 C
3330 28-07-2016 13:25:00 23.3 C 69 % 17.29 C
3331 28-07-2016 13:30:00 23.3 C 68 % 17.06 C
3332 28-07-2016 13:35:00 23.4 C 69 % 17.39 C
3333 28-07-2016 13:40:00 23.6 C 67 % 17.11 C
3334 28-07-2016 13:45:00 23.7 C 69 % 17.67 C
3335 28-07-2016 13:50:00 23.8 C 69 % 17.77 C
3336 28-07-2016 13:55:00 23.8 C 67 % 17.3 C
3337 28-07-2016 14:00:00 23.9 C 69 % 17.87 C
3338 28-07-2016 14:05:00 24.1 C 67 % 17.59 C
3339 28-07-2016 14:10:00 24.3 C 68 % 18.01 C
3340 28-07-2016 14:15:00 24.6 C 64 % 17.34 C
3341 28-07-2016 14:20:00 24.6 C 63 % 17.09 C
3342 28-07-2016 14:25:00 24.5 C 65 % 17.49 C
3343 28-07-2016 14:30:00 24.5 C 64 % 17.24 C
3344 28-07-2016 14:35:00 24.4 C 65 % 17.39 C
3345 28-07-2016 14:40:00 24.4 C 66 % 17.64 C
3346 28-07-2016 14:45:00 24.3 C 64 % 17.05 C
3347 28-07-2016 14:50:00 24.2 C 66 % 17.45 C
3348 28-07-2016 14:55:00 23.9 C 65 % 16.92 C
3349 28-07-2016 15:00:00 23.7 C 67 % 17.21 C
3350 28-07-2016 15:05:00 23.6 C 67 % 17.11 C
Sensor: Nr:Datum:Temp:Feuchte:Taupunkt:
Aussen-T/F 3351 28-07-2016 15:10:00 23.6 C 70 % 17.81 C
3352 28-07-2016 15:15:00 23.6 C 68 % 17.35 C
3353 28-07-2016 15:20:00 23.7 C 70 % 17.9 C
3354 28-07-2016 15:25:00 23.8 C 71 % 18.22 C
3355 28-07-2016 15:30:00 23.9 C 68 % 17.63 C
3356 28-07-2016 15:35:00 24.1 C 68 % 17.82 C
3357 28-07-2016 15:40:00 24.2 C 69 % 18.15 C
3358 28-07-2016 15:45:00 24.2 C 69 % 18.15 C
3359 28-07-2016 15:50:00 24.2 C 67 % 17.68 C
3360 28-07-2016 15:55:00 24.2 C 68 % 17.92 C
3361 28-07-2016 16:00:00 24.1 C 66 % 17.35 C
3362 28-07-2016 16:05:00 24.1 C 71 % 18.51 C
3363 28-07-2016 16:10:00 23.9 C 72 % 18.54 C
3364 28-07-2016 16:15:00 23.6 C 70 % 17.81 C
3365 28-07-2016 16:20:00 23.2 C 73 % 18.09 C
3366 28-07-2016 16:25:00 22.7 C 77 % 18.46 C
3367 28-07-2016 16:30:00 22 C 81 % 18.59 C
3368 28-07-2016 16:35:00 21.6 C 83 % 18.59 C
3369 28-07-2016 16:40:00 21.4 C 86 % 18.96 C
3370 28-07-2016 16:45:00 21.5 C 88 % 19.43 C
3371 28-07-2016 16:50:00 21.7 C 88 % 19.62 C
3372 28-07-2016 16:55:00 21.9 C 88 % 19.82 C
3373 28-07-2016 17:00:00 22.4 C 86 % 19.94 C
3374 28-07-2016 17:05:00 22.7 C 83 % 19.66 C
3375 28-07-2016 17:10:00 22.8 C 83 % 19.76 C
Sensor: Nr:Datum:Temp:Feuchte:Taupunkt:
Aussen-T/F 3376 28-07-2016 17:15:00 23 C 83 % 19.96 C
3377 28-07-2016 17:20:00 23.2 C 82 % 19.95 C
3378 28-07-2016 17:25:00 23.3 C 81 % 19.85 C
3379 28-07-2016 17:30:00 23.3 C 80 % 19.65 C
3380 28-07-2016 17:35:00 23.2 C 81 % 19.76 C
3381 28-07-2016 17:40:00 23.1 C 80 % 19.46 C
3382 28-07-2016 17:45:00 23.1 C 80 % 19.46 C
3383 28-07-2016 17:50:00 23.2 C 80 % 19.56 C
3384 28-07-2016 17:55:00 23.3 C 78 % 19.25 C
3385 28-07-2016 18:00:00 23.4 C 78 % 19.34 C
3386 28-07-2016 18:05:00 23.6 C 79 % 19.74 C
3387 28-07-2016 18:10:00 23.8 C 78 % 19.73 C
3388 28-07-2016 18:15:00 23.9 C 75 % 19.2 C
3389 28-07-2016 18:20:00 23.6 C 75 % 18.91 C
3390 28-07-2016 18:25:00 23.3 C 78 % 19.25 C
3391 28-07-2016 18:30:00 22.9 C 78 % 18.86 C
3392 28-07-2016 18:35:00 22.6 C 78 % 18.57 C
3393 28-07-2016 18:40:00 22.5 C 79 % 18.67 C
3394 28-07-2016 18:45:00 22.6 C 77 % 18.36 C
3395 28-07-2016 18:50:00 22.7 C 77 % 18.46 C
3396 28-07-2016 18:55:00 22.8 C 78 % 18.76 C
3397 28-07-2016 19:00:00 22.7 C 77 % 18.46 C
3398 28-07-2016 19:05:00 22.7 C 78 % 18.67 C
3399 28-07-2016 19:10:00 22.6 C 77 % 18.36 C
3400 28-07-2016 19:15:00 22.6 C 79 % 18.77 C
Sensor: Nr:Datum:Temp:Feuchte:Taupunkt:
Aussen-T/F 3401 28-07-2016 19:20:00 22.6 C 79 % 18.77 C
3402 28-07-2016 19:25:00 22.6 C 81 % 19.17 C
3403 28-07-2016 19:30:00 22.6 C 79 % 18.77 C
3404 28-07-2016 19:35:00 22.5 C 81 % 19.08 C
3405 28-07-2016 19:40:00 22.4 C 81 % 18.98 C
3406 28-07-2016 19:45:00 22.3 C 82 % 19.08 C
3407 28-07-2016 19:50:00 22.2 C 83 % 19.17 C
3408 28-07-2016 19:55:00 22.1 C 84 % 19.27 C
3409 28-07-2016 20:00:00 21.9 C 83 % 18.88 C
3410 28-07-2016 20:05:00 21.8 C 83 % 18.78 C
3411 28-07-2016 20:10:00 21.7 C 83 % 18.69 C
3412 28-07-2016 20:15:00 21.6 C 83 % 18.59 C
3413 28-07-2016 20:20:00 21.4 C 84 % 18.58 C
3414 28-07-2016 20:25:00 21.3 C 84 % 18.49 C
3415 28-07-2016 20:30:00 21.2 C 85 % 18.58 C
3416 28-07-2016 20:35:00 21 C 85 % 18.38 C
3417 28-07-2016 20:40:00 20.9 C 86 % 18.47 C
3418 28-07-2016 20:45:00 20.8 C 86 % 18.37 C
3419 28-07-2016 20:50:00 20.7 C 86 % 18.27 C
3420 28-07-2016 20:55:00 20.6 C 86 % 18.18 C
3421 28-07-2016 21:00:00 20.4 C 87 % 18.16 C
3422 28-07-2016 21:05:00 20.2 C 87 % 17.97 C
3423 28-07-2016 21:10:00 20.1 C 87 % 17.87 C
3424 28-07-2016 21:15:00 20 C 88 % 17.95 C
3425 28-07-2016 21:20:00 19.9 C 88 % 17.85 C
Sensor: Nr:Datum:Temp:Feuchte:Taupunkt:
Aussen-T/F 3426 28-07-2016 21:25:00 19.7 C 88 % 17.66 C
3427 28-07-2016 21:30:00 19.6 C 88 % 17.56 C
3428 28-07-2016 21:35:00 19.5 C 88 % 17.46 C
3429 28-07-2016 21:40:00 19.4 C 89 % 17.54 C
3430 28-07-2016 21:45:00 19.3 C 89 % 17.44 C
3431 28-07-2016 21:50:00 19.3 C 90 % 17.62 C
3432 28-07-2016 21:55:00 19.2 C 90 % 17.52 C
3433 28-07-2016 22:00:00 19.1 C 90 % 17.42 C
3434 28-07-2016 22:05:00 19.1 C 90 % 17.42 C
3435 28-07-2016 22:10:00 18.9 C 90 % 17.22 C
3436 28-07-2016 22:15:00 18.9 C 91 % 17.4 C
3437 28-07-2016 22:20:00 18.9 C 91 % 17.4 C
3438 28-07-2016 22:25:00 18.8 C 91 % 17.3 C
3439 28-07-2016 22:30:00 18.8 C 91 % 17.3 C
3440 28-07-2016 22:35:00 18.8 C 91 % 17.3 C
3441 28-07-2016 22:40:00 18.7 C 91 % 17.2 C
3442 28-07-2016 22:45:00 18.7 C 92 % 17.37 C
3443 28-07-2016 22:50:00 18.6 C 92 % 17.27 C
3444 28-07-2016 22:55:00 18.6 C 92 % 17.27 C
3445 28-07-2016 23:00:00 18.6 C 92 % 17.27 C
3446 28-07-2016 23:05:00 18.6 C 92 % 17.27 C
3447 28-07-2016 23:10:00 18.5 C 92 % 17.18 C
3448 28-07-2016 23:15:00 18.5 C 92 % 17.18 C
3449 28-07-2016 23:20:00 18.5 C 93 % 17.35 C
3450 28-07-2016 23:25:00 18.4 C 93 % 17.25 C
Sensor: Nr:Datum:Temp:Feuchte:Taupunkt:
Aussen-T/F 3451 28-07-2016 23:30:00 18.4 C 93 % 17.25 C
3452 28-07-2016 23:35:00 18.4 C 93 % 17.25 C
3453 28-07-2016 23:40:00 18.5 C 93 % 17.35 C
3454 28-07-2016 23:45:00 18.5 C 93 % 17.35 C
3455 28-07-2016 23:50:00 18.4 C 93 % 17.25 C
3456 28-07-2016 23:55:00 18.4 C 93 % 17.25 C
3457 29-07-2016 00:00:00 18.4 C 93 % 17.25 C
3458 29-07-2016 00:05:00 18.3 C 93 % 17.15 C
3459 29-07-2016 00:10:00 18.3 C 93 % 17.15 C
3460 29-07-2016 00:15:00 18.3 C 93 % 17.15 C
3461 29-07-2016 00:20:00 18.4 C 93 % 17.25 C
3462 29-07-2016 00:25:00 18.3 C 93 % 17.15 C
3463 29-07-2016 00:30:00 18.3 C 93 % 17.15 C
3464 29-07-2016 00:35:00 18.3 C 93 % 17.15 C
3465 29-07-2016 00:40:00 18.2 C 93 % 17.05 C
3466 29-07-2016 00:45:00 18.2 C 92 % 16.88 C
3467 29-07-2016 00:50:00 18.1 C 92 % 16.78 C
3468 29-07-2016 00:55:00 18.1 C 92 % 16.78 C
3469 29-07-2016 01:00:00 17.9 C 92 % 16.58 C
3470 29-07-2016 01:05:00 17.9 C 92 % 16.58 C
3471 29-07-2016 01:10:00 17.8 C 92 % 16.48 C
3472 29-07-2016 01:15:00 17.7 C 92 % 16.38 C
3473 29-07-2016 01:20:00 17.6 C 92 % 16.28 C
3474 29-07-2016 01:25:00 17.6 C 92 % 16.28 C
3475 29-07-2016 01:30:00 17.4 C 92 % 16.09 C
Sensor: Nr:Datum:Temp:Feuchte:Taupunkt:
Aussen-T/F 3476 29-07-2016 01:35:00 17.4 C 92 % 16.09 C
3477 29-07-2016 01:40:00 17.3 C 92 % 15.99 C
3478 29-07-2016 01:45:00 17.2 C 92 % 15.89 C
3479 29-07-2016 01:50:00 17.2 C 92 % 15.89 C
3480 29-07-2016 01:55:00 17.1 C 92 % 15.79 C
3481 29-07-2016 02:00:00 16.9 C 92 % 15.59 C
3482 29-07-2016 02:05:00 16.8 C 92 % 15.49 C
3483 29-07-2016 02:10:00 16.7 C 92 % 15.39 C
3484 29-07-2016 02:15:00 16.6 C 92 % 15.3 C
3485 29-07-2016 02:20:00 16.5 C 92 % 15.2 C
3486 29-07-2016 02:25:00 16.4 C 92 % 15.1 C
3487 29-07-2016 02:30:00 16.3 C 92 % 15 C
3488 29-07-2016 02:35:00 16.3 C 93 % 15.17 C
3489 29-07-2016 02:40:00 16.2 C 93 % 15.07 C
3490 29-07-2016 02:45:00 16.1 C 93 % 14.97 C
3491 29-07-2016 02:50:00 16 C 93 % 14.87 C
3492 29-07-2016 02:55:00 15.9 C 93 % 14.77 C
3493 29-07-2016 03:00:00 15.9 C 93 % 14.77 C
3494 29-07-2016 03:05:00 15.8 C 93 % 14.67 C
3495 29-07-2016 03:10:00 15.8 C 93 % 14.67 C
3496 29-07-2016 03:15:00 15.7 C 93 % 14.57 C
3497 29-07-2016 03:20:00 15.6 C 93 % 14.47 C
3498 29-07-2016 03:25:00 15.6 C 93 % 14.47 C
3499 29-07-2016 03:30:00 15.5 C 93 % 14.37 C
3500 29-07-2016 03:35:00 15.5 C 94 % 14.54 C
Sensor: Nr:Datum:Temp:Feuchte:Taupunkt:
Aussen-T/F 3501 29-07-2016 03:40:00 15.6 C 94 % 14.64 C
3502 29-07-2016 03:45:00 15.5 C 94 % 14.54 C
3503 29-07-2016 03:50:00 15.5 C 94 % 14.54 C
3504 29-07-2016 03:55:00 15.7 C 95 % 14.9 C
3505 29-07-2016 04:00:00 15.8 C 95 % 15 C
3506 29-07-2016 04:05:00 15.9 C 95 % 15.1 C
3507 29-07-2016 04:10:00 16 C 95 % 15.2 C
3508 29-07-2016 04:15:00 16.2 C 95 % 15.4 C
3509 29-07-2016 04:20:00 16.2 C 95 % 15.4 C
3510 29-07-2016 04:25:00 16.3 C 94 % 15.33 C
3511 29-07-2016 04:30:00 16.3 C 94 % 15.33 C
3512 29-07-2016 04:35:00 16.4 C 94 % 15.43 C
3513 29-07-2016 04:40:00 16.4 C 94 % 15.43 C
3514 29-07-2016 04:45:00 16.4 C 94 % 15.43 C
3515 29-07-2016 04:50:00 16.4 C 94 % 15.43 C
3516 29-07-2016 04:55:00 16.5 C 94 % 15.53 C
3517 29-07-2016 05:00:00 16.6 C 94 % 15.63 C
3518 29-07-2016 05:05:00 16.6 C 94 % 15.63 C
3519 29-07-2016 05:10:00 16.6 C 94 % 15.63 C
3520 29-07-2016 05:15:00 16.7 C 94 % 15.73 C
3521 29-07-2016 05:20:00 16.7 C 94 % 15.73 C
3522 29-07-2016 05:25:00 16.7 C 94 % 15.73 C
3523 29-07-2016 05:30:00 16.7 C 94 % 15.73 C
3524 29-07-2016 05:35:00 16.7 C 94 % 15.73 C
3525 29-07-2016 05:40:00 16.7 C 94 % 15.73 C
Sensor: Nr:Datum:Temp:Feuchte:Taupunkt:
Aussen-T/F 3526 29-07-2016 05:45:00 16.7 C 94 % 15.73 C
3527 29-07-2016 05:50:00 16.7 C 94 % 15.73 C
3528 29-07-2016 05:55:00 16.7 C 94 % 15.73 C
3529 29-07-2016 06:00:00 16.7 C 94 % 15.73 C
3530 29-07-2016 06:05:00 16.7 C 94 % 15.73 C
3531 29-07-2016 06:10:00 16.7 C 94 % 15.73 C
3532 29-07-2016 06:15:00 16.7 C 94 % 15.73 C
3533 29-07-2016 06:20:00 16.7 C 94 % 15.73 C
3534 29-07-2016 06:25:00 16.7 C 94 % 15.73 C
3535 29-07-2016 06:30:00 16.6 C 94 % 15.63 C
3536 29-07-2016 06:35:00 16.6 C 94 % 15.63 C
3537 29-07-2016 06:40:00 16.6 C 94 % 15.63 C
3538 29-07-2016 06:45:00 16.7 C 94 % 15.73 C
3539 29-07-2016 06:50:00 16.7 C 95 % 15.9 C
3540 29-07-2016 06:55:00 16.8 C 95 % 15.99 C
3541 29-07-2016 07:00:00 16.8 C 95 % 15.99 C
3542 29-07-2016 07:05:00 16.9 C 95 % 16.09 C
3543 29-07-2016 07:10:00 16.9 C 95 % 16.09 C
3544 29-07-2016 07:15:00 17 C 95 % 16.19 C
3545 29-07-2016 07:20:00 17 C 95 % 16.19 C
3546 29-07-2016 07:25:00 17 C 95 % 16.19 C
3547 29-07-2016 07:30:00 17.1 C 95 % 16.29 C
3548 29-07-2016 07:35:00 17.1 C 95 % 16.29 C
3549 29-07-2016 07:40:00 17.1 C 95 % 16.29 C
3550 29-07-2016 07:45:00 17.2 C 95 % 16.39 C
Sensor: Nr:Datum:Temp:Feuchte:Taupunkt:
Aussen-T/F 3551 29-07-2016 07:50:00 17.1 C 95 % 16.29 C
3552 29-07-2016 07:55:00 17.2 C 95 % 16.39 C
3553 29-07-2016 08:00:00 17.2 C 95 % 16.39 C
3554 29-07-2016 08:05:00 17.3 C 95 % 16.49 C
3555 29-07-2016 08:10:00 17.4 C 95 % 16.59 C
3556 29-07-2016 08:15:00 17.4 C 95 % 16.59 C
3557 29-07-2016 08:20:00 17.4 C 95 % 16.59 C
3558 29-07-2016 08:25:00 17.4 C 94 % 16.42 C
3559 29-07-2016 08:30:00 17.4 C 94 % 16.42 C
3560 29-07-2016 08:35:00 17.5 C 94 % 16.52 C
3561 29-07-2016 08:40:00 17.6 C 94 % 16.62 C
3562 29-07-2016 08:45:00 17.6 C 93 % 16.45 C
3563 29-07-2016 08:50:00 17.7 C 93 % 16.55 C
3564 29-07-2016 08:55:00 17.8 C 93 % 16.65 C
3565 29-07-2016 09:00:00 17.9 C 92 % 16.58 C
3566 29-07-2016 09:05:00 18 C 92 % 16.68 C
3567 29-07-2016 09:10:00 18.2 C 91 % 16.71 C
3568 29-07-2016 09:15:00 18.3 C 91 % 16.81 C
3569 29-07-2016 09:20:00 18.3 C 90 % 16.63 C
3570 29-07-2016 09:25:00 18.5 C 89 % 16.65 C
3571 29-07-2016 09:30:00 18.7 C 89 % 16.85 C
3572 29-07-2016 09:35:00 18.7 C 88 % 16.67 C
3573 29-07-2016 09:40:00 18.8 C 87 % 16.59 C
3574 29-07-2016 09:45:00 18.9 C 87 % 16.69 C
3575 29-07-2016 09:50:00 19.1 C 87 % 16.89 C
Sensor: Nr:Datum:Temp:Feuchte:Taupunkt:
Aussen-T/F 3576 29-07-2016 09:55:00 19.2 C 87 % 16.98 C
3577 29-07-2016 10:00:00 19.2 C 86 % 16.8 C
3578 29-07-2016 10:05:00 19.2 C 86 % 16.8 C
3579 29-07-2016 10:10:00 19.3 C 87 % 17.08 C
3580 29-07-2016 10:15:00 19.3 C 88 % 17.26 C
3581 29-07-2016 10:20:00 19.3 C 88 % 17.26 C
3582 29-07-2016 10:25:00 19.3 C 88 % 17.26 C
3583 29-07-2016 10:30:00 19.3 C 88 % 17.26 C
3584 29-07-2016 10:35:00 19.3 C 88 % 17.26 C
3585 29-07-2016 10:40:00 19.3 C 88 % 17.26 C
3586 29-07-2016 10:45:00 19.3 C 89 % 17.44 C
3587 29-07-2016 10:50:00 19.4 C 89 % 17.54 C
3588 29-07-2016 10:55:00 19.3 C 89 % 17.44 C
3589 29-07-2016 11:00:00 19.3 C 90 % 17.62 C
3590 29-07-2016 11:05:00 19.4 C 91 % 17.89 C
3591 29-07-2016 11:10:00 19.4 C 91 % 17.89 C
3592 29-07-2016 11:15:00 19.4 C 91 % 17.89 C
3593 29-07-2016 11:20:00 19.5 C 91 % 17.99 C
3594 29-07-2016 11:25:00 19.5 C 91 % 17.99 C
3595 29-07-2016 11:30:00 19.4 C 91 % 17.89 C
3596 29-07-2016 11:35:00 19.5 C 91 % 17.99 C
3597 29-07-2016 11:40:00 19.7 C 92 % 18.36 C
3598 29-07-2016 11:45:00 19.9 C 92 % 18.56 C
3599 29-07-2016 11:50:00 19.9 C 90 % 18.21 C
3600 29-07-2016 11:55:00 20.1 C 90 % 18.41 C
Sensor: Nr:Datum:Temp:Feuchte:Taupunkt:
Aussen-T/F 3601 29-07-2016 12:00:00 20.2 C 90 % 18.51 C
3602 29-07-2016 12:05:00 20.4 C 90 % 18.7 C
3603 29-07-2016 12:10:00 20.4 C 88 % 18.34 C
3604 29-07-2016 12:15:00 20.7 C 90 % 19 C
3605 29-07-2016 12:20:00 20.9 C 91 % 19.37 C
3606 29-07-2016 12:25:00 21 C 90 % 19.3 C
3607 29-07-2016 12:30:00 21.1 C 87 % 18.85 C
3608 29-07-2016 12:35:00 21.2 C 87 % 18.95 C
3609 29-07-2016 12:40:00 21.3 C 89 % 19.41 C
3610 29-07-2016 12:45:00 21.4 C 85 % 18.77 C
3611 29-07-2016 12:50:00 21.7 C 83 % 18.69 C
3612 29-07-2016 12:55:00 22 C 83 % 18.98 C
3613 29-07-2016 13:00:00 22.3 C 81 % 18.88 C
3614 29-07-2016 13:05:00 22.4 C 79 % 18.58 C
3615 29-07-2016 13:10:00 22.3 C 80 % 18.68 C
3616 29-07-2016 13:15:00 22.3 C 80 % 18.68 C
3617 29-07-2016 13:20:00 22.4 C 81 % 18.98 C
3618 29-07-2016 13:25:00 22.6 C 83 % 19.56 C
3619 29-07-2016 13:30:00 22.8 C 80 % 19.17 C
3620 29-07-2016 13:35:00 22.9 C 79 % 19.06 C
3621 29-07-2016 13:40:00 22.9 C 76 % 18.44 C
3622 29-07-2016 13:45:00 23.1 C 77 % 18.85 C
3623 29-07-2016 13:50:00 23.3 C 78 % 19.25 C
3624 29-07-2016 13:55:00 23.4 C 73 % 18.28 C
3625 29-07-2016 14:00:00 23.6 C 73 % 18.48 C
Sensor: Nr:Datum:Temp:Feuchte:Taupunkt:
Aussen-T/F 3626 29-07-2016 14:05:00 23.6 C 73 % 18.48 C
3627 29-07-2016 14:10:00 23.7 C 75 % 19 C
3628 29-07-2016 14:15:00 23.9 C 71 % 18.32 C
3629 29-07-2016 14:20:00 24.1 C 71 % 18.51 C
3630 29-07-2016 14:25:00 24.2 C 71 % 18.61 C
3631 29-07-2016 14:30:00 24.3 C 72 % 18.93 C
3632 29-07-2016 14:35:00 24.4 C 68 % 18.11 C
3633 29-07-2016 14:40:00 24.7 C 72 % 19.31 C
3634 29-07-2016 14:45:00 24.8 C 70 % 18.95 C
3635 29-07-2016 14:50:00 25.1 C 67 % 18.54 C
3636 29-07-2016 14:55:00 25.1 C 67 % 18.54 C
3637 29-07-2016 15:00:00 24.8 C 67 % 18.25 C
3638 29-07-2016 15:05:00 24.4 C 69 % 18.34 C
3639 29-07-2016 15:10:00 24.3 C 69 % 18.25 C
3640 29-07-2016 15:15:00 24.3 C 68 % 18.01 C
3641 29-07-2016 15:20:00 24.2 C 68 % 17.92 C
3642 29-07-2016 15:25:00 24.1 C 68 % 17.82 C
3643 29-07-2016 15:30:00 23.8 C 73 % 18.67 C
3644 29-07-2016 15:35:00 23.4 C 76 % 18.93 C
3645 29-07-2016 15:40:00 22.8 C 77 % 18.56 C
3646 29-07-2016 15:45:00 22.6 C 79 % 18.77 C
3647 29-07-2016 15:50:00 22.9 C 78 % 18.86 C
3648 29-07-2016 15:55:00 23.1 C 75 % 18.43 C
3649 29-07-2016 16:00:00 23.4 C 74 % 18.5 C
3650 29-07-2016 16:05:00 23.6 C 71 % 18.03 C
Sensor: Nr:Datum:Temp:Feuchte:Taupunkt:
Aussen-T/F 3651 29-07-2016 16:10:00 23.8 C 70 % 18 C
3652 29-07-2016 16:15:00 24.2 C 70 % 18.38 C
3653 29-07-2016 16:20:00 24.4 C 69 % 18.34 C
3654 29-07-2016 16:25:00 24.4 C 68 % 18.11 C
3655 29-07-2016 16:30:00 24.2 C 68 % 17.92 C
3656 29-07-2016 16:35:00 23.8 C 71 % 18.22 C
3657 29-07-2016 16:40:00 24.2 C 72 % 18.83 C
3658 29-07-2016 16:45:00 24.6 C 69 % 18.53 C
3659 29-07-2016 16:50:00 24.8 C 68 % 18.49 C
3660 29-07-2016 16:55:00 24.6 C 68 % 18.3 C
3661 29-07-2016 17:00:00 24.2 C 69 % 18.15 C
3662 29-07-2016 17:05:00 23.9 C 69 % 17.87 C
3663 29-07-2016 17:10:00 23.8 C 74 % 18.89 C
3664 29-07-2016 17:15:00 23.6 C 75 % 18.91 C
3665 29-07-2016 17:20:00 23.3 C 74 % 18.4 C
3666 29-07-2016 17:25:00 23.2 C 74 % 18.31 C
3667 29-07-2016 17:30:00 23.1 C 75 % 18.43 C
3668 29-07-2016 17:35:00 23.2 C 74 % 18.31 C
3669 29-07-2016 17:40:00 23.9 C 71 % 18.32 C
3670 29-07-2016 17:45:00 24.7 C 68 % 18.4 C
3671 29-07-2016 17:50:00 25.4 C 67 % 18.82 C
3672 29-07-2016 17:55:00 25.6 C 64 % 18.28 C
3673 29-07-2016 18:00:00 25.4 C 68 % 19.06 C
3674 29-07-2016 18:05:00 25.1 C 67 % 18.54 C
3675 29-07-2016 18:10:00 24.7 C 68 % 18.4 C
Sensor: Nr:Datum:Temp:Feuchte:Taupunkt:
Aussen-T/F 3676 29-07-2016 18:15:00 24.3 C 70 % 18.48 C
3677 29-07-2016 18:20:00 24 C 73 % 18.86 C
3678 29-07-2016 18:25:00 23.8 C 74 % 18.89 C
3679 29-07-2016 18:30:00 23.5 C 74 % 18.6 C
3680 29-07-2016 18:35:00 23.2 C 72 % 17.87 C
3681 29-07-2016 18:40:00 23.3 C 71 % 17.75 C
3682 29-07-2016 18:45:00 23.4 C 72 % 18.06 C
3683 29-07-2016 18:50:00 23.4 C 72 % 18.06 C
3684 29-07-2016 18:55:00 23.4 C 73 % 18.28 C
3685 29-07-2016 19:00:00 23.4 C 73 % 18.28 C
3686 29-07-2016 19:05:00 23.4 C 74 % 18.5 C
3687 29-07-2016 19:10:00 23.2 C 74 % 18.31 C
3688 29-07-2016 19:15:00 22.9 C 74 % 18.02 C
3689 29-07-2016 19:20:00 22.8 C 75 % 18.14 C
3690 29-07-2016 19:25:00 22.7 C 76 % 18.25 C
3691 29-07-2016 19:30:00 22.6 C 75 % 17.94 C
3692 29-07-2016 19:35:00 22.4 C 75 % 17.75 C
3693 29-07-2016 19:40:00 22.3 C 76 % 17.86 C
3694 29-07-2016 19:45:00 22.1 C 77 % 17.88 C
3695 29-07-2016 19:50:00 22.1 C 78 % 18.08 C
3696 29-07-2016 19:55:00 22.3 C 77 % 18.07 C
3697 29-07-2016 20:00:00 22.4 C 75 % 17.75 C
3698 29-07-2016 20:05:00 22.5 C 73 % 17.42 C
3699 29-07-2016 20:10:00 22.5 C 74 % 17.63 C
3700 29-07-2016 20:15:00 22.5 C 75 % 17.85 C
Sensor: Nr:Datum:Temp:Feuchte:Taupunkt:
Aussen-T/F 3701 29-07-2016 20:20:00 22.5 C 76 % 18.06 C
3702 29-07-2016 20:25:00 22.4 C 75 % 17.75 C
3703 29-07-2016 20:30:00 22.3 C 76 % 17.86 C
3704 29-07-2016 20:35:00 22.1 C 76 % 17.67 C
3705 29-07-2016 20:40:00 21.8 C 76 % 17.38 C
3706 29-07-2016 20:45:00 21.6 C 78 % 17.6 C
3707 29-07-2016 20:50:00 21.3 C 78 % 17.31 C
3708 29-07-2016 20:55:00 21.1 C 79 % 17.32 C
3709 29-07-2016 21:00:00 20.9 C 80 % 17.32 C
3710 29-07-2016 21:05:00 20.7 C 81 % 17.32 C
3711 29-07-2016 21:10:00 20.5 C 82 % 17.32 C
3712 29-07-2016 21:15:00 20.3 C 82 % 17.13 C
3713 29-07-2016 21:20:00 20.1 C 83 % 17.12 C
3714 29-07-2016 21:25:00 19.9 C 83 % 16.93 C
3715 29-07-2016 21:30:00 19.8 C 84 % 17.02 C
3716 29-07-2016 21:35:00 19.6 C 84 % 16.82 C
3717 29-07-2016 21:40:00 19.4 C 85 % 16.81 C
3718 29-07-2016 21:45:00 19.3 C 85 % 16.72 C
3719 29-07-2016 21:50:00 19.1 C 86 % 16.7 C
3720 29-07-2016 21:55:00 19 C 86 % 16.6 C
3721 29-07-2016 22:00:00 18.9 C 86 % 16.51 C
3722 29-07-2016 22:05:00 18.9 C 86 % 16.51 C
3723 29-07-2016 22:10:00 18.8 C 87 % 16.59 C
3724 29-07-2016 22:15:00 18.8 C 87 % 16.59 C
3725 29-07-2016 22:20:00 18.8 C 88 % 16.77 C
Sensor: Nr:Datum:Temp:Feuchte:Taupunkt:
Aussen-T/F 3726 29-07-2016 22:25:00 18.8 C 88 % 16.77 C
3727 29-07-2016 22:30:00 18.9 C 88 % 16.87 C
3728 29-07-2016 22:35:00 18.9 C 89 % 17.05 C
3729 29-07-2016 22:40:00 18.9 C 89 % 17.05 C
3730 29-07-2016 22:45:00 18.9 C 89 % 17.05 C
3731 29-07-2016 22:50:00 18.9 C 89 % 17.05 C
3732 29-07-2016 22:55:00 18.8 C 88 % 16.77 C
3733 29-07-2016 23:00:00 18.8 C 88 % 16.77 C
3734 29-07-2016 23:05:00 18.8 C 88 % 16.77 C
3735 29-07-2016 23:10:00 18.8 C 88 % 16.77 C
3736 29-07-2016 23:15:00 18.7 C 88 % 16.67 C
3737 29-07-2016 23:20:00 18.7 C 88 % 16.67 C
3738 29-07-2016 23:25:00 18.7 C 88 % 16.67 C
3739 29-07-2016 23:30:00 18.7 C 88 % 16.67 C
3740 29-07-2016 23:35:00 18.7 C 89 % 16.85 C
3741 29-07-2016 23:40:00 18.7 C 89 % 16.85 C
3742 29-07-2016 23:45:00 18.7 C 89 % 16.85 C
3743 29-07-2016 23:50:00 18.7 C 89 % 16.85 C
3744 29-07-2016 23:55:00 18.7 C 89 % 16.85 C
3745 30-07-2016 00:00:00 18.8 C 89 % 16.95 C
3746 30-07-2016 00:05:00 18.8 C 89 % 16.95 C
3747 30-07-2016 00:10:00 18.8 C 89 % 16.95 C
3748 30-07-2016 00:15:00 18.8 C 89 % 16.95 C
3749 30-07-2016 00:20:00 18.8 C 88 % 16.77 C
3750 30-07-2016 00:25:00 18.8 C 89 % 16.95 C
Sensor: Nr:Datum:Temp:Feuchte:Taupunkt:
Aussen-T/F 3751 30-07-2016 00:30:00 18.8 C 89 % 16.95 C
3752 30-07-2016 00:35:00 18.8 C 89 % 16.95 C
3753 30-07-2016 00:40:00 18.8 C 89 % 16.95 C
3754 30-07-2016 00:45:00 18.8 C 89 % 16.95 C
3755 30-07-2016 00:50:00 18.8 C 89 % 16.95 C
3756 30-07-2016 00:55:00 18.8 C 89 % 16.95 C
3757 30-07-2016 01:00:00 18.8 C 89 % 16.95 C
3758 30-07-2016 01:05:00 18.8 C 89 % 16.95 C
3759 30-07-2016 01:10:00 18.8 C 89 % 16.95 C
3760 30-07-2016 01:15:00 18.8 C 89 % 16.95 C
3761 30-07-2016 01:20:00 18.8 C 89 % 16.95 C
3762 30-07-2016 01:25:00 18.8 C 89 % 16.95 C
3763 30-07-2016 01:30:00 18.8 C 89 % 16.95 C
3764 30-07-2016 01:35:00 18.8 C 89 % 16.95 C
3765 30-07-2016 01:40:00 18.8 C 89 % 16.95 C
3766 30-07-2016 01:45:00 18.8 C 90 % 17.12 C
3767 30-07-2016 01:50:00 18.8 C 90 % 17.12 C
3768 30-07-2016 01:55:00 18.8 C 89 % 16.95 C
3769 30-07-2016 02:00:00 18.8 C 89 % 16.95 C
3770 30-07-2016 02:05:00 18.8 C 89 % 16.95 C
3771 30-07-2016 02:10:00 18.8 C 90 % 17.12 C
3772 30-07-2016 02:15:00 18.8 C 90 % 17.12 C
3773 30-07-2016 02:20:00 18.8 C 90 % 17.12 C
3774 30-07-2016 02:25:00 18.8 C 91 % 17.3 C
3775 30-07-2016 02:30:00 18.7 C 91 % 17.2 C
Sensor: Nr:Datum:Temp:Feuchte:Taupunkt:
Aussen-T/F 3776 30-07-2016 02:35:00 18.7 C 91 % 17.2 C
3777 30-07-2016 02:40:00 18.6 C 91 % 17.1 C
3778 30-07-2016 02:45:00 18.4 C 90 % 16.73 C
3779 30-07-2016 02:50:00 18.2 C 91 % 16.71 C
3780 30-07-2016 02:55:00 18.2 C 92 % 16.88 C
3781 30-07-2016 03:00:00 18.2 C 92 % 16.88 C
3782 30-07-2016 03:05:00 18.2 C 92 % 16.88 C
3783 30-07-2016 03:10:00 18.2 C 92 % 16.88 C
3784 30-07-2016 03:15:00 18.2 C 92 % 16.88 C
3785 30-07-2016 03:20:00 18.2 C 92 % 16.88 C
3786 30-07-2016 03:25:00 18.1 C 93 % 16.95 C
3787 30-07-2016 03:30:00 18.1 C 93 % 16.95 C
3788 30-07-2016 03:35:00 18.1 C 93 % 16.95 C
3789 30-07-2016 03:40:00 18.1 C 93 % 16.95 C
3790 30-07-2016 03:45:00 18.1 C 93 % 16.95 C
3791 30-07-2016 03:50:00 18.1 C 93 % 16.95 C
3792 30-07-2016 03:55:00 18.1 C 93 % 16.95 C
3793 30-07-2016 04:00:00 18.1 C 93 % 16.95 C
3794 30-07-2016 04:05:00 18.1 C 93 % 16.95 C
3795 30-07-2016 04:10:00 18.1 C 93 % 16.95 C
3796 30-07-2016 04:15:00 18.1 C 93 % 16.95 C
3797 30-07-2016 04:20:00 18.1 C 93 % 16.95 C
3798 30-07-2016 04:25:00 18.1 C 93 % 16.95 C
3799 30-07-2016 04:30:00 18.1 C 93 % 16.95 C
3800 30-07-2016 04:35:00 18.1 C 93 % 16.95 C
Sensor: Nr:Datum:Temp:Feuchte:Taupunkt:
Aussen-T/F 3801 30-07-2016 04:40:00 18.1 C 94 % 17.12 C
3802 30-07-2016 04:45:00 18.1 C 94 % 17.12 C
3803 30-07-2016 04:50:00 18.1 C 93 % 16.95 C
3804 30-07-2016 04:55:00 18.1 C 93 % 16.95 C
3805 30-07-2016 05:00:00 18.1 C 93 % 16.95 C
3806 30-07-2016 05:05:00 18 C 93 % 16.85 C
3807 30-07-2016 05:10:00 17.9 C 93 % 16.75 C
3808 30-07-2016 05:15:00 17.8 C 93 % 16.65 C
3809 30-07-2016 05:20:00 17.8 C 93 % 16.65 C
3810 30-07-2016 05:25:00 17.7 C 93 % 16.55 C
3811 30-07-2016 05:30:00 17.5 C 93 % 16.36 C
3812 30-07-2016 05:35:00 17.4 C 93 % 16.26 C
3813 30-07-2016 05:40:00 17.3 C 93 % 16.16 C
3814 30-07-2016 05:45:00 17.3 C 93 % 16.16 C
3815 30-07-2016 05:50:00 17.3 C 93 % 16.16 C
3816 30-07-2016 05:55:00 17.2 C 93 % 16.06 C
3817 30-07-2016 06:00:00 17.2 C 93 % 16.06 C
3818 30-07-2016 06:05:00 17.2 C 93 % 16.06 C
3819 30-07-2016 06:10:00 17.2 C 94 % 16.23 C
3820 30-07-2016 06:15:00 17.2 C 94 % 16.23 C
3821 30-07-2016 06:20:00 17.2 C 94 % 16.23 C
3822 30-07-2016 06:25:00 17.2 C 94 % 16.23 C
3823 30-07-2016 06:30:00 17.2 C 94 % 16.23 C
3824 30-07-2016 06:35:00 17.2 C 94 % 16.23 C
3825 30-07-2016 06:40:00 17.2 C 94 % 16.23 C
Sensor: Nr:Datum:Temp:Feuchte:Taupunkt:
Aussen-T/F 3826 30-07-2016 06:45:00 17.3 C 94 % 16.33 C
3827 30-07-2016 06:50:00 17.3 C 94 % 16.33 C
3828 30-07-2016 06:55:00 17.4 C 94 % 16.42 C
3829 30-07-2016 07:00:00 17.5 C 95 % 16.69 C
3830 30-07-2016 07:05:00 17.6 C 95 % 16.79 C
3831 30-07-2016 07:10:00 17.6 C 94 % 16.62 C
3832 30-07-2016 07:15:00 17.7 C 94 % 16.72 C
3833 30-07-2016 07:20:00 17.7 C 94 % 16.72 C
3834 30-07-2016 07:25:00 17.8 C 94 % 16.82 C
3835 30-07-2016 07:30:00 17.8 C 95 % 16.99 C
3836 30-07-2016 07:35:00 17.9 C 95 % 17.09 C
3837 30-07-2016 07:40:00 18.1 C 95 % 17.29 C
3838 30-07-2016 07:45:00 18.2 C 95 % 17.39 C
3839 30-07-2016 07:50:00 18.3 C 94 % 17.32 C
3840 30-07-2016 07:55:00 18.3 C 94 % 17.32 C
3841 30-07-2016 08:00:00 18.3 C 93 % 17.15 C
3842 30-07-2016 08:05:00 18.4 C 93 % 17.25 C
3843 30-07-2016 08:10:00 18.5 C 93 % 17.35 C
3844 30-07-2016 08:15:00 18.6 C 92 % 17.27 C
3845 30-07-2016 08:20:00 18.7 C 92 % 17.37 C
3846 30-07-2016 08:25:00 18.8 C 91 % 17.3 C
3847 30-07-2016 08:30:00 18.8 C 90 % 17.12 C
3848 30-07-2016 08:35:00 18.9 C 90 % 17.22 C
3849 30-07-2016 08:40:00 19 C 90 % 17.32 C
3850 30-07-2016 08:45:00 19.1 C 90 % 17.42 C
Sensor: Nr:Datum:Temp:Feuchte:Taupunkt:
Aussen-T/F 3851 30-07-2016 08:50:00 19.2 C 89 % 17.34 C
3852 30-07-2016 08:55:00 19.2 C 88 % 17.16 C
3853 30-07-2016 09:00:00 19.4 C 89 % 17.54 C
3854 30-07-2016 09:05:00 19.5 C 88 % 17.46 C
3855 30-07-2016 09:10:00 19.6 C 86 % 17.19 C
3856 30-07-2016 09:15:00 19.7 C 85 % 17.11 C
3857 30-07-2016 09:20:00 19.8 C 85 % 17.21 C
3858 30-07-2016 09:25:00 19.9 C 84 % 17.12 C
3859 30-07-2016 09:30:00 19.9 C 84 % 17.12 C
3860 30-07-2016 09:35:00 20 C 84 % 17.21 C
3861 30-07-2016 09:40:00 20.1 C 84 % 17.31 C
3862 30-07-2016 09:45:00 20.1 C 83 % 17.12 C
3863 30-07-2016 09:50:00 20.2 C 84 % 17.41 C
3864 30-07-2016 09:55:00 20.3 C 82 % 17.13 C
3865 30-07-2016 10:00:00 20.4 C 82 % 17.22 C
3866 30-07-2016 10:05:00 20.6 C 82 % 17.42 C
3867 30-07-2016 10:10:00 20.8 C 83 % 17.81 C
3868 30-07-2016 10:15:00 20.9 C 81 % 17.52 C
3869 30-07-2016 10:20:00 21 C 78 % 17.02 C
3870 30-07-2016 10:25:00 21.1 C 81 % 17.71 C
3871 30-07-2016 10:30:00 21.1 C 82 % 17.91 C
3872 30-07-2016 10:35:00 21.2 C 83 % 18.2 C
3873 30-07-2016 10:40:00 21.2 C 73 % 16.17 C